<?xml version="1.0" encoding="UTF-8" standalone="no" ?>
<gpx xmlns="http://www.topografix.com/GPX/1/1" xmlns:xsi="http://www.w3.org/2001/XMLSchema-instance" xsi:schemaLocation="http://www.topografix.com/GPX/1/1 http://www.topografix.com/GPX/1/1/gpx.xsd" version="1.1" creator="VisuGPX - https://www.visugpx.com">
  <metadata>
    <name>Aveyron</name>
    <desc><![CDATA[9 jours de vélo dans l'Aveyron (et un peu du Lot)]]></desc>
  </metadata>
  <trk>
    <name><![CDATA[j8]]></name>
    <desc><![CDATA[comment ...]]></desc>
    <extensions>
      <line xmlns="http://www.topografix.com/GPX/gpx_style/0/2">
        <color>0000FF</color>
        <width>4</width>
      </line>
    </extensions>
    <trkseg>
      <trkpt lat="44.13361" lon="2.31211">
        <ele>611</ele>
        <time>2021-09-03T07:21:30Z</time>
      </trkpt>
      <trkpt lat="44.13361" lon="2.31211">
        <ele>611</ele>
        <time>2021-09-03T07:21:31Z</time>
      </trkpt>
      <trkpt lat="44.13364" lon="2.31223">
        <ele>609</ele>
        <time>2021-09-03T07:22:00Z</time>
      </trkpt>
      <trkpt lat="44.13366" lon="2.31239">
        <ele>606</ele>
        <time>2021-09-03T07:22:13Z</time>
      </trkpt>
      <trkpt lat="44.13371" lon="2.3125">
        <ele>585</ele>
        <time>2021-09-03T07:22:22Z</time>
      </trkpt>
      <trkpt lat="44.13377" lon="2.31258">
        <ele>561</ele>
        <time>2021-09-03T07:22:30Z</time>
      </trkpt>
      <trkpt lat="44.13378" lon="2.31268">
        <ele>549</ele>
        <time>2021-09-03T07:22:35Z</time>
      </trkpt>
      <trkpt lat="44.13372" lon="2.31277">
        <ele>537</ele>
        <time>2021-09-03T07:22:40Z</time>
      </trkpt>
      <trkpt lat="44.13364" lon="2.31289">
        <ele>509</ele>
        <time>2021-09-03T07:22:53Z</time>
      </trkpt>
      <trkpt lat="44.13364" lon="2.31296">
        <ele>504</ele>
        <time>2021-09-03T07:22:55Z</time>
      </trkpt>
      <trkpt lat="44.13379" lon="2.31343">
        <ele>480</ele>
        <time>2021-09-03T07:23:12Z</time>
      </trkpt>
      <trkpt lat="44.13376" lon="2.31349">
        <ele>479</ele>
        <time>2021-09-03T07:23:14Z</time>
      </trkpt>
      <trkpt lat="44.13363" lon="2.31376">
        <ele>472</ele>
        <time>2021-09-03T07:23:22Z</time>
      </trkpt>
      <trkpt lat="44.13355" lon="2.31385">
        <ele>470</ele>
        <time>2021-09-03T07:23:28Z</time>
      </trkpt>
      <trkpt lat="44.13353" lon="2.31394">
        <ele>469</ele>
        <time>2021-09-03T07:23:30Z</time>
      </trkpt>
      <trkpt lat="44.13341" lon="2.31415">
        <ele>468</ele>
        <time>2021-09-03T07:23:34Z</time>
      </trkpt>
      <trkpt lat="44.13309" lon="2.31447">
        <ele>451</ele>
        <time>2021-09-03T07:23:43Z</time>
      </trkpt>
      <trkpt lat="44.13305" lon="2.31457">
        <ele>447</ele>
        <time>2021-09-03T07:23:46Z</time>
      </trkpt>
      <trkpt lat="44.13307" lon="2.31465">
        <ele>445</ele>
        <time>2021-09-03T07:23:48Z</time>
      </trkpt>
      <trkpt lat="44.13312" lon="2.31472">
        <ele>442</ele>
        <time>2021-09-03T07:23:50Z</time>
      </trkpt>
      <trkpt lat="44.13319" lon="2.31479">
        <ele>439</ele>
        <time>2021-09-03T07:23:56Z</time>
      </trkpt>
      <trkpt lat="44.13322" lon="2.31484">
        <ele>438</ele>
        <time>2021-09-03T07:23:57Z</time>
      </trkpt>
      <trkpt lat="44.13423" lon="2.3156">
        <ele>430</ele>
        <time>2021-09-03T07:24:42Z</time>
      </trkpt>
      <trkpt lat="44.13418" lon="2.3157">
        <ele>433</ele>
        <time>2021-09-03T07:24:43Z</time>
      </trkpt>
      <trkpt lat="44.13412" lon="2.3157">
        <ele>438</ele>
        <time>2021-09-03T07:25:17Z</time>
      </trkpt>
      <trkpt lat="44.13406" lon="2.31565">
        <ele>436</ele>
        <time>2021-09-03T07:25:19Z</time>
      </trkpt>
      <trkpt lat="44.13313" lon="2.31534">
        <ele>425</ele>
        <time>2021-09-03T07:25:34Z</time>
      </trkpt>
      <trkpt lat="44.13072" lon="2.31381">
        <ele>399</ele>
        <time>2021-09-03T07:26:04Z</time>
      </trkpt>
      <trkpt lat="44.12986" lon="2.31337">
        <ele>390</ele>
        <time>2021-09-03T07:26:14Z</time>
      </trkpt>
      <trkpt lat="44.12969" lon="2.31335">
        <ele>388</ele>
        <time>2021-09-03T07:26:16Z</time>
      </trkpt>
      <trkpt lat="44.12934" lon="2.31345">
        <ele>384</ele>
        <time>2021-09-03T07:26:20Z</time>
      </trkpt>
      <trkpt lat="44.12827" lon="2.31406">
        <ele>372</ele>
        <time>2021-09-03T07:26:33Z</time>
      </trkpt>
      <trkpt lat="44.12813" lon="2.3142">
        <ele>370</ele>
        <time>2021-09-03T07:26:35Z</time>
      </trkpt>
      <trkpt lat="44.12796" lon="2.3146">
        <ele>365</ele>
        <time>2021-09-03T07:26:39Z</time>
      </trkpt>
      <trkpt lat="44.12753" lon="2.31628">
        <ele>355</ele>
        <time>2021-09-03T07:26:53Z</time>
      </trkpt>
      <trkpt lat="44.12741" lon="2.31648">
        <ele>354</ele>
        <time>2021-09-03T07:26:55Z</time>
      </trkpt>
      <trkpt lat="44.12726" lon="2.31663">
        <ele>353</ele>
        <time>2021-09-03T07:26:57Z</time>
      </trkpt>
      <trkpt lat="44.12699" lon="2.31675">
        <ele>349</ele>
        <time>2021-09-03T07:27:00Z</time>
      </trkpt>
      <trkpt lat="44.12639" lon="2.31703">
        <ele>343</ele>
        <time>2021-09-03T07:27:07Z</time>
      </trkpt>
      <trkpt lat="44.1261" lon="2.3173">
        <ele>339</ele>
        <time>2021-09-03T07:27:11Z</time>
      </trkpt>
      <trkpt lat="44.12597" lon="2.31747">
        <ele>337</ele>
        <time>2021-09-03T07:27:13Z</time>
      </trkpt>
      <trkpt lat="44.12592" lon="2.31757">
        <ele>336</ele>
        <time>2021-09-03T07:27:14Z</time>
      </trkpt>
      <trkpt lat="44.12562" lon="2.31878">
        <ele>330</ele>
        <time>2021-09-03T07:27:30Z</time>
      </trkpt>
      <trkpt lat="44.12549" lon="2.319">
        <ele>329</ele>
        <time>2021-09-03T07:27:33Z</time>
      </trkpt>
      <trkpt lat="44.12534" lon="2.31917">
        <ele>329</ele>
        <time>2021-09-03T07:27:36Z</time>
      </trkpt>
      <trkpt lat="44.12522" lon="2.31925">
        <ele>327</ele>
        <time>2021-09-03T07:27:38Z</time>
      </trkpt>
      <trkpt lat="44.12504" lon="2.31932">
        <ele>323</ele>
        <time>2021-09-03T07:27:41Z</time>
      </trkpt>
      <trkpt lat="44.12472" lon="2.31929">
        <ele>319</ele>
        <time>2021-09-03T07:27:49Z</time>
      </trkpt>
      <trkpt lat="44.12462" lon="2.31933">
        <ele>321</ele>
        <time>2021-09-03T07:27:54Z</time>
      </trkpt>
      <trkpt lat="44.12461" lon="2.3194">
        <ele>322</ele>
        <time>2021-09-03T07:28:26Z</time>
      </trkpt>
      <trkpt lat="44.12462" lon="2.31947">
        <ele>323</ele>
        <time>2021-09-03T07:28:29Z</time>
      </trkpt>
      <trkpt lat="44.12464" lon="2.31956">
        <ele>323</ele>
        <time>2021-09-03T07:28:32Z</time>
      </trkpt>
      <trkpt lat="44.12466" lon="2.31972">
        <ele>323</ele>
        <time>2021-09-03T07:28:36Z</time>
      </trkpt>
      <trkpt lat="44.12467" lon="2.31979">
        <ele>322</ele>
        <time>2021-09-03T07:28:38Z</time>
      </trkpt>
      <trkpt lat="44.12469" lon="2.31975">
        <ele>321</ele>
        <time>2021-09-03T07:28:47Z</time>
      </trkpt>
      <trkpt lat="44.12464" lon="2.3196">
        <ele>322</ele>
        <time>2021-09-03T07:28:51Z</time>
      </trkpt>
      <trkpt lat="44.12465" lon="2.31954">
        <ele>322</ele>
        <time>2021-09-03T07:28:53Z</time>
      </trkpt>
      <trkpt lat="44.12466" lon="2.31957">
        <ele>322</ele>
        <time>2021-09-03T07:31:48Z</time>
      </trkpt>
      <trkpt lat="44.1247" lon="2.31982">
        <ele>322</ele>
        <time>2021-09-03T07:31:53Z</time>
      </trkpt>
      <trkpt lat="44.12471" lon="2.31988">
        <ele>322</ele>
        <time>2021-09-03T07:31:54Z</time>
      </trkpt>
      <trkpt lat="44.12477" lon="2.31996">
        <ele>322</ele>
        <time>2021-09-03T07:31:56Z</time>
      </trkpt>
      <trkpt lat="44.12484" lon="2.31999">
        <ele>322</ele>
        <time>2021-09-03T07:31:58Z</time>
      </trkpt>
      <trkpt lat="44.12494" lon="2.31993">
        <ele>322</ele>
        <time>2021-09-03T07:32:02Z</time>
      </trkpt>
      <trkpt lat="44.12498" lon="2.31986">
        <ele>321</ele>
        <time>2021-09-03T07:32:04Z</time>
      </trkpt>
      <trkpt lat="44.12498" lon="2.31977">
        <ele>321</ele>
        <time>2021-09-03T07:32:06Z</time>
      </trkpt>
      <trkpt lat="44.12501" lon="2.31968">
        <ele>321</ele>
        <time>2021-09-03T07:32:08Z</time>
      </trkpt>
      <trkpt lat="44.12509" lon="2.31955">
        <ele>321</ele>
        <time>2021-09-03T07:32:11Z</time>
      </trkpt>
      <trkpt lat="44.1253" lon="2.31948">
        <ele>321</ele>
        <time>2021-09-03T07:32:15Z</time>
      </trkpt>
      <trkpt lat="44.12535" lon="2.31948">
        <ele>321</ele>
        <time>2021-09-03T07:32:16Z</time>
      </trkpt>
      <trkpt lat="44.12542" lon="2.31949">
        <ele>321</ele>
        <time>2021-09-03T07:32:17Z</time>
      </trkpt>
      <trkpt lat="44.12548" lon="2.31952">
        <ele>321</ele>
        <time>2021-09-03T07:32:18Z</time>
      </trkpt>
      <trkpt lat="44.12552" lon="2.31957">
        <ele>321</ele>
        <time>2021-09-03T07:32:19Z</time>
      </trkpt>
      <trkpt lat="44.12554" lon="2.31963">
        <ele>321</ele>
        <time>2021-09-03T07:32:20Z</time>
      </trkpt>
      <trkpt lat="44.12555" lon="2.31969">
        <ele>320</ele>
        <time>2021-09-03T07:32:21Z</time>
      </trkpt>
      <trkpt lat="44.12554" lon="2.31976">
        <ele>320</ele>
        <time>2021-09-03T07:32:22Z</time>
      </trkpt>
      <trkpt lat="44.12548" lon="2.31985">
        <ele>320</ele>
        <time>2021-09-03T07:32:24Z</time>
      </trkpt>
      <trkpt lat="44.12535" lon="2.31996">
        <ele>319</ele>
        <time>2021-09-03T07:32:27Z</time>
      </trkpt>
      <trkpt lat="44.12527" lon="2.32008">
        <ele>319</ele>
        <time>2021-09-03T07:32:29Z</time>
      </trkpt>
      <trkpt lat="44.1248" lon="2.32138">
        <ele>309</ele>
        <time>2021-09-03T07:32:44Z</time>
      </trkpt>
      <trkpt lat="44.12477" lon="2.32164">
        <ele>308</ele>
        <time>2021-09-03T07:32:47Z</time>
      </trkpt>
      <trkpt lat="44.12496" lon="2.32284">
        <ele>300</ele>
        <time>2021-09-03T07:33:04Z</time>
      </trkpt>
      <trkpt lat="44.12495" lon="2.32296">
        <ele>299</ele>
        <time>2021-09-03T07:33:06Z</time>
      </trkpt>
      <trkpt lat="44.12499" lon="2.3232">
        <ele>296</ele>
        <time>2021-09-03T07:33:10Z</time>
      </trkpt>
      <trkpt lat="44.12521" lon="2.32352">
        <ele>293</ele>
        <time>2021-09-03T07:33:18Z</time>
      </trkpt>
      <trkpt lat="44.12525" lon="2.32358">
        <ele>293</ele>
        <time>2021-09-03T07:33:20Z</time>
      </trkpt>
      <trkpt lat="44.12524" lon="2.32365">
        <ele>294</ele>
        <time>2021-09-03T07:34:15Z</time>
      </trkpt>
      <trkpt lat="44.12528" lon="2.32401">
        <ele>296</ele>
        <time>2021-09-03T07:34:26Z</time>
      </trkpt>
      <trkpt lat="44.12528" lon="2.32427">
        <ele>297</ele>
        <time>2021-09-03T07:34:32Z</time>
      </trkpt>
      <trkpt lat="44.12492" lon="2.32602">
        <ele>289</ele>
        <time>2021-09-03T07:35:03Z</time>
      </trkpt>
      <trkpt lat="44.12485" lon="2.3263">
        <ele>288</ele>
        <time>2021-09-03T07:35:09Z</time>
      </trkpt>
      <trkpt lat="44.12482" lon="2.32638">
        <ele>287</ele>
        <time>2021-09-03T07:35:11Z</time>
      </trkpt>
      <trkpt lat="44.12473" lon="2.32667">
        <ele>287</ele>
        <time>2021-09-03T07:35:17Z</time>
      </trkpt>
      <trkpt lat="44.12471" lon="2.32693">
        <ele>287</ele>
        <time>2021-09-03T07:35:21Z</time>
      </trkpt>
      <trkpt lat="44.12466" lon="2.32724">
        <ele>285</ele>
        <time>2021-09-03T07:35:25Z</time>
      </trkpt>
      <trkpt lat="44.12467" lon="2.32734">
        <ele>285</ele>
        <time>2021-09-03T07:35:27Z</time>
      </trkpt>
      <trkpt lat="44.12461" lon="2.32766">
        <ele>286</ele>
        <time>2021-09-03T07:35:33Z</time>
      </trkpt>
      <trkpt lat="44.12457" lon="2.32775">
        <ele>286</ele>
        <time>2021-09-03T07:35:35Z</time>
      </trkpt>
      <trkpt lat="44.12441" lon="2.32801">
        <ele>286</ele>
        <time>2021-09-03T07:35:40Z</time>
      </trkpt>
      <trkpt lat="44.12426" lon="2.32829">
        <ele>287</ele>
        <time>2021-09-03T07:35:44Z</time>
      </trkpt>
      <trkpt lat="44.12402" lon="2.32956">
        <ele>288</ele>
        <time>2021-09-03T07:36:02Z</time>
      </trkpt>
      <trkpt lat="44.12402" lon="2.32963">
        <ele>288</ele>
        <time>2021-09-03T07:36:04Z</time>
      </trkpt>
      <trkpt lat="44.12399" lon="2.32973">
        <ele>288</ele>
        <time>2021-09-03T07:36:07Z</time>
      </trkpt>
      <trkpt lat="44.12393" lon="2.33001">
        <ele>284</ele>
        <time>2021-09-03T07:36:15Z</time>
      </trkpt>
      <trkpt lat="44.12385" lon="2.33028">
        <ele>286</ele>
        <time>2021-09-03T07:36:21Z</time>
      </trkpt>
      <trkpt lat="44.12384" lon="2.33038">
        <ele>287</ele>
        <time>2021-09-03T07:36:23Z</time>
      </trkpt>
      <trkpt lat="44.12386" lon="2.33045">
        <ele>287</ele>
        <time>2021-09-03T07:36:25Z</time>
      </trkpt>
      <trkpt lat="44.12385" lon="2.33052">
        <ele>288</ele>
        <time>2021-09-03T07:36:27Z</time>
      </trkpt>
      <trkpt lat="44.12383" lon="2.33079">
        <ele>289</ele>
        <time>2021-09-03T07:36:32Z</time>
      </trkpt>
      <trkpt lat="44.12383" lon="2.33087">
        <ele>289</ele>
        <time>2021-09-03T07:36:33Z</time>
      </trkpt>
      <trkpt lat="44.12382" lon="2.33099">
        <ele>289</ele>
        <time>2021-09-03T07:36:35Z</time>
      </trkpt>
      <trkpt lat="44.12382" lon="2.33114">
        <ele>290</ele>
        <time>2021-09-03T07:36:37Z</time>
      </trkpt>
      <trkpt lat="44.12379" lon="2.33132">
        <ele>291</ele>
        <time>2021-09-03T07:36:40Z</time>
      </trkpt>
      <trkpt lat="44.12374" lon="2.33149">
        <ele>292</ele>
        <time>2021-09-03T07:36:44Z</time>
      </trkpt>
      <trkpt lat="44.12373" lon="2.33155">
        <ele>292</ele>
        <time>2021-09-03T07:36:46Z</time>
      </trkpt>
      <trkpt lat="44.12372" lon="2.33172">
        <ele>291</ele>
        <time>2021-09-03T07:36:50Z</time>
      </trkpt>
      <trkpt lat="44.12372" lon="2.33182">
        <ele>289</ele>
        <time>2021-09-03T07:36:52Z</time>
      </trkpt>
      <trkpt lat="44.12373" lon="2.33193">
        <ele>288</ele>
        <time>2021-09-03T07:36:54Z</time>
      </trkpt>
      <trkpt lat="44.12373" lon="2.33202">
        <ele>287</ele>
        <time>2021-09-03T07:36:56Z</time>
      </trkpt>
      <trkpt lat="44.12366" lon="2.33233">
        <ele>283</ele>
        <time>2021-09-03T07:37:08Z</time>
      </trkpt>
      <trkpt lat="44.12363" lon="2.33251">
        <ele>281</ele>
        <time>2021-09-03T07:37:13Z</time>
      </trkpt>
      <trkpt lat="44.12358" lon="2.3326">
        <ele>281</ele>
        <time>2021-09-03T07:37:15Z</time>
      </trkpt>
      <trkpt lat="44.12355" lon="2.33272">
        <ele>280</ele>
        <time>2021-09-03T07:37:17Z</time>
      </trkpt>
      <trkpt lat="44.12352" lon="2.33279">
        <ele>280</ele>
        <time>2021-09-03T07:37:18Z</time>
      </trkpt>
      <trkpt lat="44.1235" lon="2.33293">
        <ele>280</ele>
        <time>2021-09-03T07:37:20Z</time>
      </trkpt>
      <trkpt lat="44.12344" lon="2.33308">
        <ele>281</ele>
        <time>2021-09-03T07:37:22Z</time>
      </trkpt>
      <trkpt lat="44.12342" lon="2.33316">
        <ele>281</ele>
        <time>2021-09-03T07:37:23Z</time>
      </trkpt>
      <trkpt lat="44.1234" lon="2.33323">
        <ele>280</ele>
        <time>2021-09-03T07:37:24Z</time>
      </trkpt>
      <trkpt lat="44.12338" lon="2.3333">
        <ele>280</ele>
        <time>2021-09-03T07:37:25Z</time>
      </trkpt>
      <trkpt lat="44.12334" lon="2.33347">
        <ele>281</ele>
        <time>2021-09-03T07:37:28Z</time>
      </trkpt>
      <trkpt lat="44.12332" lon="2.33358">
        <ele>282</ele>
        <time>2021-09-03T07:37:30Z</time>
      </trkpt>
      <trkpt lat="44.12324" lon="2.33379">
        <ele>281</ele>
        <time>2021-09-03T07:37:34Z</time>
      </trkpt>
      <trkpt lat="44.12312" lon="2.33439">
        <ele>272</ele>
        <time>2021-09-03T07:37:43Z</time>
      </trkpt>
      <trkpt lat="44.12304" lon="2.33486">
        <ele>275</ele>
        <time>2021-09-03T07:37:53Z</time>
      </trkpt>
      <trkpt lat="44.12289" lon="2.33512">
        <ele>280</ele>
        <time>2021-09-03T07:38:00Z</time>
      </trkpt>
      <trkpt lat="44.12283" lon="2.33521">
        <ele>282</ele>
        <time>2021-09-03T07:38:02Z</time>
      </trkpt>
      <trkpt lat="44.12277" lon="2.33527">
        <ele>283</ele>
        <time>2021-09-03T07:38:04Z</time>
      </trkpt>
      <trkpt lat="44.12273" lon="2.33533">
        <ele>285</ele>
        <time>2021-09-03T07:38:06Z</time>
      </trkpt>
      <trkpt lat="44.12222" lon="2.33596">
        <ele>294</ele>
        <time>2021-09-03T07:38:24Z</time>
      </trkpt>
      <trkpt lat="44.12205" lon="2.3362">
        <ele>294</ele>
        <time>2021-09-03T07:38:30Z</time>
      </trkpt>
      <trkpt lat="44.12181" lon="2.33651">
        <ele>296</ele>
        <time>2021-09-03T07:38:38Z</time>
      </trkpt>
      <trkpt lat="44.12169" lon="2.33672">
        <ele>298</ele>
        <time>2021-09-03T07:38:44Z</time>
      </trkpt>
      <trkpt lat="44.12166" lon="2.33677">
        <ele>299</ele>
        <time>2021-09-03T07:38:45Z</time>
      </trkpt>
      <trkpt lat="44.12142" lon="2.33717">
        <ele>302</ele>
        <time>2021-09-03T07:38:53Z</time>
      </trkpt>
      <trkpt lat="44.12116" lon="2.33753">
        <ele>300</ele>
        <time>2021-09-03T07:39:01Z</time>
      </trkpt>
      <trkpt lat="44.12111" lon="2.3376">
        <ele>299</ele>
        <time>2021-09-03T07:39:03Z</time>
      </trkpt>
      <trkpt lat="44.12106" lon="2.33769">
        <ele>298</ele>
        <time>2021-09-03T07:39:05Z</time>
      </trkpt>
      <trkpt lat="44.12094" lon="2.33788">
        <ele>296</ele>
        <time>2021-09-03T07:39:09Z</time>
      </trkpt>
      <trkpt lat="44.12091" lon="2.33796">
        <ele>295</ele>
        <time>2021-09-03T07:39:11Z</time>
      </trkpt>
      <trkpt lat="44.12087" lon="2.33816">
        <ele>294</ele>
        <time>2021-09-03T07:39:15Z</time>
      </trkpt>
      <trkpt lat="44.1209" lon="2.33838">
        <ele>297</ele>
        <time>2021-09-03T07:39:19Z</time>
      </trkpt>
      <trkpt lat="44.12095" lon="2.33847">
        <ele>298</ele>
        <time>2021-09-03T07:39:21Z</time>
      </trkpt>
      <trkpt lat="44.12101" lon="2.33856">
        <ele>300</ele>
        <time>2021-09-03T07:39:23Z</time>
      </trkpt>
      <trkpt lat="44.12106" lon="2.33865">
        <ele>303</ele>
        <time>2021-09-03T07:39:25Z</time>
      </trkpt>
      <trkpt lat="44.12175" lon="2.33903">
        <ele>315</ele>
        <time>2021-09-03T07:39:42Z</time>
      </trkpt>
      <trkpt lat="44.12188" lon="2.33905">
        <ele>317</ele>
        <time>2021-09-03T07:39:46Z</time>
      </trkpt>
      <trkpt lat="44.12202" lon="2.33909">
        <ele>319</ele>
        <time>2021-09-03T07:39:50Z</time>
      </trkpt>
      <trkpt lat="44.12334" lon="2.33931">
        <ele>316</ele>
        <time>2021-09-03T07:40:21Z</time>
      </trkpt>
      <trkpt lat="44.12357" lon="2.33939">
        <ele>314</ele>
        <time>2021-09-03T07:40:26Z</time>
      </trkpt>
      <trkpt lat="44.12374" lon="2.33949">
        <ele>311</ele>
        <time>2021-09-03T07:40:30Z</time>
      </trkpt>
      <trkpt lat="44.12386" lon="2.3396">
        <ele>309</ele>
        <time>2021-09-03T07:40:33Z</time>
      </trkpt>
      <trkpt lat="44.12414" lon="2.34027">
        <ele>303</ele>
        <time>2021-09-03T07:40:46Z</time>
      </trkpt>
      <trkpt lat="44.12424" lon="2.34088">
        <ele>301</ele>
        <time>2021-09-03T07:40:56Z</time>
      </trkpt>
      <trkpt lat="44.12424" lon="2.34144">
        <ele>299</ele>
        <time>2021-09-03T07:41:06Z</time>
      </trkpt>
      <trkpt lat="44.12421" lon="2.34163">
        <ele>299</ele>
        <time>2021-09-03T07:41:10Z</time>
      </trkpt>
      <trkpt lat="44.12414" lon="2.34182">
        <ele>300</ele>
        <time>2021-09-03T07:41:14Z</time>
      </trkpt>
      <trkpt lat="44.12391" lon="2.34211">
        <ele>299</ele>
        <time>2021-09-03T07:41:22Z</time>
      </trkpt>
      <trkpt lat="44.12357" lon="2.34228">
        <ele>300</ele>
        <time>2021-09-03T07:41:29Z</time>
      </trkpt>
      <trkpt lat="44.12253" lon="2.3425">
        <ele>303</ele>
        <time>2021-09-03T07:41:53Z</time>
      </trkpt>
      <trkpt lat="44.12225" lon="2.3427">
        <ele>304</ele>
        <time>2021-09-03T07:42:00Z</time>
      </trkpt>
      <trkpt lat="44.12124" lon="2.34394">
        <ele>309</ele>
        <time>2021-09-03T07:42:31Z</time>
      </trkpt>
      <trkpt lat="44.12031" lon="2.34519">
        <ele>315</ele>
        <time>2021-09-03T07:43:01Z</time>
      </trkpt>
      <trkpt lat="44.11949" lon="2.34614">
        <ele>315</ele>
        <time>2021-09-03T07:43:24Z</time>
      </trkpt>
      <trkpt lat="44.11921" lon="2.34651">
        <ele>318</ele>
        <time>2021-09-03T07:43:36Z</time>
      </trkpt>
      <trkpt lat="44.11847" lon="2.34738">
        <ele>321</ele>
        <time>2021-09-03T07:44:08Z</time>
      </trkpt>
      <trkpt lat="44.11797" lon="2.34794">
        <ele>320</ele>
        <time>2021-09-03T07:44:28Z</time>
      </trkpt>
      <trkpt lat="44.11787" lon="2.34813">
        <ele>320</ele>
        <time>2021-09-03T07:44:32Z</time>
      </trkpt>
      <trkpt lat="44.11757" lon="2.34882">
        <ele>314</ele>
        <time>2021-09-03T07:44:53Z</time>
      </trkpt>
      <trkpt lat="44.11748" lon="2.34944">
        <ele>317</ele>
        <time>2021-09-03T07:45:10Z</time>
      </trkpt>
      <trkpt lat="44.11747" lon="2.34969">
        <ele>316</ele>
        <time>2021-09-03T07:45:19Z</time>
      </trkpt>
      <trkpt lat="44.11747" lon="2.34994">
        <ele>316</ele>
        <time>2021-09-03T07:45:28Z</time>
      </trkpt>
      <trkpt lat="44.11748" lon="2.35002">
        <ele>317</ele>
        <time>2021-09-03T07:45:31Z</time>
      </trkpt>
      <trkpt lat="44.11749" lon="2.35008">
        <ele>317</ele>
        <time>2021-09-03T07:45:34Z</time>
      </trkpt>
      <trkpt lat="44.11745" lon="2.35015">
        <ele>318</ele>
        <time>2021-09-03T07:46:18Z</time>
      </trkpt>
      <trkpt lat="44.11745" lon="2.35022">
        <ele>320</ele>
        <time>2021-09-03T07:46:20Z</time>
      </trkpt>
      <trkpt lat="44.1175" lon="2.35037">
        <ele>322</ele>
        <time>2021-09-03T07:46:24Z</time>
      </trkpt>
      <trkpt lat="44.11802" lon="2.35105">
        <ele>315</ele>
        <time>2021-09-03T07:46:36Z</time>
      </trkpt>
      <trkpt lat="44.11854" lon="2.35132">
        <ele>311</ele>
        <time>2021-09-03T07:46:45Z</time>
      </trkpt>
      <trkpt lat="44.11858" lon="2.35136">
        <ele>310</ele>
        <time>2021-09-03T07:46:46Z</time>
      </trkpt>
      <trkpt lat="44.1186" lon="2.35142">
        <ele>309</ele>
        <time>2021-09-03T07:46:47Z</time>
      </trkpt>
      <trkpt lat="44.11861" lon="2.35155">
        <ele>308</ele>
        <time>2021-09-03T07:46:49Z</time>
      </trkpt>
      <trkpt lat="44.11827" lon="2.35304">
        <ele>315</ele>
        <time>2021-09-03T07:47:15Z</time>
      </trkpt>
      <trkpt lat="44.11828" lon="2.35311">
        <ele>315</ele>
        <time>2021-09-03T07:47:18Z</time>
      </trkpt>
      <trkpt lat="44.11832" lon="2.35319">
        <ele>314</ele>
        <time>2021-09-03T07:47:21Z</time>
      </trkpt>
      <trkpt lat="44.11878" lon="2.35381">
        <ele>318</ele>
        <time>2021-09-03T07:47:53Z</time>
      </trkpt>
      <trkpt lat="44.11887" lon="2.3539">
        <ele>320</ele>
        <time>2021-09-03T07:47:59Z</time>
      </trkpt>
      <trkpt lat="44.11895" lon="2.354">
        <ele>321</ele>
        <time>2021-09-03T07:48:05Z</time>
      </trkpt>
      <trkpt lat="44.11926" lon="2.35432">
        <ele>323</ele>
        <time>2021-09-03T07:48:26Z</time>
      </trkpt>
      <trkpt lat="44.11971" lon="2.35477">
        <ele>328</ele>
        <time>2021-09-03T07:48:57Z</time>
      </trkpt>
      <trkpt lat="44.11995" lon="2.3552">
        <ele>331</ele>
        <time>2021-09-03T07:49:20Z</time>
      </trkpt>
      <trkpt lat="44.11998" lon="2.35527">
        <ele>332</ele>
        <time>2021-09-03T07:49:23Z</time>
      </trkpt>
      <trkpt lat="44.12018" lon="2.35561">
        <ele>334</ele>
        <time>2021-09-03T07:49:41Z</time>
      </trkpt>
      <trkpt lat="44.12022" lon="2.35565">
        <ele>334</ele>
        <time>2021-09-03T07:49:44Z</time>
      </trkpt>
      <trkpt lat="44.12037" lon="2.35604">
        <ele>329</ele>
        <time>2021-09-03T07:50:02Z</time>
      </trkpt>
      <trkpt lat="44.12041" lon="2.3561">
        <ele>328</ele>
        <time>2021-09-03T07:50:05Z</time>
      </trkpt>
      <trkpt lat="44.12047" lon="2.35611">
        <ele>328</ele>
        <time>2021-09-03T07:50:08Z</time>
      </trkpt>
      <trkpt lat="44.12053" lon="2.3561">
        <ele>328</ele>
        <time>2021-09-03T07:50:10Z</time>
      </trkpt>
      <trkpt lat="44.12064" lon="2.3559">
        <ele>331</ele>
        <time>2021-09-03T07:50:16Z</time>
      </trkpt>
      <trkpt lat="44.1207" lon="2.35575">
        <ele>332</ele>
        <time>2021-09-03T07:50:20Z</time>
      </trkpt>
      <trkpt lat="44.12082" lon="2.3554">
        <ele>333</ele>
        <time>2021-09-03T07:50:28Z</time>
      </trkpt>
      <trkpt lat="44.121" lon="2.35523">
        <ele>333</ele>
        <time>2021-09-03T07:50:34Z</time>
      </trkpt>
      <trkpt lat="44.12179" lon="2.35489">
        <ele>337</ele>
        <time>2021-09-03T07:50:58Z</time>
      </trkpt>
      <trkpt lat="44.12246" lon="2.35473">
        <ele>338</ele>
        <time>2021-09-03T07:51:16Z</time>
      </trkpt>
      <trkpt lat="44.12319" lon="2.35428">
        <ele>341</ele>
        <time>2021-09-03T07:51:46Z</time>
      </trkpt>
      <trkpt lat="44.12375" lon="2.35395">
        <ele>348</ele>
        <time>2021-09-03T07:52:12Z</time>
      </trkpt>
      <trkpt lat="44.12444" lon="2.3538">
        <ele>356</ele>
        <time>2021-09-03T07:52:45Z</time>
      </trkpt>
      <trkpt lat="44.12515" lon="2.35374">
        <ele>359</ele>
        <time>2021-09-03T07:53:17Z</time>
      </trkpt>
      <trkpt lat="44.12527" lon="2.35375">
        <ele>359</ele>
        <time>2021-09-03T07:53:23Z</time>
      </trkpt>
      <trkpt lat="44.12539" lon="2.35379">
        <ele>359</ele>
        <time>2021-09-03T07:53:29Z</time>
      </trkpt>
      <trkpt lat="44.12543" lon="2.35385">
        <ele>360</ele>
        <time>2021-09-03T07:53:32Z</time>
      </trkpt>
      <trkpt lat="44.12545" lon="2.35394">
        <ele>361</ele>
        <time>2021-09-03T07:53:35Z</time>
      </trkpt>
      <trkpt lat="44.12543" lon="2.35409">
        <ele>362</ele>
        <time>2021-09-03T07:53:40Z</time>
      </trkpt>
      <trkpt lat="44.12541" lon="2.35414">
        <ele>362</ele>
        <time>2021-09-03T07:53:42Z</time>
      </trkpt>
      <trkpt lat="44.12523" lon="2.35431">
        <ele>364</ele>
        <time>2021-09-03T07:53:52Z</time>
      </trkpt>
      <trkpt lat="44.12513" lon="2.35438">
        <ele>365</ele>
        <time>2021-09-03T07:53:57Z</time>
      </trkpt>
      <trkpt lat="44.12492" lon="2.35457">
        <ele>366</ele>
        <time>2021-09-03T07:54:08Z</time>
      </trkpt>
      <trkpt lat="44.12488" lon="2.3546">
        <ele>366</ele>
        <time>2021-09-03T07:54:10Z</time>
      </trkpt>
      <trkpt lat="44.12482" lon="2.35463">
        <ele>367</ele>
        <time>2021-09-03T07:54:13Z</time>
      </trkpt>
      <trkpt lat="44.12477" lon="2.35468">
        <ele>367</ele>
        <time>2021-09-03T07:54:16Z</time>
      </trkpt>
      <trkpt lat="44.12467" lon="2.35477">
        <ele>368</ele>
        <time>2021-09-03T07:54:22Z</time>
      </trkpt>
      <trkpt lat="44.12458" lon="2.35485">
        <ele>371</ele>
        <time>2021-09-03T07:54:28Z</time>
      </trkpt>
      <trkpt lat="44.12454" lon="2.3549">
        <ele>371</ele>
        <time>2021-09-03T07:55:09Z</time>
      </trkpt>
      <trkpt lat="44.12457" lon="2.35496">
        <ele>371</ele>
        <time>2021-09-03T07:55:11Z</time>
      </trkpt>
      <trkpt lat="44.12459" lon="2.35504">
        <ele>370</ele>
        <time>2021-09-03T07:55:13Z</time>
      </trkpt>
      <trkpt lat="44.1246" lon="2.35515">
        <ele>369</ele>
        <time>2021-09-03T07:55:15Z</time>
      </trkpt>
      <trkpt lat="44.12444" lon="2.35574">
        <ele>366</ele>
        <time>2021-09-03T07:55:23Z</time>
      </trkpt>
      <trkpt lat="44.12438" lon="2.35591">
        <ele>365</ele>
        <time>2021-09-03T07:55:25Z</time>
      </trkpt>
      <trkpt lat="44.12427" lon="2.35663">
        <ele>362</ele>
        <time>2021-09-03T07:55:33Z</time>
      </trkpt>
      <trkpt lat="44.12421" lon="2.35682">
        <ele>359</ele>
        <time>2021-09-03T07:55:35Z</time>
      </trkpt>
      <trkpt lat="44.12396" lon="2.35733">
        <ele>356</ele>
        <time>2021-09-03T07:55:41Z</time>
      </trkpt>
      <trkpt lat="44.12391" lon="2.35752">
        <ele>355</ele>
        <time>2021-09-03T07:55:43Z</time>
      </trkpt>
      <trkpt lat="44.12387" lon="2.35815">
        <ele>355</ele>
        <time>2021-09-03T07:55:49Z</time>
      </trkpt>
      <trkpt lat="44.12387" lon="2.35852">
        <ele>354</ele>
        <time>2021-09-03T07:55:53Z</time>
      </trkpt>
      <trkpt lat="44.12383" lon="2.35885">
        <ele>353</ele>
        <time>2021-09-03T07:55:57Z</time>
      </trkpt>
      <trkpt lat="44.12374" lon="2.35915">
        <ele>352</ele>
        <time>2021-09-03T07:56:02Z</time>
      </trkpt>
      <trkpt lat="44.12352" lon="2.35958">
        <ele>350</ele>
        <time>2021-09-03T07:56:10Z</time>
      </trkpt>
      <trkpt lat="44.12334" lon="2.36017">
        <ele>347</ele>
        <time>2021-09-03T07:56:18Z</time>
      </trkpt>
      <trkpt lat="44.12332" lon="2.36024">
        <ele>346</ele>
        <time>2021-09-03T07:56:19Z</time>
      </trkpt>
      <trkpt lat="44.1231" lon="2.36063">
        <ele>345</ele>
        <time>2021-09-03T07:56:25Z</time>
      </trkpt>
      <trkpt lat="44.12305" lon="2.36071">
        <ele>344</ele>
        <time>2021-09-03T07:56:27Z</time>
      </trkpt>
      <trkpt lat="44.12299" lon="2.36082">
        <ele>341</ele>
        <time>2021-09-03T07:58:02Z</time>
      </trkpt>
      <trkpt lat="44.12287" lon="2.36113">
        <ele>337</ele>
        <time>2021-09-03T07:58:11Z</time>
      </trkpt>
      <trkpt lat="44.12284" lon="2.36195">
        <ele>331</ele>
        <time>2021-09-03T07:58:21Z</time>
      </trkpt>
      <trkpt lat="44.12293" lon="2.36365">
        <ele>322</ele>
        <time>2021-09-03T07:58:38Z</time>
      </trkpt>
      <trkpt lat="44.12287" lon="2.36423">
        <ele>320</ele>
        <time>2021-09-03T07:58:44Z</time>
      </trkpt>
      <trkpt lat="44.12302" lon="2.3648">
        <ele>317</ele>
        <time>2021-09-03T07:58:50Z</time>
      </trkpt>
      <trkpt lat="44.12307" lon="2.36522">
        <ele>316</ele>
        <time>2021-09-03T07:58:54Z</time>
      </trkpt>
      <trkpt lat="44.12308" lon="2.36537">
        <ele>315</ele>
        <time>2021-09-03T07:58:56Z</time>
      </trkpt>
      <trkpt lat="44.1231" lon="2.36547">
        <ele>315</ele>
        <time>2021-09-03T07:58:58Z</time>
      </trkpt>
      <trkpt lat="44.12315" lon="2.3655">
        <ele>317</ele>
        <time>2021-09-03T07:59:01Z</time>
      </trkpt>
      <trkpt lat="44.12352" lon="2.36539">
        <ele>321</ele>
        <time>2021-09-03T07:59:11Z</time>
      </trkpt>
      <trkpt lat="44.1236" lon="2.36535">
        <ele>321</ele>
        <time>2021-09-03T07:59:13Z</time>
      </trkpt>
      <trkpt lat="44.12422" lon="2.36532">
        <ele>319</ele>
        <time>2021-09-03T07:59:31Z</time>
      </trkpt>
      <trkpt lat="44.12479" lon="2.36585">
        <ele>319</ele>
        <time>2021-09-03T08:00:03Z</time>
      </trkpt>
      <trkpt lat="44.12481" lon="2.36591">
        <ele>319</ele>
        <time>2021-09-03T08:00:05Z</time>
      </trkpt>
      <trkpt lat="44.1248" lon="2.36608">
        <ele>319</ele>
        <time>2021-09-03T08:00:11Z</time>
      </trkpt>
      <trkpt lat="44.12465" lon="2.36647">
        <ele>318</ele>
        <time>2021-09-03T08:00:26Z</time>
      </trkpt>
      <trkpt lat="44.12497" lon="2.36737">
        <ele>322</ele>
        <time>2021-09-03T08:00:58Z</time>
      </trkpt>
      <trkpt lat="44.12501" lon="2.36761">
        <ele>323</ele>
        <time>2021-09-03T08:01:08Z</time>
      </trkpt>
      <trkpt lat="44.12498" lon="2.36766">
        <ele>322</ele>
        <time>2021-09-03T08:02:20Z</time>
      </trkpt>
      <trkpt lat="44.12499" lon="2.36773">
        <ele>322</ele>
        <time>2021-09-03T08:02:22Z</time>
      </trkpt>
      <trkpt lat="44.125" lon="2.36781">
        <ele>322</ele>
        <time>2021-09-03T08:02:24Z</time>
      </trkpt>
      <trkpt lat="44.12502" lon="2.36801">
        <ele>321</ele>
        <time>2021-09-03T08:02:28Z</time>
      </trkpt>
      <trkpt lat="44.12494" lon="2.37056">
        <ele>305</ele>
        <time>2021-09-03T08:02:59Z</time>
      </trkpt>
      <trkpt lat="44.12502" lon="2.37129">
        <ele>305</ele>
        <time>2021-09-03T08:03:05Z</time>
      </trkpt>
      <trkpt lat="44.12523" lon="2.37195">
        <ele>308</ele>
        <time>2021-09-03T08:03:12Z</time>
      </trkpt>
      <trkpt lat="44.12564" lon="2.37287">
        <ele>308</ele>
        <time>2021-09-03T08:03:28Z</time>
      </trkpt>
      <trkpt lat="44.12574" lon="2.37305">
        <ele>308</ele>
        <time>2021-09-03T08:03:32Z</time>
      </trkpt>
      <trkpt lat="44.12604" lon="2.37356">
        <ele>310</ele>
        <time>2021-09-03T08:03:44Z</time>
      </trkpt>
      <trkpt lat="44.12635" lon="2.37403">
        <ele>311</ele>
        <time>2021-09-03T08:03:55Z</time>
      </trkpt>
      <trkpt lat="44.12664" lon="2.37426">
        <ele>312</ele>
        <time>2021-09-03T08:04:02Z</time>
      </trkpt>
      <trkpt lat="44.12705" lon="2.37452">
        <ele>312</ele>
        <time>2021-09-03T08:04:12Z</time>
      </trkpt>
      <trkpt lat="44.12713" lon="2.3746">
        <ele>312</ele>
        <time>2021-09-03T08:04:14Z</time>
      </trkpt>
      <trkpt lat="44.12719" lon="2.37473">
        <ele>312</ele>
        <time>2021-09-03T08:04:16Z</time>
      </trkpt>
      <trkpt lat="44.12713" lon="2.37563">
        <ele>311</ele>
        <time>2021-09-03T08:04:29Z</time>
      </trkpt>
      <trkpt lat="44.12707" lon="2.37573">
        <ele>311</ele>
        <time>2021-09-03T08:04:31Z</time>
      </trkpt>
      <trkpt lat="44.12702" lon="2.37576">
        <ele>311</ele>
        <time>2021-09-03T08:04:32Z</time>
      </trkpt>
      <trkpt lat="44.12634" lon="2.37548">
        <ele>311</ele>
        <time>2021-09-03T08:04:47Z</time>
      </trkpt>
      <trkpt lat="44.12516" lon="2.37523">
        <ele>320</ele>
        <time>2021-09-03T08:05:09Z</time>
      </trkpt>
      <trkpt lat="44.12481" lon="2.37523">
        <ele>320</ele>
        <time>2021-09-03T08:05:16Z</time>
      </trkpt>
      <trkpt lat="44.12472" lon="2.37523">
        <ele>320</ele>
        <time>2021-09-03T08:05:18Z</time>
      </trkpt>
      <trkpt lat="44.12463" lon="2.37524">
        <ele>319</ele>
        <time>2021-09-03T08:05:20Z</time>
      </trkpt>
      <trkpt lat="44.12452" lon="2.37533">
        <ele>319</ele>
        <time>2021-09-03T08:05:23Z</time>
      </trkpt>
      <trkpt lat="44.12438" lon="2.37558">
        <ele>318</ele>
        <time>2021-09-03T08:05:28Z</time>
      </trkpt>
      <trkpt lat="44.12433" lon="2.37568">
        <ele>318</ele>
        <time>2021-09-03T08:05:30Z</time>
      </trkpt>
      <trkpt lat="44.12419" lon="2.376">
        <ele>317</ele>
        <time>2021-09-03T08:05:38Z</time>
      </trkpt>
      <trkpt lat="44.1239" lon="2.3768">
        <ele>312</ele>
        <time>2021-09-03T08:05:58Z</time>
      </trkpt>
      <trkpt lat="44.12383" lon="2.3772">
        <ele>313</ele>
        <time>2021-09-03T08:06:06Z</time>
      </trkpt>
      <trkpt lat="44.12382" lon="2.37746">
        <ele>314</ele>
        <time>2021-09-03T08:06:12Z</time>
      </trkpt>
      <trkpt lat="44.12392" lon="2.37819">
        <ele>314</ele>
        <time>2021-09-03T08:06:36Z</time>
      </trkpt>
      <trkpt lat="44.12394" lon="2.37827">
        <ele>313</ele>
        <time>2021-09-03T08:06:39Z</time>
      </trkpt>
      <trkpt lat="44.12397" lon="2.3785">
        <ele>312</ele>
        <time>2021-09-03T08:06:46Z</time>
      </trkpt>
      <trkpt lat="44.12406" lon="2.37953">
        <ele>312</ele>
        <time>2021-09-03T08:07:16Z</time>
      </trkpt>
      <trkpt lat="44.12412" lon="2.38055">
        <ele>308</ele>
        <time>2021-09-03T08:07:47Z</time>
      </trkpt>
      <trkpt lat="44.1241" lon="2.38094">
        <ele>306</ele>
        <time>2021-09-03T08:07:57Z</time>
      </trkpt>
      <trkpt lat="44.1239" lon="2.38216">
        <ele>306</ele>
        <time>2021-09-03T08:08:19Z</time>
      </trkpt>
      <trkpt lat="44.12391" lon="2.38231">
        <ele>307</ele>
        <time>2021-09-03T08:08:21Z</time>
      </trkpt>
      <trkpt lat="44.12394" lon="2.38246">
        <ele>309</ele>
        <time>2021-09-03T08:08:23Z</time>
      </trkpt>
      <trkpt lat="44.12402" lon="2.38263">
        <ele>310</ele>
        <time>2021-09-03T08:08:26Z</time>
      </trkpt>
      <trkpt lat="44.12417" lon="2.38279">
        <ele>311</ele>
        <time>2021-09-03T08:08:30Z</time>
      </trkpt>
      <trkpt lat="44.12508" lon="2.38335">
        <ele>310</ele>
        <time>2021-09-03T08:08:51Z</time>
      </trkpt>
      <trkpt lat="44.12543" lon="2.38348">
        <ele>309</ele>
        <time>2021-09-03T08:08:58Z</time>
      </trkpt>
      <trkpt lat="44.12562" lon="2.38362">
        <ele>309</ele>
        <time>2021-09-03T08:09:02Z</time>
      </trkpt>
      <trkpt lat="44.12653" lon="2.38406">
        <ele>303</ele>
        <time>2021-09-03T08:09:20Z</time>
      </trkpt>
      <trkpt lat="44.12728" lon="2.38423">
        <ele>302</ele>
        <time>2021-09-03T08:09:32Z</time>
      </trkpt>
      <trkpt lat="44.12911" lon="2.38403">
        <ele>318</ele>
        <time>2021-09-03T08:10:03Z</time>
      </trkpt>
      <trkpt lat="44.12963" lon="2.38393">
        <ele>320</ele>
        <time>2021-09-03T08:10:14Z</time>
      </trkpt>
      <trkpt lat="44.13061" lon="2.38405">
        <ele>314</ele>
        <time>2021-09-03T08:10:36Z</time>
      </trkpt>
      <trkpt lat="44.13076" lon="2.38416">
        <ele>313</ele>
        <time>2021-09-03T08:10:40Z</time>
      </trkpt>
      <trkpt lat="44.13107" lon="2.38464">
        <ele>313</ele>
        <time>2021-09-03T08:10:49Z</time>
      </trkpt>
      <trkpt lat="44.13118" lon="2.38491">
        <ele>313</ele>
        <time>2021-09-03T08:10:53Z</time>
      </trkpt>
      <trkpt lat="44.13134" lon="2.3865">
        <ele>325</ele>
        <time>2021-09-03T08:11:19Z</time>
      </trkpt>
      <trkpt lat="44.13133" lon="2.38734">
        <ele>329</ele>
        <time>2021-09-03T08:11:37Z</time>
      </trkpt>
      <trkpt lat="44.13109" lon="2.38811">
        <ele>329</ele>
        <time>2021-09-03T08:11:53Z</time>
      </trkpt>
      <trkpt lat="44.13085" lon="2.38859">
        <ele>327</ele>
        <time>2021-09-03T08:12:05Z</time>
      </trkpt>
      <trkpt lat="44.13033" lon="2.38943">
        <ele>319</ele>
        <time>2021-09-03T08:12:21Z</time>
      </trkpt>
      <trkpt lat="44.1301" lon="2.39006">
        <ele>317</ele>
        <time>2021-09-03T08:12:30Z</time>
      </trkpt>
      <trkpt lat="44.12999" lon="2.3908">
        <ele>311</ele>
        <time>2021-09-03T08:12:40Z</time>
      </trkpt>
      <trkpt lat="44.12992" lon="2.39157">
        <ele>305</ele>
        <time>2021-09-03T08:12:51Z</time>
      </trkpt>
      <trkpt lat="44.12997" lon="2.39196">
        <ele>306</ele>
        <time>2021-09-03T08:12:57Z</time>
      </trkpt>
      <trkpt lat="44.12997" lon="2.39203">
        <ele>310</ele>
        <time>2021-09-03T08:12:59Z</time>
      </trkpt>
      <trkpt lat="44.1299" lon="2.39205">
        <ele>312</ele>
        <time>2021-09-03T08:13:03Z</time>
      </trkpt>
      <trkpt lat="44.12985" lon="2.3921">
        <ele>315</ele>
        <time>2021-09-03T08:13:55Z</time>
      </trkpt>
      <trkpt lat="44.1298" lon="2.39212">
        <ele>315</ele>
        <time>2021-09-03T08:13:57Z</time>
      </trkpt>
      <trkpt lat="44.12944" lon="2.39227">
        <ele>313</ele>
        <time>2021-09-03T08:14:09Z</time>
      </trkpt>
      <trkpt lat="44.12938" lon="2.39226">
        <ele>312</ele>
        <time>2021-09-03T08:14:11Z</time>
      </trkpt>
      <trkpt lat="44.12929" lon="2.39214">
        <ele>312</ele>
        <time>2021-09-03T08:14:15Z</time>
      </trkpt>
      <trkpt lat="44.12923" lon="2.39196">
        <ele>312</ele>
        <time>2021-09-03T08:14:19Z</time>
      </trkpt>
      <trkpt lat="44.12922" lon="2.39164">
        <ele>313</ele>
        <time>2021-09-03T08:14:27Z</time>
      </trkpt>
      <trkpt lat="44.12893" lon="2.39051">
        <ele>320</ele>
        <time>2021-09-03T08:14:53Z</time>
      </trkpt>
      <trkpt lat="44.12891" lon="2.39043">
        <ele>319</ele>
        <time>2021-09-03T08:14:56Z</time>
      </trkpt>
      <trkpt lat="44.12888" lon="2.39019">
        <ele>318</ele>
        <time>2021-09-03T08:15:04Z</time>
      </trkpt>
      <trkpt lat="44.12876" lon="2.38991">
        <ele>313</ele>
        <time>2021-09-03T08:15:12Z</time>
      </trkpt>
      <trkpt lat="44.12872" lon="2.38974">
        <ele>313</ele>
        <time>2021-09-03T08:15:16Z</time>
      </trkpt>
      <trkpt lat="44.12876" lon="2.38926">
        <ele>313</ele>
        <time>2021-09-03T08:15:28Z</time>
      </trkpt>
      <trkpt lat="44.12878" lon="2.3892">
        <ele>312</ele>
        <time>2021-09-03T08:15:30Z</time>
      </trkpt>
      <trkpt lat="44.12881" lon="2.38913">
        <ele>312</ele>
        <time>2021-09-03T08:15:32Z</time>
      </trkpt>
      <trkpt lat="44.12915" lon="2.38898">
        <ele>312</ele>
        <time>2021-09-03T08:15:47Z</time>
      </trkpt>
      <trkpt lat="44.12936" lon="2.38871">
        <ele>316</ele>
        <time>2021-09-03T08:15:57Z</time>
      </trkpt>
      <trkpt lat="44.12945" lon="2.38856">
        <ele>317</ele>
        <time>2021-09-03T08:16:01Z</time>
      </trkpt>
      <trkpt lat="44.1295" lon="2.38849">
        <ele>317</ele>
        <time>2021-09-03T08:16:03Z</time>
      </trkpt>
      <trkpt lat="44.12963" lon="2.3883">
        <ele>318</ele>
        <time>2021-09-03T08:16:09Z</time>
      </trkpt>
      <trkpt lat="44.12968" lon="2.38826">
        <ele>319</ele>
        <time>2021-09-03T08:16:11Z</time>
      </trkpt>
      <trkpt lat="44.12972" lon="2.38818">
        <ele>320</ele>
        <time>2021-09-03T08:16:14Z</time>
      </trkpt>
      <trkpt lat="44.12975" lon="2.38813">
        <ele>321</ele>
        <time>2021-09-03T08:16:16Z</time>
      </trkpt>
      <trkpt lat="44.1298" lon="2.38801">
        <ele>323</ele>
        <time>2021-09-03T08:16:20Z</time>
      </trkpt>
      <trkpt lat="44.1298" lon="2.38787">
        <ele>320</ele>
        <time>2021-09-03T08:16:24Z</time>
      </trkpt>
      <trkpt lat="44.12981" lon="2.3878">
        <ele>319</ele>
        <time>2021-09-03T08:16:26Z</time>
      </trkpt>
      <trkpt lat="44.12983" lon="2.38767">
        <ele>319</ele>
        <time>2021-09-03T08:16:30Z</time>
      </trkpt>
      <trkpt lat="44.1299" lon="2.38735">
        <ele>323</ele>
        <time>2021-09-03T08:16:40Z</time>
      </trkpt>
      <trkpt lat="44.12992" lon="2.38721">
        <ele>326</ele>
        <time>2021-09-03T08:16:45Z</time>
      </trkpt>
      <trkpt lat="44.12994" lon="2.38707">
        <ele>329</ele>
        <time>2021-09-03T08:16:49Z</time>
      </trkpt>
      <trkpt lat="44.12994" lon="2.387">
        <ele>330</ele>
        <time>2021-09-03T08:16:51Z</time>
      </trkpt>
      <trkpt lat="44.12996" lon="2.38685">
        <ele>333</ele>
        <time>2021-09-03T08:16:55Z</time>
      </trkpt>
      <trkpt lat="44.12997" lon="2.38678">
        <ele>334</ele>
        <time>2021-09-03T08:16:58Z</time>
      </trkpt>
      <trkpt lat="44.12999" lon="2.3865">
        <ele>342</ele>
        <time>2021-09-03T08:17:06Z</time>
      </trkpt>
      <trkpt lat="44.12998" lon="2.38644">
        <ele>343</ele>
        <time>2021-09-03T08:17:08Z</time>
      </trkpt>
      <trkpt lat="44.12992" lon="2.38621">
        <ele>341</ele>
        <time>2021-09-03T08:17:14Z</time>
      </trkpt>
      <trkpt lat="44.12992" lon="2.38615">
        <ele>341</ele>
        <time>2021-09-03T08:17:16Z</time>
      </trkpt>
      <trkpt lat="44.12988" lon="2.38598">
        <ele>343</ele>
        <time>2021-09-03T08:17:22Z</time>
      </trkpt>
      <trkpt lat="44.1298" lon="2.38586">
        <ele>342</ele>
        <time>2021-09-03T08:17:27Z</time>
      </trkpt>
      <trkpt lat="44.12967" lon="2.38571">
        <ele>340</ele>
        <time>2021-09-03T08:17:35Z</time>
      </trkpt>
      <trkpt lat="44.12963" lon="2.38568">
        <ele>340</ele>
        <time>2021-09-03T08:17:37Z</time>
      </trkpt>
      <trkpt lat="44.12953" lon="2.38565">
        <ele>341</ele>
        <time>2021-09-03T08:17:42Z</time>
      </trkpt>
      <trkpt lat="44.12914" lon="2.38574">
        <ele>344</ele>
        <time>2021-09-03T08:17:57Z</time>
      </trkpt>
      <trkpt lat="44.12905" lon="2.38579">
        <ele>345</ele>
        <time>2021-09-03T08:18:01Z</time>
      </trkpt>
      <trkpt lat="44.12831" lon="2.38613">
        <ele>350</ele>
        <time>2021-09-03T08:18:33Z</time>
      </trkpt>
      <trkpt lat="44.12747" lon="2.38636">
        <ele>354</ele>
        <time>2021-09-03T08:19:05Z</time>
      </trkpt>
      <trkpt lat="44.12676" lon="2.38651">
        <ele>356</ele>
        <time>2021-09-03T08:19:33Z</time>
      </trkpt>
      <trkpt lat="44.12594" lon="2.38648">
        <ele>362</ele>
        <time>2021-09-03T08:20:05Z</time>
      </trkpt>
      <trkpt lat="44.12559" lon="2.38646">
        <ele>363</ele>
        <time>2021-09-03T08:20:19Z</time>
      </trkpt>
      <trkpt lat="44.12538" lon="2.38647">
        <ele>365</ele>
        <time>2021-09-03T08:20:27Z</time>
      </trkpt>
      <trkpt lat="44.12491" lon="2.38648">
        <ele>368</ele>
        <time>2021-09-03T08:20:45Z</time>
      </trkpt>
      <trkpt lat="44.12438" lon="2.38654">
        <ele>370</ele>
        <time>2021-09-03T08:21:05Z</time>
      </trkpt>
      <trkpt lat="44.12404" lon="2.3865">
        <ele>373</ele>
        <time>2021-09-03T08:21:18Z</time>
      </trkpt>
      <trkpt lat="44.12382" lon="2.3864">
        <ele>370</ele>
        <time>2021-09-03T08:21:28Z</time>
      </trkpt>
      <trkpt lat="44.12356" lon="2.38604">
        <ele>372</ele>
        <time>2021-09-03T08:21:41Z</time>
      </trkpt>
      <trkpt lat="44.12346" lon="2.38596">
        <ele>372</ele>
        <time>2021-09-03T08:21:45Z</time>
      </trkpt>
      <trkpt lat="44.12335" lon="2.38591">
        <ele>373</ele>
        <time>2021-09-03T08:21:49Z</time>
      </trkpt>
      <trkpt lat="44.12322" lon="2.38589">
        <ele>375</ele>
        <time>2021-09-03T08:21:53Z</time>
      </trkpt>
      <trkpt lat="44.12302" lon="2.38598">
        <ele>378</ele>
        <time>2021-09-03T08:22:01Z</time>
      </trkpt>
      <trkpt lat="44.12272" lon="2.38615">
        <ele>379</ele>
        <time>2021-09-03T08:22:13Z</time>
      </trkpt>
      <trkpt lat="44.12243" lon="2.38651">
        <ele>382</ele>
        <time>2021-09-03T08:22:29Z</time>
      </trkpt>
      <trkpt lat="44.12229" lon="2.38662">
        <ele>383</ele>
        <time>2021-09-03T08:22:36Z</time>
      </trkpt>
      <trkpt lat="44.12225" lon="2.38664">
        <ele>384</ele>
        <time>2021-09-03T08:22:38Z</time>
      </trkpt>
      <trkpt lat="44.12203" lon="2.38702">
        <ele>384</ele>
        <time>2021-09-03T08:22:48Z</time>
      </trkpt>
      <trkpt lat="44.12183" lon="2.38761">
        <ele>393</ele>
        <time>2021-09-03T08:23:06Z</time>
      </trkpt>
      <trkpt lat="44.12145" lon="2.38826">
        <ele>399</ele>
        <time>2021-09-03T08:23:30Z</time>
      </trkpt>
      <trkpt lat="44.12113" lon="2.38858">
        <ele>402</ele>
        <time>2021-09-03T08:23:45Z</time>
      </trkpt>
      <trkpt lat="44.12059" lon="2.38892">
        <ele>406</ele>
        <time>2021-09-03T08:24:07Z</time>
      </trkpt>
      <trkpt lat="44.1202" lon="2.38911">
        <ele>407</ele>
        <time>2021-09-03T08:24:25Z</time>
      </trkpt>
      <trkpt lat="44.12015" lon="2.38913">
        <ele>408</ele>
        <time>2021-09-03T08:24:28Z</time>
      </trkpt>
      <trkpt lat="44.12011" lon="2.38916">
        <ele>408</ele>
        <time>2021-09-03T08:24:31Z</time>
      </trkpt>
      <trkpt lat="44.12006" lon="2.38916">
        <ele>407</ele>
        <time>2021-09-03T08:26:50Z</time>
      </trkpt>
      <trkpt lat="44.12002" lon="2.38919">
        <ele>407</ele>
        <time>2021-09-03T08:28:05Z</time>
      </trkpt>
      <trkpt lat="44.11998" lon="2.38922">
        <ele>403</ele>
        <time>2021-09-03T08:32:03Z</time>
      </trkpt>
      <trkpt lat="44.11987" lon="2.3893">
        <ele>403</ele>
        <time>2021-09-03T08:32:09Z</time>
      </trkpt>
      <trkpt lat="44.11955" lon="2.38951">
        <ele>406</ele>
        <time>2021-09-03T08:32:25Z</time>
      </trkpt>
      <trkpt lat="44.11945" lon="2.38957">
        <ele>406</ele>
        <time>2021-09-03T08:32:31Z</time>
      </trkpt>
      <trkpt lat="44.11931" lon="2.38967">
        <ele>404</ele>
        <time>2021-09-03T08:32:37Z</time>
      </trkpt>
      <trkpt lat="44.11913" lon="2.38971">
        <ele>399</ele>
        <time>2021-09-03T08:32:46Z</time>
      </trkpt>
      <trkpt lat="44.11858" lon="2.38964">
        <ele>404</ele>
        <time>2021-09-03T08:33:14Z</time>
      </trkpt>
      <trkpt lat="44.11843" lon="2.38971">
        <ele>405</ele>
        <time>2021-09-03T08:33:22Z</time>
      </trkpt>
      <trkpt lat="44.11793" lon="2.39017">
        <ele>406</ele>
        <time>2021-09-03T08:33:48Z</time>
      </trkpt>
      <trkpt lat="44.11771" lon="2.39051">
        <ele>409</ele>
        <time>2021-09-03T08:34:03Z</time>
      </trkpt>
      <trkpt lat="44.11767" lon="2.39056">
        <ele>409</ele>
        <time>2021-09-03T08:34:06Z</time>
      </trkpt>
      <trkpt lat="44.11749" lon="2.39075">
        <ele>414</ele>
        <time>2021-09-03T08:34:15Z</time>
      </trkpt>
      <trkpt lat="44.11739" lon="2.3908">
        <ele>416</ele>
        <time>2021-09-03T08:34:20Z</time>
      </trkpt>
      <trkpt lat="44.11724" lon="2.39088">
        <ele>418</ele>
        <time>2021-09-03T08:34:26Z</time>
      </trkpt>
      <trkpt lat="44.11707" lon="2.39094">
        <ele>420</ele>
        <time>2021-09-03T08:34:33Z</time>
      </trkpt>
      <trkpt lat="44.11664" lon="2.39121">
        <ele>423</ele>
        <time>2021-09-03T08:34:53Z</time>
      </trkpt>
      <trkpt lat="44.11652" lon="2.39128">
        <ele>421</ele>
        <time>2021-09-03T08:34:59Z</time>
      </trkpt>
      <trkpt lat="44.11583" lon="2.39161">
        <ele>426</ele>
        <time>2021-09-03T08:35:29Z</time>
      </trkpt>
      <trkpt lat="44.11574" lon="2.39169">
        <ele>427</ele>
        <time>2021-09-03T08:35:34Z</time>
      </trkpt>
      <trkpt lat="44.11569" lon="2.39175">
        <ele>427</ele>
        <time>2021-09-03T08:35:37Z</time>
      </trkpt>
      <trkpt lat="44.11563" lon="2.39186">
        <ele>427</ele>
        <time>2021-09-03T08:35:41Z</time>
      </trkpt>
      <trkpt lat="44.1156" lon="2.39199">
        <ele>427</ele>
        <time>2021-09-03T08:35:45Z</time>
      </trkpt>
      <trkpt lat="44.1156" lon="2.39213">
        <ele>428</ele>
        <time>2021-09-03T08:35:49Z</time>
      </trkpt>
      <trkpt lat="44.11568" lon="2.39286">
        <ele>433</ele>
        <time>2021-09-03T08:36:11Z</time>
      </trkpt>
      <trkpt lat="44.1158" lon="2.39321">
        <ele>431</ele>
        <time>2021-09-03T08:36:23Z</time>
      </trkpt>
      <trkpt lat="44.11584" lon="2.39333">
        <ele>430</ele>
        <time>2021-09-03T08:36:27Z</time>
      </trkpt>
      <trkpt lat="44.11588" lon="2.39349">
        <ele>430</ele>
        <time>2021-09-03T08:36:32Z</time>
      </trkpt>
      <trkpt lat="44.11589" lon="2.39373">
        <ele>428</ele>
        <time>2021-09-03T08:36:39Z</time>
      </trkpt>
      <trkpt lat="44.11588" lon="2.39398">
        <ele>424</ele>
        <time>2021-09-03T08:36:47Z</time>
      </trkpt>
      <trkpt lat="44.11586" lon="2.39413">
        <ele>421</ele>
        <time>2021-09-03T08:36:52Z</time>
      </trkpt>
      <trkpt lat="44.11585" lon="2.39422">
        <ele>419</ele>
        <time>2021-09-03T08:36:55Z</time>
      </trkpt>
      <trkpt lat="44.11571" lon="2.39514">
        <ele>406</ele>
        <time>2021-09-03T08:37:24Z</time>
      </trkpt>
      <trkpt lat="44.1157" lon="2.39522">
        <ele>405</ele>
        <time>2021-09-03T08:37:27Z</time>
      </trkpt>
      <trkpt lat="44.11567" lon="2.3953">
        <ele>403</ele>
        <time>2021-09-03T08:37:30Z</time>
      </trkpt>
      <trkpt lat="44.11565" lon="2.39536">
        <ele>403</ele>
        <time>2021-09-03T08:37:32Z</time>
      </trkpt>
      <trkpt lat="44.11552" lon="2.39561">
        <ele>400</ele>
        <time>2021-09-03T08:37:41Z</time>
      </trkpt>
      <trkpt lat="44.11548" lon="2.39569">
        <ele>400</ele>
        <time>2021-09-03T08:37:43Z</time>
      </trkpt>
      <trkpt lat="44.11513" lon="2.39583">
        <ele>412</ele>
        <time>2021-09-03T08:37:54Z</time>
      </trkpt>
      <trkpt lat="44.11493" lon="2.39589">
        <ele>416</ele>
        <time>2021-09-03T08:38:02Z</time>
      </trkpt>
      <trkpt lat="44.1148" lon="2.39601">
        <ele>417</ele>
        <time>2021-09-03T08:38:08Z</time>
      </trkpt>
      <trkpt lat="44.11468" lon="2.39626">
        <ele>417</ele>
        <time>2021-09-03T08:38:17Z</time>
      </trkpt>
      <trkpt lat="44.11459" lon="2.39658">
        <ele>420</ele>
        <time>2021-09-03T08:38:27Z</time>
      </trkpt>
      <trkpt lat="44.11452" lon="2.3967">
        <ele>422</ele>
        <time>2021-09-03T08:38:31Z</time>
      </trkpt>
      <trkpt lat="44.11447" lon="2.39675">
        <ele>424</ele>
        <time>2021-09-03T08:38:33Z</time>
      </trkpt>
      <trkpt lat="44.11439" lon="2.39677">
        <ele>430</ele>
        <time>2021-09-03T08:38:35Z</time>
      </trkpt>
      <trkpt lat="44.11432" lon="2.39675">
        <ele>433</ele>
        <time>2021-09-03T08:38:37Z</time>
      </trkpt>
      <trkpt lat="44.11392" lon="2.39639">
        <ele>449</ele>
        <time>2021-09-03T08:38:53Z</time>
      </trkpt>
      <trkpt lat="44.11384" lon="2.39632">
        <ele>451</ele>
        <time>2021-09-03T08:38:57Z</time>
      </trkpt>
      <trkpt lat="44.1137" lon="2.39629">
        <ele>452</ele>
        <time>2021-09-03T08:39:03Z</time>
      </trkpt>
      <trkpt lat="44.11356" lon="2.39634">
        <ele>453</ele>
        <time>2021-09-03T08:39:09Z</time>
      </trkpt>
      <trkpt lat="44.11339" lon="2.39647">
        <ele>453</ele>
        <time>2021-09-03T08:39:17Z</time>
      </trkpt>
      <trkpt lat="44.11285" lon="2.39722">
        <ele>452</ele>
        <time>2021-09-03T08:39:49Z</time>
      </trkpt>
      <trkpt lat="44.11265" lon="2.39752">
        <ele>449</ele>
        <time>2021-09-03T08:39:59Z</time>
      </trkpt>
      <trkpt lat="44.11254" lon="2.39784">
        <ele>450</ele>
        <time>2021-09-03T08:40:10Z</time>
      </trkpt>
      <trkpt lat="44.11243" lon="2.39831">
        <ele>454</ele>
        <time>2021-09-03T08:40:25Z</time>
      </trkpt>
      <trkpt lat="44.1124" lon="2.39861">
        <ele>454</ele>
        <time>2021-09-03T08:40:33Z</time>
      </trkpt>
      <trkpt lat="44.11241" lon="2.39869">
        <ele>455</ele>
        <time>2021-09-03T08:40:35Z</time>
      </trkpt>
      <trkpt lat="44.11244" lon="2.39883">
        <ele>456</ele>
        <time>2021-09-03T08:40:39Z</time>
      </trkpt>
      <trkpt lat="44.1125" lon="2.39896">
        <ele>458</ele>
        <time>2021-09-03T08:40:43Z</time>
      </trkpt>
      <trkpt lat="44.11254" lon="2.3991">
        <ele>459</ele>
        <time>2021-09-03T08:40:47Z</time>
      </trkpt>
      <trkpt lat="44.11255" lon="2.39917">
        <ele>459</ele>
        <time>2021-09-03T08:40:49Z</time>
      </trkpt>
      <trkpt lat="44.11254" lon="2.39925">
        <ele>460</ele>
        <time>2021-09-03T08:40:51Z</time>
      </trkpt>
      <trkpt lat="44.11252" lon="2.39958">
        <ele>461</ele>
        <time>2021-09-03T08:40:59Z</time>
      </trkpt>
      <trkpt lat="44.11249" lon="2.3998">
        <ele>462</ele>
        <time>2021-09-03T08:41:05Z</time>
      </trkpt>
      <trkpt lat="44.11248" lon="2.40066">
        <ele>461</ele>
        <time>2021-09-03T08:41:28Z</time>
      </trkpt>
      <trkpt lat="44.11254" lon="2.40103">
        <ele>463</ele>
        <time>2021-09-03T08:41:38Z</time>
      </trkpt>
      <trkpt lat="44.11255" lon="2.40112">
        <ele>464</ele>
        <time>2021-09-03T08:41:40Z</time>
      </trkpt>
      <trkpt lat="44.11269" lon="2.40137">
        <ele>465</ele>
        <time>2021-09-03T08:41:48Z</time>
      </trkpt>
      <trkpt lat="44.11271" lon="2.40143">
        <ele>465</ele>
        <time>2021-09-03T08:41:50Z</time>
      </trkpt>
      <trkpt lat="44.11273" lon="2.40151">
        <ele>466</ele>
        <time>2021-09-03T08:41:52Z</time>
      </trkpt>
      <trkpt lat="44.11274" lon="2.4016">
        <ele>467</ele>
        <time>2021-09-03T08:41:54Z</time>
      </trkpt>
      <trkpt lat="44.11271" lon="2.40169">
        <ele>467</ele>
        <time>2021-09-03T08:41:56Z</time>
      </trkpt>
      <trkpt lat="44.11228" lon="2.40209">
        <ele>469</ele>
        <time>2021-09-03T08:42:14Z</time>
      </trkpt>
      <trkpt lat="44.11222" lon="2.40213">
        <ele>469</ele>
        <time>2021-09-03T08:42:16Z</time>
      </trkpt>
      <trkpt lat="44.11216" lon="2.40213">
        <ele>470</ele>
        <time>2021-09-03T08:42:18Z</time>
      </trkpt>
      <trkpt lat="44.11209" lon="2.40209">
        <ele>470</ele>
        <time>2021-09-03T08:42:20Z</time>
      </trkpt>
      <trkpt lat="44.11203" lon="2.40203">
        <ele>472</ele>
        <time>2021-09-03T08:42:22Z</time>
      </trkpt>
      <trkpt lat="44.11199" lon="2.40188">
        <ele>474</ele>
        <time>2021-09-03T08:42:26Z</time>
      </trkpt>
      <trkpt lat="44.11187" lon="2.40162">
        <ele>475</ele>
        <time>2021-09-03T08:42:34Z</time>
      </trkpt>
      <trkpt lat="44.11138" lon="2.40105">
        <ele>476</ele>
        <time>2021-09-03T08:42:56Z</time>
      </trkpt>
      <trkpt lat="44.11121" lon="2.40101">
        <ele>477</ele>
        <time>2021-09-03T08:43:02Z</time>
      </trkpt>
      <trkpt lat="44.11111" lon="2.40108">
        <ele>478</ele>
        <time>2021-09-03T08:43:06Z</time>
      </trkpt>
      <trkpt lat="44.11103" lon="2.40119">
        <ele>479</ele>
        <time>2021-09-03T08:43:10Z</time>
      </trkpt>
      <trkpt lat="44.11096" lon="2.40141">
        <ele>481</ele>
        <time>2021-09-03T08:43:16Z</time>
      </trkpt>
      <trkpt lat="44.11096" lon="2.40148">
        <ele>482</ele>
        <time>2021-09-03T08:43:19Z</time>
      </trkpt>
      <trkpt lat="44.11096" lon="2.40157">
        <ele>482</ele>
        <time>2021-09-03T08:43:59Z</time>
      </trkpt>
      <trkpt lat="44.11095" lon="2.40167">
        <ele>482</ele>
        <time>2021-09-03T08:44:02Z</time>
      </trkpt>
      <trkpt lat="44.11093" lon="2.40175">
        <ele>483</ele>
        <time>2021-09-03T08:44:04Z</time>
      </trkpt>
      <trkpt lat="44.11075" lon="2.4031">
        <ele>487</ele>
        <time>2021-09-03T08:44:34Z</time>
      </trkpt>
      <trkpt lat="44.11059" lon="2.40413">
        <ele>491</ele>
        <time>2021-09-03T08:44:56Z</time>
      </trkpt>
      <trkpt lat="44.11052" lon="2.40429">
        <ele>491</ele>
        <time>2021-09-03T08:45:00Z</time>
      </trkpt>
      <trkpt lat="44.11047" lon="2.40436">
        <ele>491</ele>
        <time>2021-09-03T08:45:02Z</time>
      </trkpt>
      <trkpt lat="44.11031" lon="2.4045">
        <ele>492</ele>
        <time>2021-09-03T08:45:07Z</time>
      </trkpt>
      <trkpt lat="44.11008" lon="2.4046">
        <ele>493</ele>
        <time>2021-09-03T08:45:15Z</time>
      </trkpt>
      <trkpt lat="44.11003" lon="2.4046">
        <ele>495</ele>
        <time>2021-09-03T08:45:59Z</time>
      </trkpt>
      <trkpt lat="44.10983" lon="2.40462">
        <ele>494</ele>
        <time>2021-09-03T08:46:08Z</time>
      </trkpt>
      <trkpt lat="44.10892" lon="2.40505">
        <ele>495</ele>
        <time>2021-09-03T08:46:36Z</time>
      </trkpt>
      <trkpt lat="44.10791" lon="2.40529">
        <ele>496</ele>
        <time>2021-09-03T08:47:04Z</time>
      </trkpt>
      <trkpt lat="44.10675" lon="2.40587">
        <ele>495</ele>
        <time>2021-09-03T08:47:34Z</time>
      </trkpt>
      <trkpt lat="44.10637" lon="2.40601">
        <ele>493</ele>
        <time>2021-09-03T08:47:42Z</time>
      </trkpt>
      <trkpt lat="44.106" lon="2.40619">
        <ele>493</ele>
        <time>2021-09-03T08:47:49Z</time>
      </trkpt>
      <trkpt lat="44.10575" lon="2.40624">
        <ele>491</ele>
        <time>2021-09-03T08:47:53Z</time>
      </trkpt>
      <trkpt lat="44.10499" lon="2.40611">
        <ele>487</ele>
        <time>2021-09-03T08:48:04Z</time>
      </trkpt>
      <trkpt lat="44.10453" lon="2.40587">
        <ele>486</ele>
        <time>2021-09-03T08:48:12Z</time>
      </trkpt>
      <trkpt lat="44.1034" lon="2.40499">
        <ele>485</ele>
        <time>2021-09-03T08:48:41Z</time>
      </trkpt>
      <trkpt lat="44.10288" lon="2.40449">
        <ele>483</ele>
        <time>2021-09-03T08:48:55Z</time>
      </trkpt>
      <trkpt lat="44.10273" lon="2.4044">
        <ele>483</ele>
        <time>2021-09-03T08:48:58Z</time>
      </trkpt>
      <trkpt lat="44.10216" lon="2.40434">
        <ele>482</ele>
        <time>2021-09-03T08:49:08Z</time>
      </trkpt>
      <trkpt lat="44.10049" lon="2.40435">
        <ele>481</ele>
        <time>2021-09-03T08:49:39Z</time>
      </trkpt>
      <trkpt lat="44.09919" lon="2.40456">
        <ele>483</ele>
        <time>2021-09-03T08:50:08Z</time>
      </trkpt>
      <trkpt lat="44.09796" lon="2.40515">
        <ele>485</ele>
        <time>2021-09-03T08:50:36Z</time>
      </trkpt>
      <trkpt lat="44.09672" lon="2.40597">
        <ele>486</ele>
        <time>2021-09-03T08:51:07Z</time>
      </trkpt>
      <trkpt lat="44.09638" lon="2.40625">
        <ele>487</ele>
        <time>2021-09-03T08:51:16Z</time>
      </trkpt>
      <trkpt lat="44.09604" lon="2.40666">
        <ele>485</ele>
        <time>2021-09-03T08:51:26Z</time>
      </trkpt>
      <trkpt lat="44.09596" lon="2.40673">
        <ele>485</ele>
        <time>2021-09-03T08:51:28Z</time>
      </trkpt>
      <trkpt lat="44.09584" lon="2.40678">
        <ele>485</ele>
        <time>2021-09-03T08:51:31Z</time>
      </trkpt>
      <trkpt lat="44.09506" lon="2.4068">
        <ele>488</ele>
        <time>2021-09-03T08:51:49Z</time>
      </trkpt>
      <trkpt lat="44.09478" lon="2.40691">
        <ele>488</ele>
        <time>2021-09-03T08:51:55Z</time>
      </trkpt>
      <trkpt lat="44.0934" lon="2.4078">
        <ele>485</ele>
        <time>2021-09-03T08:52:25Z</time>
      </trkpt>
      <trkpt lat="44.09334" lon="2.40783">
        <ele>486</ele>
        <time>2021-09-03T08:52:27Z</time>
      </trkpt>
      <trkpt lat="44.09319" lon="2.40792">
        <ele>486</ele>
        <time>2021-09-03T08:52:51Z</time>
      </trkpt>
      <trkpt lat="44.09246" lon="2.40938">
        <ele>486</ele>
        <time>2021-09-03T08:53:21Z</time>
      </trkpt>
      <trkpt lat="44.09188" lon="2.41081">
        <ele>489</ele>
        <time>2021-09-03T08:53:51Z</time>
      </trkpt>
      <trkpt lat="44.09105" lon="2.41261">
        <ele>488</ele>
        <time>2021-09-03T08:54:22Z</time>
      </trkpt>
      <trkpt lat="44.09052" lon="2.41389">
        <ele>489</ele>
        <time>2021-09-03T08:54:40Z</time>
      </trkpt>
      <trkpt lat="44.08952" lon="2.41569">
        <ele>488</ele>
        <time>2021-09-03T08:55:10Z</time>
      </trkpt>
      <trkpt lat="44.08864" lon="2.41782">
        <ele>487</ele>
        <time>2021-09-03T08:55:41Z</time>
      </trkpt>
      <trkpt lat="44.08797" lon="2.41995">
        <ele>487</ele>
        <time>2021-09-03T08:56:11Z</time>
      </trkpt>
      <trkpt lat="44.08745" lon="2.42188">
        <ele>488</ele>
        <time>2021-09-03T08:56:43Z</time>
      </trkpt>
      <trkpt lat="44.08678" lon="2.42381">
        <ele>487</ele>
        <time>2021-09-03T08:57:13Z</time>
      </trkpt>
      <trkpt lat="44.08599" lon="2.42575">
        <ele>486</ele>
        <time>2021-09-03T08:57:44Z</time>
      </trkpt>
      <trkpt lat="44.08542" lon="2.42739">
        <ele>485</ele>
        <time>2021-09-03T08:58:08Z</time>
      </trkpt>
      <trkpt lat="44.08524" lon="2.42853">
        <ele>484</ele>
        <time>2021-09-03T08:58:26Z</time>
      </trkpt>
      <trkpt lat="44.08526" lon="2.43053">
        <ele>487</ele>
        <time>2021-09-03T08:58:57Z</time>
      </trkpt>
      <trkpt lat="44.08525" lon="2.43221">
        <ele>489</ele>
        <time>2021-09-03T08:59:27Z</time>
      </trkpt>
      <trkpt lat="44.08503" lon="2.43392">
        <ele>492</ele>
        <time>2021-09-03T08:59:57Z</time>
      </trkpt>
      <trkpt lat="44.08471" lon="2.43613">
        <ele>491</ele>
        <time>2021-09-03T09:00:28Z</time>
      </trkpt>
      <trkpt lat="44.08423" lon="2.43786">
        <ele>493</ele>
        <time>2021-09-03T09:00:54Z</time>
      </trkpt>
      <trkpt lat="44.08345" lon="2.43938">
        <ele>494</ele>
        <time>2021-09-03T09:01:24Z</time>
      </trkpt>
      <trkpt lat="44.08277" lon="2.44059">
        <ele>497</ele>
        <time>2021-09-03T09:01:51Z</time>
      </trkpt>
      <trkpt lat="44.08209" lon="2.44153">
        <ele>498</ele>
        <time>2021-09-03T09:02:12Z</time>
      </trkpt>
      <trkpt lat="44.08185" lon="2.44193">
        <ele>502</ele>
        <time>2021-09-03T09:02:22Z</time>
      </trkpt>
      <trkpt lat="44.08102" lon="2.44297">
        <ele>506</ele>
        <time>2021-09-03T09:02:52Z</time>
      </trkpt>
      <trkpt lat="44.08001" lon="2.44432">
        <ele>505</ele>
        <time>2021-09-03T09:03:22Z</time>
      </trkpt>
      <trkpt lat="44.0787" lon="2.44604">
        <ele>502</ele>
        <time>2021-09-03T09:03:53Z</time>
      </trkpt>
      <trkpt lat="44.07735" lon="2.44756">
        <ele>501</ele>
        <time>2021-09-03T09:04:24Z</time>
      </trkpt>
      <trkpt lat="44.07607" lon="2.44887">
        <ele>499</ele>
        <time>2021-09-03T09:04:55Z</time>
      </trkpt>
      <trkpt lat="44.07563" lon="2.44951">
        <ele>499</ele>
        <time>2021-09-03T09:05:07Z</time>
      </trkpt>
      <trkpt lat="44.07482" lon="2.45129">
        <ele>499</ele>
        <time>2021-09-03T09:05:38Z</time>
      </trkpt>
      <trkpt lat="44.07406" lon="2.45272">
        <ele>502</ele>
        <time>2021-09-03T09:06:08Z</time>
      </trkpt>
      <trkpt lat="44.0732" lon="2.45405">
        <ele>505</ele>
        <time>2021-09-03T09:06:40Z</time>
      </trkpt>
      <trkpt lat="44.07235" lon="2.45527">
        <ele>504</ele>
        <time>2021-09-03T09:07:10Z</time>
      </trkpt>
      <trkpt lat="44.07168" lon="2.45638">
        <ele>508</ele>
        <time>2021-09-03T09:07:40Z</time>
      </trkpt>
      <trkpt lat="44.07093" lon="2.45758">
        <ele>510</ele>
        <time>2021-09-03T09:08:12Z</time>
      </trkpt>
      <trkpt lat="44.0702" lon="2.45849">
        <ele>512</ele>
        <time>2021-09-03T09:08:40Z</time>
      </trkpt>
      <trkpt lat="44.06934" lon="2.4594">
        <ele>516</ele>
        <time>2021-09-03T09:09:12Z</time>
      </trkpt>
      <trkpt lat="44.06855" lon="2.46058">
        <ele>518</ele>
        <time>2021-09-03T09:09:43Z</time>
      </trkpt>
      <trkpt lat="44.06785" lon="2.46184">
        <ele>519</ele>
        <time>2021-09-03T09:10:13Z</time>
      </trkpt>
      <trkpt lat="44.06718" lon="2.46303">
        <ele>522</ele>
        <time>2021-09-03T09:10:43Z</time>
      </trkpt>
      <trkpt lat="44.06638" lon="2.46432">
        <ele>523</ele>
        <time>2021-09-03T09:11:15Z</time>
      </trkpt>
      <trkpt lat="44.06559" lon="2.46552">
        <ele>528</ele>
        <time>2021-09-03T09:11:47Z</time>
      </trkpt>
      <trkpt lat="44.06485" lon="2.46675">
        <ele>530</ele>
        <time>2021-09-03T09:12:17Z</time>
      </trkpt>
      <trkpt lat="44.06406" lon="2.46835">
        <ele>531</ele>
        <time>2021-09-03T09:12:48Z</time>
      </trkpt>
      <trkpt lat="44.06344" lon="2.46995">
        <ele>524</ele>
        <time>2021-09-03T09:13:11Z</time>
      </trkpt>
      <trkpt lat="44.06259" lon="2.4722">
        <ele>523</ele>
        <time>2021-09-03T09:13:40Z</time>
      </trkpt>
      <trkpt lat="44.06154" lon="2.47427">
        <ele>524</ele>
        <time>2021-09-03T09:14:10Z</time>
      </trkpt>
      <trkpt lat="44.06056" lon="2.47615">
        <ele>525</ele>
        <time>2021-09-03T09:14:41Z</time>
      </trkpt>
      <trkpt lat="44.06034" lon="2.47645">
        <ele>526</ele>
        <time>2021-09-03T09:14:47Z</time>
      </trkpt>
      <trkpt lat="44.05995" lon="2.47677">
        <ele>526</ele>
        <time>2021-09-03T09:14:56Z</time>
      </trkpt>
      <trkpt lat="44.05958" lon="2.47694">
        <ele>527</ele>
        <time>2021-09-03T09:15:04Z</time>
      </trkpt>
      <trkpt lat="44.05924" lon="2.47698">
        <ele>527</ele>
        <time>2021-09-03T09:15:11Z</time>
      </trkpt>
      <trkpt lat="44.05801" lon="2.47678">
        <ele>528</ele>
        <time>2021-09-03T09:15:42Z</time>
      </trkpt>
      <trkpt lat="44.05734" lon="2.47682">
        <ele>530</ele>
        <time>2021-09-03T09:16:00Z</time>
      </trkpt>
      <trkpt lat="44.05625" lon="2.47714">
        <ele>533</ele>
        <time>2021-09-03T09:16:30Z</time>
      </trkpt>
      <trkpt lat="44.05585" lon="2.47725">
        <ele>534</ele>
        <time>2021-09-03T09:16:40Z</time>
      </trkpt>
      <trkpt lat="44.05508" lon="2.47726">
        <ele>537</ele>
        <time>2021-09-03T09:17:00Z</time>
      </trkpt>
      <trkpt lat="44.05391" lon="2.47715">
        <ele>540</ele>
        <time>2021-09-03T09:17:30Z</time>
      </trkpt>
      <trkpt lat="44.05255" lon="2.47702">
        <ele>540</ele>
        <time>2021-09-03T09:18:01Z</time>
      </trkpt>
      <trkpt lat="44.0518" lon="2.47706">
        <ele>540</ele>
        <time>2021-09-03T09:18:17Z</time>
      </trkpt>
      <trkpt lat="44.05136" lon="2.47726">
        <ele>541</ele>
        <time>2021-09-03T09:18:27Z</time>
      </trkpt>
      <trkpt lat="44.05098" lon="2.47756">
        <ele>541</ele>
        <time>2021-09-03T09:18:36Z</time>
      </trkpt>
      <trkpt lat="44.0505" lon="2.47814">
        <ele>540</ele>
        <time>2021-09-03T09:18:50Z</time>
      </trkpt>
      <trkpt lat="44.05039" lon="2.47832">
        <ele>540</ele>
        <time>2021-09-03T09:18:54Z</time>
      </trkpt>
      <trkpt lat="44.0502" lon="2.47854">
        <ele>541</ele>
        <time>2021-09-03T09:19:02Z</time>
      </trkpt>
      <trkpt lat="44.05016" lon="2.47858">
        <ele>541</ele>
        <time>2021-09-03T09:19:05Z</time>
      </trkpt>
      <trkpt lat="44.05019" lon="2.47866">
        <ele>542</ele>
        <time>2021-09-03T09:20:19Z</time>
      </trkpt>
      <trkpt lat="44.05021" lon="2.47874">
        <ele>541</ele>
        <time>2021-09-03T09:20:21Z</time>
      </trkpt>
      <trkpt lat="44.05019" lon="2.47883">
        <ele>542</ele>
        <time>2021-09-03T09:20:23Z</time>
      </trkpt>
      <trkpt lat="44.04993" lon="2.47958">
        <ele>542</ele>
        <time>2021-09-03T09:20:39Z</time>
      </trkpt>
      <trkpt lat="44.04937" lon="2.48126">
        <ele>542</ele>
        <time>2021-09-03T09:21:10Z</time>
      </trkpt>
      <trkpt lat="44.04894" lon="2.4825">
        <ele>541</ele>
        <time>2021-09-03T09:21:31Z</time>
      </trkpt>
      <trkpt lat="44.04867" lon="2.48293">
        <ele>541</ele>
        <time>2021-09-03T09:21:38Z</time>
      </trkpt>
      <trkpt lat="44.04836" lon="2.48326">
        <ele>540</ele>
        <time>2021-09-03T09:21:44Z</time>
      </trkpt>
      <trkpt lat="44.04701" lon="2.48419">
        <ele>533</ele>
        <time>2021-09-03T09:22:06Z</time>
      </trkpt>
      <trkpt lat="44.0467" lon="2.48468">
        <ele>531</ele>
        <time>2021-09-03T09:22:12Z</time>
      </trkpt>
      <trkpt lat="44.04614" lon="2.48628">
        <ele>527</ele>
        <time>2021-09-03T09:22:28Z</time>
      </trkpt>
      <trkpt lat="44.0459" lon="2.4866">
        <ele>527</ele>
        <time>2021-09-03T09:22:32Z</time>
      </trkpt>
      <trkpt lat="44.04564" lon="2.48682">
        <ele>525</ele>
        <time>2021-09-03T09:22:36Z</time>
      </trkpt>
      <trkpt lat="44.04515" lon="2.48703">
        <ele>523</ele>
        <time>2021-09-03T09:22:44Z</time>
      </trkpt>
      <trkpt lat="44.0451" lon="2.48704">
        <ele>522</ele>
        <time>2021-09-03T09:22:45Z</time>
      </trkpt>
      <trkpt lat="44.04502" lon="2.48701">
        <ele>522</ele>
        <time>2021-09-03T09:22:47Z</time>
      </trkpt>
      <trkpt lat="44.04498" lon="2.48699">
        <ele>522</ele>
        <time>2021-09-03T09:22:49Z</time>
      </trkpt>
      <trkpt lat="44.04492" lon="2.48704">
        <ele>522</ele>
        <time>2021-09-03T09:22:52Z</time>
      </trkpt>
      <trkpt lat="44.04449" lon="2.48941">
        <ele>509</ele>
        <time>2021-09-03T09:23:23Z</time>
      </trkpt>
      <trkpt lat="44.04409" lon="2.4918">
        <ele>510</ele>
        <time>2021-09-03T09:23:54Z</time>
      </trkpt>
      <trkpt lat="44.04404" lon="2.49235">
        <ele>511</ele>
        <time>2021-09-03T09:24:02Z</time>
      </trkpt>
      <trkpt lat="44.04408" lon="2.49278">
        <ele>510</ele>
        <time>2021-09-03T09:24:08Z</time>
      </trkpt>
      <trkpt lat="44.04442" lon="2.49475">
        <ele>509</ele>
        <time>2021-09-03T09:24:39Z</time>
      </trkpt>
      <trkpt lat="44.04477" lon="2.49681">
        <ele>509</ele>
        <time>2021-09-03T09:25:10Z</time>
      </trkpt>
      <trkpt lat="44.0448" lon="2.49723">
        <ele>510</ele>
        <time>2021-09-03T09:25:16Z</time>
      </trkpt>
      <trkpt lat="44.04474" lon="2.49784">
        <ele>510</ele>
        <time>2021-09-03T09:25:25Z</time>
      </trkpt>
      <trkpt lat="44.04461" lon="2.49828">
        <ele>512</ele>
        <time>2021-09-03T09:25:32Z</time>
      </trkpt>
      <trkpt lat="44.04379" lon="2.4999">
        <ele>518</ele>
        <time>2021-09-03T09:26:03Z</time>
      </trkpt>
      <trkpt lat="44.04299" lon="2.50138">
        <ele>517</ele>
        <time>2021-09-03T09:26:34Z</time>
      </trkpt>
      <trkpt lat="44.04225" lon="2.50282">
        <ele>519</ele>
        <time>2021-09-03T09:27:06Z</time>
      </trkpt>
      <trkpt lat="44.04176" lon="2.50416">
        <ele>519</ele>
        <time>2021-09-03T09:27:34Z</time>
      </trkpt>
      <trkpt lat="44.04137" lon="2.50573">
        <ele>521</ele>
        <time>2021-09-03T09:28:06Z</time>
      </trkpt>
      <trkpt lat="44.04114" lon="2.50715">
        <ele>522</ele>
        <time>2021-09-03T09:28:36Z</time>
      </trkpt>
      <trkpt lat="44.04086" lon="2.50884">
        <ele>524</ele>
        <time>2021-09-03T09:29:08Z</time>
      </trkpt>
      <trkpt lat="44.04059" lon="2.51043">
        <ele>526</ele>
        <time>2021-09-03T09:29:38Z</time>
      </trkpt>
      <trkpt lat="44.04026" lon="2.51189">
        <ele>530</ele>
        <time>2021-09-03T09:30:08Z</time>
      </trkpt>
      <trkpt lat="44.03985" lon="2.51325">
        <ele>532</ele>
        <time>2021-09-03T09:30:38Z</time>
      </trkpt>
      <trkpt lat="44.03935" lon="2.51466">
        <ele>536</ele>
        <time>2021-09-03T09:31:08Z</time>
      </trkpt>
      <trkpt lat="44.03881" lon="2.5161">
        <ele>538</ele>
        <time>2021-09-03T09:31:40Z</time>
      </trkpt>
      <trkpt lat="44.03826" lon="2.51762">
        <ele>541</ele>
        <time>2021-09-03T09:32:12Z</time>
      </trkpt>
      <trkpt lat="44.03766" lon="2.51923">
        <ele>543</ele>
        <time>2021-09-03T09:32:44Z</time>
      </trkpt>
      <trkpt lat="44.03712" lon="2.52086">
        <ele>545</ele>
        <time>2021-09-03T09:33:15Z</time>
      </trkpt>
      <trkpt lat="44.0367" lon="2.52251">
        <ele>545</ele>
        <time>2021-09-03T09:33:45Z</time>
      </trkpt>
      <trkpt lat="44.03632" lon="2.52424">
        <ele>547</ele>
        <time>2021-09-03T09:34:17Z</time>
      </trkpt>
      <trkpt lat="44.03593" lon="2.52605">
        <ele>548</ele>
        <time>2021-09-03T09:34:48Z</time>
      </trkpt>
      <trkpt lat="44.03551" lon="2.5279">
        <ele>549</ele>
        <time>2021-09-03T09:35:19Z</time>
      </trkpt>
      <trkpt lat="44.03519" lon="2.52888">
        <ele>551</ele>
        <time>2021-09-03T09:35:36Z</time>
      </trkpt>
      <trkpt lat="44.03451" lon="2.53048">
        <ele>554</ele>
        <time>2021-09-03T09:36:08Z</time>
      </trkpt>
      <trkpt lat="44.03387" lon="2.53177">
        <ele>554</ele>
        <time>2021-09-03T09:36:38Z</time>
      </trkpt>
      <trkpt lat="44.03373" lon="2.53186">
        <ele>552</ele>
        <time>2021-09-03T09:36:42Z</time>
      </trkpt>
      <trkpt lat="44.03367" lon="2.53193">
        <ele>552</ele>
        <time>2021-09-03T09:36:44Z</time>
      </trkpt>
      <trkpt lat="44.03361" lon="2.53213">
        <ele>551</ele>
        <time>2021-09-03T09:36:48Z</time>
      </trkpt>
      <trkpt lat="44.03298" lon="2.53334">
        <ele>542</ele>
        <time>2021-09-03T09:37:18Z</time>
      </trkpt>
      <trkpt lat="44.03294" lon="2.53343">
        <ele>542</ele>
        <time>2021-09-03T09:37:20Z</time>
      </trkpt>
      <trkpt lat="44.0329" lon="2.5335">
        <ele>541</ele>
        <time>2021-09-03T09:37:22Z</time>
      </trkpt>
      <trkpt lat="44.03266" lon="2.53393">
        <ele>546</ele>
        <time>2021-09-03T09:37:34Z</time>
      </trkpt>
      <trkpt lat="44.0326" lon="2.53407">
        <ele>546</ele>
        <time>2021-09-03T09:37:38Z</time>
      </trkpt>
      <trkpt lat="44.03254" lon="2.53423">
        <ele>547</ele>
        <time>2021-09-03T09:37:42Z</time>
      </trkpt>
      <trkpt lat="44.03252" lon="2.53432">
        <ele>548</ele>
        <time>2021-09-03T09:37:44Z</time>
      </trkpt>
      <trkpt lat="44.0324" lon="2.53458">
        <ele>553</ele>
        <time>2021-09-03T09:37:52Z</time>
      </trkpt>
      <trkpt lat="44.03227" lon="2.53478">
        <ele>555</ele>
        <time>2021-09-03T09:38:06Z</time>
      </trkpt>
      <trkpt lat="44.03224" lon="2.53483">
        <ele>557</ele>
        <time>2021-09-03T09:38:09Z</time>
      </trkpt>
      <trkpt lat="44.03221" lon="2.53489">
        <ele>558</ele>
        <time>2021-09-03T09:38:15Z</time>
      </trkpt>
      <trkpt lat="44.0322" lon="2.53496">
        <ele>556</ele>
        <time>2021-09-03T09:38:18Z</time>
      </trkpt>
      <trkpt lat="44.03218" lon="2.53504">
        <ele>556</ele>
        <time>2021-09-03T09:38:21Z</time>
      </trkpt>
      <trkpt lat="44.03216" lon="2.53512">
        <ele>556</ele>
        <time>2021-09-03T09:38:24Z</time>
      </trkpt>
      <trkpt lat="44.03209" lon="2.53536">
        <ele>556</ele>
        <time>2021-09-03T09:38:32Z</time>
      </trkpt>
      <trkpt lat="44.03201" lon="2.53572">
        <ele>555</ele>
        <time>2021-09-03T09:38:42Z</time>
      </trkpt>
      <trkpt lat="44.03199" lon="2.5358">
        <ele>553</ele>
        <time>2021-09-03T09:38:45Z</time>
      </trkpt>
      <trkpt lat="44.03195" lon="2.53586">
        <ele>551</ele>
        <time>2021-09-03T09:38:48Z</time>
      </trkpt>
      <trkpt lat="44.03193" lon="2.53594">
        <ele>552</ele>
        <time>2021-09-03T09:38:51Z</time>
      </trkpt>
      <trkpt lat="44.03184" lon="2.53615">
        <ele>555</ele>
        <time>2021-09-03T09:39:01Z</time>
      </trkpt>
      <trkpt lat="44.03181" lon="2.53621">
        <ele>555</ele>
        <time>2021-09-03T09:39:04Z</time>
      </trkpt>
      <trkpt lat="44.03177" lon="2.53634">
        <ele>556</ele>
        <time>2021-09-03T09:39:10Z</time>
      </trkpt>
      <trkpt lat="44.03176" lon="2.53641">
        <ele>556</ele>
        <time>2021-09-03T09:39:23Z</time>
      </trkpt>
      <trkpt lat="44.03175" lon="2.53647">
        <ele>557</ele>
        <time>2021-09-03T09:39:29Z</time>
      </trkpt>
      <trkpt lat="44.03177" lon="2.53645">
        <ele>559</ele>
        <time>2021-09-03T09:43:18Z</time>
      </trkpt>
      <trkpt lat="44.03185" lon="2.53608">
        <ele>558</ele>
        <time>2021-09-03T09:43:28Z</time>
      </trkpt>
      <trkpt lat="44.03184" lon="2.53599">
        <ele>559</ele>
        <time>2021-09-03T09:43:31Z</time>
      </trkpt>
      <trkpt lat="44.03187" lon="2.53601">
        <ele>568</ele>
        <time>2021-09-03T09:56:52Z</time>
      </trkpt>
      <trkpt lat="44.03191" lon="2.53597">
        <ele>568</ele>
        <time>2021-09-03T09:56:58Z</time>
      </trkpt>
      <trkpt lat="44.03194" lon="2.53591">
        <ele>568</ele>
        <time>2021-09-03T09:57:02Z</time>
      </trkpt>
      <trkpt lat="44.03196" lon="2.53585">
        <ele>566</ele>
        <time>2021-09-03T09:57:06Z</time>
      </trkpt>
      <trkpt lat="44.03201" lon="2.53572">
        <ele>564</ele>
        <time>2021-09-03T09:57:11Z</time>
      </trkpt>
      <trkpt lat="44.03203" lon="2.53565">
        <ele>564</ele>
        <time>2021-09-03T09:57:16Z</time>
      </trkpt>
      <trkpt lat="44.03207" lon="2.53546">
        <ele>561</ele>
        <time>2021-09-03T09:57:24Z</time>
      </trkpt>
      <trkpt lat="44.03209" lon="2.53533">
        <ele>558</ele>
        <time>2021-09-03T09:57:28Z</time>
      </trkpt>
      <trkpt lat="44.03214" lon="2.5352">
        <ele>556</ele>
        <time>2021-09-03T09:57:33Z</time>
      </trkpt>
      <trkpt lat="44.03217" lon="2.53515">
        <ele>555</ele>
        <time>2021-09-03T09:57:35Z</time>
      </trkpt>
      <trkpt lat="44.0322" lon="2.53508">
        <ele>554</ele>
        <time>2021-09-03T09:57:37Z</time>
      </trkpt>
      <trkpt lat="44.03222" lon="2.53493">
        <ele>551</ele>
        <time>2021-09-03T09:57:42Z</time>
      </trkpt>
      <trkpt lat="44.03225" lon="2.53486">
        <ele>552</ele>
        <time>2021-09-03T09:57:45Z</time>
      </trkpt>
      <trkpt lat="44.03228" lon="2.53482">
        <ele>555</ele>
        <time>2021-09-03T09:57:49Z</time>
      </trkpt>
      <trkpt lat="44.03233" lon="2.5348">
        <ele>557</ele>
        <time>2021-09-03T09:58:34Z</time>
      </trkpt>
      <trkpt lat="44.03236" lon="2.53472">
        <ele>558</ele>
        <time>2021-09-03T09:58:44Z</time>
      </trkpt>
      <trkpt lat="44.03232" lon="2.53467">
        <ele>558</ele>
        <time>2021-09-03T09:58:53Z</time>
      </trkpt>
      <trkpt lat="44.03228" lon="2.53467">
        <ele>556</ele>
        <time>2021-09-03T09:58:58Z</time>
      </trkpt>
      <trkpt lat="44.0323" lon="2.53461">
        <ele>555</ele>
        <time>2021-09-03T10:00:09Z</time>
      </trkpt>
      <trkpt lat="44.03229" lon="2.53475">
        <ele>554</ele>
        <time>2021-09-03T10:02:06Z</time>
      </trkpt>
      <trkpt lat="44.03231" lon="2.53482">
        <ele>557</ele>
        <time>2021-09-03T10:04:58Z</time>
      </trkpt>
      <trkpt lat="44.03235" lon="2.53478">
        <ele>557</ele>
        <time>2021-09-03T10:06:16Z</time>
      </trkpt>
      <trkpt lat="44.03239" lon="2.53474">
        <ele>554</ele>
        <time>2021-09-03T10:06:20Z</time>
      </trkpt>
      <trkpt lat="44.03236" lon="2.53467">
        <ele>552</ele>
        <time>2021-09-03T10:06:31Z</time>
      </trkpt>
      <trkpt lat="44.0323" lon="2.53467">
        <ele>555</ele>
        <time>2021-09-03T10:08:45Z</time>
      </trkpt>
      <trkpt lat="44.03225" lon="2.53467">
        <ele>555</ele>
        <time>2021-09-03T10:08:51Z</time>
      </trkpt>
      <trkpt lat="44.03226" lon="2.53474">
        <ele>555</ele>
        <time>2021-09-03T10:08:53Z</time>
      </trkpt>
      <trkpt lat="44.03226" lon="2.53483">
        <ele>554</ele>
        <time>2021-09-03T10:08:55Z</time>
      </trkpt>
      <trkpt lat="44.03219" lon="2.53505">
        <ele>553</ele>
        <time>2021-09-03T10:09:02Z</time>
      </trkpt>
      <trkpt lat="44.03215" lon="2.53512">
        <ele>553</ele>
        <time>2021-09-03T10:09:04Z</time>
      </trkpt>
      <trkpt lat="44.03199" lon="2.53568">
        <ele>554</ele>
        <time>2021-09-03T10:09:18Z</time>
      </trkpt>
      <trkpt lat="44.03196" lon="2.53574">
        <ele>554</ele>
        <time>2021-09-03T10:09:20Z</time>
      </trkpt>
      <trkpt lat="44.03193" lon="2.53579">
        <ele>556</ele>
        <time>2021-09-03T10:09:22Z</time>
      </trkpt>
      <trkpt lat="44.03187" lon="2.53595">
        <ele>559</ele>
        <time>2021-09-03T10:09:27Z</time>
      </trkpt>
      <trkpt lat="44.03184" lon="2.53601">
        <ele>560</ele>
        <time>2021-09-03T10:09:29Z</time>
      </trkpt>
      <trkpt lat="44.03182" lon="2.53615">
        <ele>563</ele>
        <time>2021-09-03T10:09:33Z</time>
      </trkpt>
      <trkpt lat="44.0318" lon="2.53621">
        <ele>565</ele>
        <time>2021-09-03T10:09:35Z</time>
      </trkpt>
      <trkpt lat="44.03175" lon="2.53645">
        <ele>565</ele>
        <time>2021-09-03T10:09:44Z</time>
      </trkpt>
      <trkpt lat="44.03169" lon="2.5365">
        <ele>565</ele>
        <time>2021-09-03T10:09:48Z</time>
      </trkpt>
      <trkpt lat="44.03139" lon="2.53621">
        <ele>563</ele>
        <time>2021-09-03T10:10:00Z</time>
      </trkpt>
      <trkpt lat="44.0313" lon="2.53612">
        <ele>559</ele>
        <time>2021-09-03T10:10:06Z</time>
      </trkpt>
      <trkpt lat="44.03125" lon="2.53609">
        <ele>557</ele>
        <time>2021-09-03T10:10:09Z</time>
      </trkpt>
      <trkpt lat="44.0312" lon="2.53609">
        <ele>557</ele>
        <time>2021-09-03T10:10:12Z</time>
      </trkpt>
      <trkpt lat="44.03085" lon="2.53586">
        <ele>554</ele>
        <time>2021-09-03T10:10:26Z</time>
      </trkpt>
      <trkpt lat="44.03081" lon="2.5358">
        <ele>554</ele>
        <time>2021-09-03T10:10:28Z</time>
      </trkpt>
      <trkpt lat="44.03075" lon="2.53577">
        <ele>554</ele>
        <time>2021-09-03T10:10:30Z</time>
      </trkpt>
      <trkpt lat="44.03069" lon="2.53572">
        <ele>555</ele>
        <time>2021-09-03T10:10:33Z</time>
      </trkpt>
      <trkpt lat="44.03065" lon="2.53569">
        <ele>555</ele>
        <time>2021-09-03T10:10:35Z</time>
      </trkpt>
      <trkpt lat="44.0306" lon="2.5357">
        <ele>554</ele>
        <time>2021-09-03T10:10:39Z</time>
      </trkpt>
      <trkpt lat="44.0306" lon="2.53566">
        <ele>556</ele>
        <time>2021-09-03T10:16:36Z</time>
      </trkpt>
      <trkpt lat="44.03057" lon="2.53566">
        <ele>567</ele>
        <time>2021-09-03T10:20:24Z</time>
      </trkpt>
      <trkpt lat="44.03057" lon="2.53574">
        <ele>566</ele>
        <time>2021-09-03T10:21:14Z</time>
      </trkpt>
      <trkpt lat="44.03057" lon="2.53568">
        <ele>574</ele>
        <time>2021-09-03T10:22:47Z</time>
      </trkpt>
      <trkpt lat="44.03054" lon="2.53562">
        <ele>574</ele>
        <time>2021-09-03T10:22:50Z</time>
      </trkpt>
      <trkpt lat="44.03048" lon="2.53557">
        <ele>574</ele>
        <time>2021-09-03T10:22:52Z</time>
      </trkpt>
      <trkpt lat="44.03007" lon="2.53516">
        <ele>562</ele>
        <time>2021-09-03T10:23:14Z</time>
      </trkpt>
      <trkpt lat="44.02998" lon="2.53511">
        <ele>564</ele>
        <time>2021-09-03T10:23:22Z</time>
      </trkpt>
      <trkpt lat="44.02995" lon="2.53504">
        <ele>566</ele>
        <time>2021-09-03T10:23:26Z</time>
      </trkpt>
      <trkpt lat="44.02991" lon="2.53504">
        <ele>567</ele>
        <time>2021-09-03T10:23:52Z</time>
      </trkpt>
      <trkpt lat="44.02986" lon="2.535">
        <ele>567</ele>
        <time>2021-09-03T10:23:56Z</time>
      </trkpt>
      <trkpt lat="44.02983" lon="2.53495">
        <ele>568</ele>
        <time>2021-09-03T10:24:50Z</time>
      </trkpt>
      <trkpt lat="44.02979" lon="2.53492">
        <ele>569</ele>
        <time>2021-09-03T10:24:55Z</time>
      </trkpt>
      <trkpt lat="44.02974" lon="2.5349">
        <ele>569</ele>
        <time>2021-09-03T10:24:59Z</time>
      </trkpt>
      <trkpt lat="44.02974" lon="2.53483">
        <ele>569</ele>
        <time>2021-09-03T10:25:04Z</time>
      </trkpt>
      <trkpt lat="44.0297" lon="2.53479">
        <ele>569</ele>
        <time>2021-09-03T10:25:06Z</time>
      </trkpt>
      <trkpt lat="44.02894" lon="2.53453">
        <ele>570</ele>
        <time>2021-09-03T10:25:34Z</time>
      </trkpt>
      <trkpt lat="44.02888" lon="2.53454">
        <ele>570</ele>
        <time>2021-09-03T10:25:36Z</time>
      </trkpt>
      <trkpt lat="44.02877" lon="2.5346">
        <ele>569</ele>
        <time>2021-09-03T10:25:40Z</time>
      </trkpt>
      <trkpt lat="44.0275" lon="2.53573">
        <ele>559</ele>
        <time>2021-09-03T10:26:10Z</time>
      </trkpt>
      <trkpt lat="44.0273" lon="2.53594">
        <ele>556</ele>
        <time>2021-09-03T10:26:14Z</time>
      </trkpt>
      <trkpt lat="44.02719" lon="2.53601">
        <ele>555</ele>
        <time>2021-09-03T10:26:16Z</time>
      </trkpt>
      <trkpt lat="44.02672" lon="2.53618">
        <ele>550</ele>
        <time>2021-09-03T10:26:23Z</time>
      </trkpt>
      <trkpt lat="44.02648" lon="2.53638">
        <ele>548</ele>
        <time>2021-09-03T10:26:27Z</time>
      </trkpt>
      <trkpt lat="44.02562" lon="2.53724">
        <ele>539</ele>
        <time>2021-09-03T10:26:41Z</time>
      </trkpt>
      <trkpt lat="44.02535" lon="2.53739">
        <ele>536</ele>
        <time>2021-09-03T10:26:45Z</time>
      </trkpt>
      <trkpt lat="44.02505" lon="2.53746">
        <ele>533</ele>
        <time>2021-09-03T10:26:49Z</time>
      </trkpt>
      <trkpt lat="44.02492" lon="2.53754">
        <ele>532</ele>
        <time>2021-09-03T10:26:51Z</time>
      </trkpt>
      <trkpt lat="44.02477" lon="2.53772">
        <ele>529</ele>
        <time>2021-09-03T10:26:54Z</time>
      </trkpt>
      <trkpt lat="44.02474" lon="2.53782">
        <ele>529</ele>
        <time>2021-09-03T10:26:56Z</time>
      </trkpt>
      <trkpt lat="44.02455" lon="2.53825">
        <ele>523</ele>
        <time>2021-09-03T10:27:04Z</time>
      </trkpt>
      <trkpt lat="44.02431" lon="2.53857">
        <ele>519</ele>
        <time>2021-09-03T10:27:09Z</time>
      </trkpt>
      <trkpt lat="44.02332" lon="2.53973">
        <ele>506</ele>
        <time>2021-09-03T10:27:26Z</time>
      </trkpt>
      <trkpt lat="44.02234" lon="2.54121">
        <ele>490</ele>
        <time>2021-09-03T10:27:44Z</time>
      </trkpt>
      <trkpt lat="44.02222" lon="2.54132">
        <ele>488</ele>
        <time>2021-09-03T10:27:46Z</time>
      </trkpt>
      <trkpt lat="44.02209" lon="2.54139">
        <ele>486</ele>
        <time>2021-09-03T10:27:48Z</time>
      </trkpt>
      <trkpt lat="44.02172" lon="2.5414">
        <ele>483</ele>
        <time>2021-09-03T10:27:53Z</time>
      </trkpt>
      <trkpt lat="44.02156" lon="2.54147">
        <ele>482</ele>
        <time>2021-09-03T10:27:55Z</time>
      </trkpt>
      <trkpt lat="44.02141" lon="2.54161">
        <ele>481</ele>
        <time>2021-09-03T10:27:57Z</time>
      </trkpt>
      <trkpt lat="44.02113" lon="2.54207">
        <ele>477</ele>
        <time>2021-09-03T10:28:02Z</time>
      </trkpt>
      <trkpt lat="44.02099" lon="2.54222">
        <ele>474</ele>
        <time>2021-09-03T10:28:04Z</time>
      </trkpt>
      <trkpt lat="44.02083" lon="2.5423">
        <ele>472</ele>
        <time>2021-09-03T10:28:06Z</time>
      </trkpt>
      <trkpt lat="44.02057" lon="2.54235">
        <ele>469</ele>
        <time>2021-09-03T10:28:09Z</time>
      </trkpt>
      <trkpt lat="44.02049" lon="2.54238">
        <ele>468</ele>
        <time>2021-09-03T10:28:10Z</time>
      </trkpt>
      <trkpt lat="44.02035" lon="2.5425">
        <ele>465</ele>
        <time>2021-09-03T10:28:12Z</time>
      </trkpt>
      <trkpt lat="44.0203" lon="2.5426">
        <ele>464</ele>
        <time>2021-09-03T10:28:13Z</time>
      </trkpt>
      <trkpt lat="44.02028" lon="2.54271">
        <ele>462</ele>
        <time>2021-09-03T10:28:14Z</time>
      </trkpt>
      <trkpt lat="44.0203" lon="2.54294">
        <ele>460</ele>
        <time>2021-09-03T10:28:16Z</time>
      </trkpt>
      <trkpt lat="44.02055" lon="2.54353">
        <ele>455</ele>
        <time>2021-09-03T10:28:23Z</time>
      </trkpt>
      <trkpt lat="44.02064" lon="2.54366">
        <ele>454</ele>
        <time>2021-09-03T10:28:25Z</time>
      </trkpt>
      <trkpt lat="44.02077" lon="2.54398">
        <ele>451</ele>
        <time>2021-09-03T10:28:30Z</time>
      </trkpt>
      <trkpt lat="44.02092" lon="2.54427">
        <ele>450</ele>
        <time>2021-09-03T10:28:34Z</time>
      </trkpt>
      <trkpt lat="44.02107" lon="2.54463">
        <ele>446</ele>
        <time>2021-09-03T10:28:38Z</time>
      </trkpt>
      <trkpt lat="44.02113" lon="2.54497">
        <ele>443</ele>
        <time>2021-09-03T10:28:41Z</time>
      </trkpt>
      <trkpt lat="44.02113" lon="2.54519">
        <ele>442</ele>
        <time>2021-09-03T10:28:43Z</time>
      </trkpt>
      <trkpt lat="44.02105" lon="2.54551">
        <ele>439</ele>
        <time>2021-09-03T10:28:46Z</time>
      </trkpt>
      <trkpt lat="44.01998" lon="2.54813">
        <ele>423</ele>
        <time>2021-09-03T10:29:14Z</time>
      </trkpt>
      <trkpt lat="44.01982" lon="2.54836">
        <ele>423</ele>
        <time>2021-09-03T10:29:17Z</time>
      </trkpt>
      <trkpt lat="44.01937" lon="2.54893">
        <ele>419</ele>
        <time>2021-09-03T10:29:25Z</time>
      </trkpt>
      <trkpt lat="44.01906" lon="2.54954">
        <ele>416</ele>
        <time>2021-09-03T10:29:32Z</time>
      </trkpt>
      <trkpt lat="44.01887" lon="2.55001">
        <ele>415</ele>
        <time>2021-09-03T10:29:37Z</time>
      </trkpt>
      <trkpt lat="44.01871" lon="2.55024">
        <ele>415</ele>
        <time>2021-09-03T10:29:40Z</time>
      </trkpt>
      <trkpt lat="44.01813" lon="2.5507">
        <ele>411</ele>
        <time>2021-09-03T10:29:48Z</time>
      </trkpt>
      <trkpt lat="44.01776" lon="2.55132">
        <ele>408</ele>
        <time>2021-09-03T10:29:55Z</time>
      </trkpt>
      <trkpt lat="44.01742" lon="2.55214">
        <ele>403</ele>
        <time>2021-09-03T10:30:03Z</time>
      </trkpt>
      <trkpt lat="44.01695" lon="2.55273">
        <ele>400</ele>
        <time>2021-09-03T10:30:10Z</time>
      </trkpt>
      <trkpt lat="44.01687" lon="2.55294">
        <ele>400</ele>
        <time>2021-09-03T10:30:12Z</time>
      </trkpt>
      <trkpt lat="44.01682" lon="2.55331">
        <ele>398</ele>
        <time>2021-09-03T10:30:15Z</time>
      </trkpt>
      <trkpt lat="44.01688" lon="2.55425">
        <ele>392</ele>
        <time>2021-09-03T10:30:23Z</time>
      </trkpt>
      <trkpt lat="44.01684" lon="2.55446">
        <ele>389</ele>
        <time>2021-09-03T10:30:25Z</time>
      </trkpt>
      <trkpt lat="44.01595" lon="2.556">
        <ele>379</ele>
        <time>2021-09-03T10:30:42Z</time>
      </trkpt>
      <trkpt lat="44.01583" lon="2.55629">
        <ele>377</ele>
        <time>2021-09-03T10:30:45Z</time>
      </trkpt>
      <trkpt lat="44.01567" lon="2.55655">
        <ele>375</ele>
        <time>2021-09-03T10:30:48Z</time>
      </trkpt>
      <trkpt lat="44.01506" lon="2.55724">
        <ele>372</ele>
        <time>2021-09-03T10:30:57Z</time>
      </trkpt>
      <trkpt lat="44.01477" lon="2.55783">
        <ele>369</ele>
        <time>2021-09-03T10:31:03Z</time>
      </trkpt>
      <trkpt lat="44.01465" lon="2.55827">
        <ele>366</ele>
        <time>2021-09-03T10:31:07Z</time>
      </trkpt>
      <trkpt lat="44.01448" lon="2.55935">
        <ele>362</ele>
        <time>2021-09-03T10:31:16Z</time>
      </trkpt>
      <trkpt lat="44.01431" lon="2.55987">
        <ele>358</ele>
        <time>2021-09-03T10:31:21Z</time>
      </trkpt>
      <trkpt lat="44.01421" lon="2.56005">
        <ele>356</ele>
        <time>2021-09-03T10:31:23Z</time>
      </trkpt>
      <trkpt lat="44.0134" lon="2.56093">
        <ele>345</ele>
        <time>2021-09-03T10:31:35Z</time>
      </trkpt>
      <trkpt lat="44.01297" lon="2.56117">
        <ele>343</ele>
        <time>2021-09-03T10:31:42Z</time>
      </trkpt>
      <trkpt lat="44.01245" lon="2.56142">
        <ele>343</ele>
        <time>2021-09-03T10:31:53Z</time>
      </trkpt>
      <trkpt lat="44.01186" lon="2.56185">
        <ele>340</ele>
        <time>2021-09-03T10:32:06Z</time>
      </trkpt>
      <trkpt lat="44.01164" lon="2.56189">
        <ele>338</ele>
        <time>2021-09-03T10:32:09Z</time>
      </trkpt>
      <trkpt lat="44.01149" lon="2.56188">
        <ele>336</ele>
        <time>2021-09-03T10:32:11Z</time>
      </trkpt>
      <trkpt lat="44.01142" lon="2.56189">
        <ele>335</ele>
        <time>2021-09-03T10:32:12Z</time>
      </trkpt>
      <trkpt lat="44.01134" lon="2.56194">
        <ele>335</ele>
        <time>2021-09-03T10:32:13Z</time>
      </trkpt>
      <trkpt lat="44.01129" lon="2.56201">
        <ele>334</ele>
        <time>2021-09-03T10:32:14Z</time>
      </trkpt>
      <trkpt lat="44.01127" lon="2.56211">
        <ele>333</ele>
        <time>2021-09-03T10:32:15Z</time>
      </trkpt>
      <trkpt lat="44.01121" lon="2.56285">
        <ele>329</ele>
        <time>2021-09-03T10:32:21Z</time>
      </trkpt>
      <trkpt lat="44.01113" lon="2.56305">
        <ele>327</ele>
        <time>2021-09-03T10:32:23Z</time>
      </trkpt>
      <trkpt lat="44.011" lon="2.56321">
        <ele>324</ele>
        <time>2021-09-03T10:32:25Z</time>
      </trkpt>
      <trkpt lat="44.01082" lon="2.56333">
        <ele>323</ele>
        <time>2021-09-03T10:32:27Z</time>
      </trkpt>
      <trkpt lat="44.01055" lon="2.5634">
        <ele>322</ele>
        <time>2021-09-03T10:32:30Z</time>
      </trkpt>
      <trkpt lat="44.01026" lon="2.56339">
        <ele>319</ele>
        <time>2021-09-03T10:32:33Z</time>
      </trkpt>
      <trkpt lat="44.01009" lon="2.5633">
        <ele>316</ele>
        <time>2021-09-03T10:32:35Z</time>
      </trkpt>
      <trkpt lat="44.00978" lon="2.563">
        <ele>313</ele>
        <time>2021-09-03T10:32:39Z</time>
      </trkpt>
      <trkpt lat="44.00913" lon="2.56274">
        <ele>310</ele>
        <time>2021-09-03T10:32:46Z</time>
      </trkpt>
      <trkpt lat="44.00899" lon="2.56261">
        <ele>309</ele>
        <time>2021-09-03T10:32:48Z</time>
      </trkpt>
      <trkpt lat="44.00881" lon="2.56253">
        <ele>309</ele>
        <time>2021-09-03T10:32:50Z</time>
      </trkpt>
      <trkpt lat="44.00761" lon="2.56249">
        <ele>303</ele>
        <time>2021-09-03T10:33:03Z</time>
      </trkpt>
      <trkpt lat="44.00669" lon="2.56201">
        <ele>296</ele>
        <time>2021-09-03T10:33:14Z</time>
      </trkpt>
      <trkpt lat="44.00607" lon="2.56156">
        <ele>292</ele>
        <time>2021-09-03T10:33:22Z</time>
      </trkpt>
      <trkpt lat="44.00591" lon="2.56149">
        <ele>290</ele>
        <time>2021-09-03T10:33:24Z</time>
      </trkpt>
      <trkpt lat="44.00498" lon="2.56144">
        <ele>283</ele>
        <time>2021-09-03T10:33:34Z</time>
      </trkpt>
      <trkpt lat="44.00342" lon="2.56082">
        <ele>272</ele>
        <time>2021-09-03T10:33:52Z</time>
      </trkpt>
      <trkpt lat="44.00334" lon="2.56082">
        <ele>271</ele>
        <time>2021-09-03T10:33:53Z</time>
      </trkpt>
      <trkpt lat="44.00325" lon="2.56084">
        <ele>271</ele>
        <time>2021-09-03T10:33:54Z</time>
      </trkpt>
      <trkpt lat="44.00311" lon="2.56097">
        <ele>270</ele>
        <time>2021-09-03T10:33:56Z</time>
      </trkpt>
      <trkpt lat="44.00282" lon="2.56142">
        <ele>268</ele>
        <time>2021-09-03T10:34:01Z</time>
      </trkpt>
      <trkpt lat="44.00268" lon="2.56149">
        <ele>265</ele>
        <time>2021-09-03T10:34:03Z</time>
      </trkpt>
      <trkpt lat="44.00217" lon="2.56144">
        <ele>259</ele>
        <time>2021-09-03T10:34:09Z</time>
      </trkpt>
      <trkpt lat="44.00203" lon="2.56148">
        <ele>257</ele>
        <time>2021-09-03T10:34:11Z</time>
      </trkpt>
      <trkpt lat="44.00181" lon="2.56163">
        <ele>256</ele>
        <time>2021-09-03T10:34:14Z</time>
      </trkpt>
      <trkpt lat="44.00144" lon="2.56174">
        <ele>252</ele>
        <time>2021-09-03T10:34:19Z</time>
      </trkpt>
      <trkpt lat="44.00116" lon="2.56176">
        <ele>250</ele>
        <time>2021-09-03T10:34:24Z</time>
      </trkpt>
      <trkpt lat="44.00105" lon="2.56173">
        <ele>248</ele>
        <time>2021-09-03T10:34:26Z</time>
      </trkpt>
      <trkpt lat="44.00092" lon="2.56165">
        <ele>247</ele>
        <time>2021-09-03T10:34:29Z</time>
      </trkpt>
      <trkpt lat="44.00086" lon="2.56163">
        <ele>247</ele>
        <time>2021-09-03T10:34:31Z</time>
      </trkpt>
      <trkpt lat="44.0008" lon="2.56165">
        <ele>247</ele>
        <time>2021-09-03T10:34:34Z</time>
      </trkpt>
      <trkpt lat="44.0008" lon="2.56172">
        <ele>246</ele>
        <time>2021-09-03T10:35:07Z</time>
      </trkpt>
      <trkpt lat="44.00081" lon="2.56178">
        <ele>245</ele>
        <time>2021-09-03T10:35:09Z</time>
      </trkpt>
      <trkpt lat="44.0008" lon="2.56186">
        <ele>245</ele>
        <time>2021-09-03T10:35:11Z</time>
      </trkpt>
      <trkpt lat="44.00076" lon="2.56198">
        <ele>245</ele>
        <time>2021-09-03T10:35:18Z</time>
      </trkpt>
      <trkpt lat="44.00076" lon="2.56207">
        <ele>245</ele>
        <time>2021-09-03T10:36:32Z</time>
      </trkpt>
      <trkpt lat="44.00067" lon="2.56243">
        <ele>247</ele>
        <time>2021-09-03T10:36:38Z</time>
      </trkpt>
      <trkpt lat="44.00067" lon="2.56257">
        <ele>247</ele>
        <time>2021-09-03T10:36:40Z</time>
      </trkpt>
      <trkpt lat="44.00071" lon="2.56271">
        <ele>247</ele>
        <time>2021-09-03T10:36:42Z</time>
      </trkpt>
      <trkpt lat="44.00074" lon="2.56276">
        <ele>247</ele>
        <time>2021-09-03T10:36:43Z</time>
      </trkpt>
      <trkpt lat="44.00118" lon="2.56295">
        <ele>248</ele>
        <time>2021-09-03T10:36:52Z</time>
      </trkpt>
      <trkpt lat="44.00158" lon="2.56323">
        <ele>246</ele>
        <time>2021-09-03T10:37:00Z</time>
      </trkpt>
      <trkpt lat="44.00177" lon="2.56328">
        <ele>245</ele>
        <time>2021-09-03T10:37:04Z</time>
      </trkpt>
      <trkpt lat="44.00211" lon="2.56325">
        <ele>242</ele>
        <time>2021-09-03T10:37:11Z</time>
      </trkpt>
      <trkpt lat="44.00222" lon="2.56328">
        <ele>241</ele>
        <time>2021-09-03T10:37:13Z</time>
      </trkpt>
      <trkpt lat="44.00233" lon="2.56335">
        <ele>240</ele>
        <time>2021-09-03T10:37:15Z</time>
      </trkpt>
      <trkpt lat="44.00262" lon="2.56366">
        <ele>238</ele>
        <time>2021-09-03T10:37:21Z</time>
      </trkpt>
      <trkpt lat="44.00298" lon="2.56441">
        <ele>233</ele>
        <time>2021-09-03T10:37:31Z</time>
      </trkpt>
      <trkpt lat="44.00326" lon="2.56538">
        <ele>230</ele>
        <time>2021-09-03T10:37:42Z</time>
      </trkpt>
      <trkpt lat="44.00347" lon="2.56702">
        <ele>230</ele>
        <time>2021-09-03T10:38:05Z</time>
      </trkpt>
      <trkpt lat="44.00347" lon="2.56885">
        <ele>226</ele>
        <time>2021-09-03T10:38:35Z</time>
      </trkpt>
      <trkpt lat="44.00345" lon="2.56981">
        <ele>221</ele>
        <time>2021-09-03T10:38:53Z</time>
      </trkpt>
      <trkpt lat="44.00344" lon="2.5699">
        <ele>221</ele>
        <time>2021-09-03T10:38:55Z</time>
      </trkpt>
      <trkpt lat="44.00343" lon="2.56998">
        <ele>221</ele>
        <time>2021-09-03T10:38:57Z</time>
      </trkpt>
      <trkpt lat="44.00343" lon="2.57005">
        <ele>220</ele>
        <time>2021-09-03T10:38:59Z</time>
      </trkpt>
      <trkpt lat="44.00339" lon="2.57011">
        <ele>220</ele>
        <time>2021-09-03T10:39:01Z</time>
      </trkpt>
      <trkpt lat="44.00332" lon="2.57015">
        <ele>221</ele>
        <time>2021-09-03T10:39:03Z</time>
      </trkpt>
      <trkpt lat="44.00324" lon="2.57017">
        <ele>222</ele>
        <time>2021-09-03T10:39:05Z</time>
      </trkpt>
      <trkpt lat="44.00316" lon="2.57015">
        <ele>223</ele>
        <time>2021-09-03T10:39:07Z</time>
      </trkpt>
      <trkpt lat="44.0031" lon="2.57011">
        <ele>224</ele>
        <time>2021-09-03T10:39:09Z</time>
      </trkpt>
      <trkpt lat="44.00304" lon="2.57007">
        <ele>226</ele>
        <time>2021-09-03T10:39:11Z</time>
      </trkpt>
      <trkpt lat="44.00298" lon="2.57007">
        <ele>226</ele>
        <time>2021-09-03T10:39:13Z</time>
      </trkpt>
      <trkpt lat="44.00295" lon="2.57022">
        <ele>227</ele>
        <time>2021-09-03T10:39:17Z</time>
      </trkpt>
      <trkpt lat="44.00293" lon="2.57029">
        <ele>227</ele>
        <time>2021-09-03T10:39:19Z</time>
      </trkpt>
      <trkpt lat="44.00286" lon="2.57074">
        <ele>225</ele>
        <time>2021-09-03T10:39:32Z</time>
      </trkpt>
      <trkpt lat="44.00285" lon="2.57081">
        <ele>225</ele>
        <time>2021-09-03T10:39:34Z</time>
      </trkpt>
      <trkpt lat="44.00284" lon="2.57104">
        <ele>224</ele>
        <time>2021-09-03T10:39:40Z</time>
      </trkpt>
      <trkpt lat="44.00282" lon="2.5711">
        <ele>225</ele>
        <time>2021-09-03T10:39:43Z</time>
      </trkpt>
      <trkpt lat="44.00283" lon="2.57116">
        <ele>227</ele>
        <time>2021-09-03T10:39:52Z</time>
      </trkpt>
      <trkpt lat="44.00281" lon="2.57115">
        <ele>229</ele>
        <time>2021-09-03T10:47:31Z</time>
      </trkpt>
      <trkpt lat="44.00286" lon="2.57088">
        <ele>231</ele>
        <time>2021-09-03T10:47:45Z</time>
      </trkpt>
      <trkpt lat="44.00286" lon="2.5708">
        <ele>233</ele>
        <time>2021-09-03T10:47:49Z</time>
      </trkpt>
      <trkpt lat="44.00286" lon="2.57084">
        <ele>235</ele>
        <time>2021-09-03T11:14:32Z</time>
      </trkpt>
      <trkpt lat="44.00284" lon="2.57089">
        <ele>235</ele>
        <time>2021-09-03T11:16:37Z</time>
      </trkpt>
      <trkpt lat="44.00281" lon="2.57096">
        <ele>235</ele>
        <time>2021-09-03T11:16:41Z</time>
      </trkpt>
      <trkpt lat="44.00279" lon="2.57107">
        <ele>234</ele>
        <time>2021-09-03T11:16:45Z</time>
      </trkpt>
      <trkpt lat="44.00277" lon="2.57137">
        <ele>232</ele>
        <time>2021-09-03T11:16:55Z</time>
      </trkpt>
      <trkpt lat="44.00277" lon="2.57147">
        <ele>232</ele>
        <time>2021-09-03T11:16:58Z</time>
      </trkpt>
      <trkpt lat="44.00278" lon="2.57158">
        <ele>234</ele>
        <time>2021-09-03T11:17:02Z</time>
      </trkpt>
      <trkpt lat="44.00273" lon="2.57208">
        <ele>235</ele>
        <time>2021-09-03T11:17:18Z</time>
      </trkpt>
      <trkpt lat="44.0027" lon="2.57215">
        <ele>235</ele>
        <time>2021-09-03T11:17:21Z</time>
      </trkpt>
      <trkpt lat="44.00256" lon="2.57287">
        <ele>235</ele>
        <time>2021-09-03T11:17:52Z</time>
      </trkpt>
      <trkpt lat="44.00253" lon="2.57312">
        <ele>234</ele>
        <time>2021-09-03T11:18:00Z</time>
      </trkpt>
      <trkpt lat="44.00252" lon="2.57323">
        <ele>234</ele>
        <time>2021-09-03T11:18:04Z</time>
      </trkpt>
      <trkpt lat="44.0025" lon="2.5734">
        <ele>234</ele>
        <time>2021-09-03T11:18:10Z</time>
      </trkpt>
      <trkpt lat="44.0025" lon="2.57456">
        <ele>233</ele>
        <time>2021-09-03T11:18:38Z</time>
      </trkpt>
      <trkpt lat="44.00256" lon="2.57524">
        <ele>235</ele>
        <time>2021-09-03T11:18:52Z</time>
      </trkpt>
      <trkpt lat="44.00293" lon="2.57623">
        <ele>233</ele>
        <time>2021-09-03T11:19:16Z</time>
      </trkpt>
      <trkpt lat="44.00354" lon="2.57764">
        <ele>236</ele>
        <time>2021-09-03T11:19:47Z</time>
      </trkpt>
      <trkpt lat="44.00358" lon="2.57774">
        <ele>235</ele>
        <time>2021-09-03T11:19:49Z</time>
      </trkpt>
      <trkpt lat="44.00364" lon="2.57794">
        <ele>234</ele>
        <time>2021-09-03T11:19:53Z</time>
      </trkpt>
      <trkpt lat="44.00418" lon="2.57955">
        <ele>232</ele>
        <time>2021-09-03T11:20:25Z</time>
      </trkpt>
      <trkpt lat="44.0049" lon="2.58084">
        <ele>230</ele>
        <time>2021-09-03T11:20:57Z</time>
      </trkpt>
      <trkpt lat="44.00562" lon="2.58219">
        <ele>232</ele>
        <time>2021-09-03T11:21:27Z</time>
      </trkpt>
      <trkpt lat="44.00593" lon="2.58291">
        <ele>228</ele>
        <time>2021-09-03T11:21:42Z</time>
      </trkpt>
      <trkpt lat="44.00675" lon="2.58427">
        <ele>220</ele>
        <time>2021-09-03T11:22:14Z</time>
      </trkpt>
      <trkpt lat="44.00731" lon="2.58532">
        <ele>232</ele>
        <time>2021-09-03T11:22:35Z</time>
      </trkpt>
      <trkpt lat="44.00748" lon="2.58597">
        <ele>236</ele>
        <time>2021-09-03T11:22:47Z</time>
      </trkpt>
      <trkpt lat="44.00773" lon="2.5876">
        <ele>246</ele>
        <time>2021-09-03T11:23:17Z</time>
      </trkpt>
      <trkpt lat="44.00803" lon="2.5895">
        <ele>250</ele>
        <time>2021-09-03T11:23:48Z</time>
      </trkpt>
      <trkpt lat="44.00823" lon="2.59101">
        <ele>254</ele>
        <time>2021-09-03T11:24:18Z</time>
      </trkpt>
      <trkpt lat="44.00828" lon="2.591">
        <ele>250</ele>
        <time>2021-09-03T11:26:15Z</time>
      </trkpt>
      <trkpt lat="44.00829" lon="2.59108">
        <ele>240</ele>
        <time>2021-09-03T11:27:21Z</time>
      </trkpt>
      <trkpt lat="44.00852" lon="2.59251">
        <ele>241</ele>
        <time>2021-09-03T11:27:53Z</time>
      </trkpt>
      <trkpt lat="44.00857" lon="2.5935">
        <ele>239</ele>
        <time>2021-09-03T11:28:11Z</time>
      </trkpt>
      <trkpt lat="44.00852" lon="2.59428">
        <ele>232</ele>
        <time>2021-09-03T11:28:25Z</time>
      </trkpt>
      <trkpt lat="44.00837" lon="2.59493">
        <ele>229</ele>
        <time>2021-09-03T11:28:37Z</time>
      </trkpt>
      <trkpt lat="44.00775" lon="2.59652">
        <ele>220</ele>
        <time>2021-09-03T11:29:09Z</time>
      </trkpt>
      <trkpt lat="44.00716" lon="2.59801">
        <ele>214</ele>
        <time>2021-09-03T11:29:41Z</time>
      </trkpt>
      <trkpt lat="44.00699" lon="2.59869">
        <ele>219</ele>
        <time>2021-09-03T11:29:53Z</time>
      </trkpt>
      <trkpt lat="44.00685" lon="2.60059">
        <ele>232</ele>
        <time>2021-09-03T11:30:24Z</time>
      </trkpt>
      <trkpt lat="44.0067" lon="2.60129">
        <ele>236</ele>
        <time>2021-09-03T11:30:36Z</time>
      </trkpt>
      <trkpt lat="44.00643" lon="2.6021">
        <ele>241</ele>
        <time>2021-09-03T11:30:56Z</time>
      </trkpt>
      <trkpt lat="44.00646" lon="2.60213">
        <ele>250</ele>
        <time>2021-09-03T11:31:58Z</time>
      </trkpt>
      <trkpt lat="44.00594" lon="2.60354">
        <ele>245</ele>
        <time>2021-09-03T11:32:28Z</time>
      </trkpt>
      <trkpt lat="44.00588" lon="2.60362">
        <ele>245</ele>
        <time>2021-09-03T11:32:30Z</time>
      </trkpt>
      <trkpt lat="44.00583" lon="2.60364">
        <ele>245</ele>
        <time>2021-09-03T11:32:32Z</time>
      </trkpt>
      <trkpt lat="44.00565" lon="2.60336">
        <ele>246</ele>
        <time>2021-09-03T11:32:42Z</time>
      </trkpt>
      <trkpt lat="44.00556" lon="2.60327">
        <ele>246</ele>
        <time>2021-09-03T11:32:46Z</time>
      </trkpt>
      <trkpt lat="44.0055" lon="2.60322">
        <ele>247</ele>
        <time>2021-09-03T11:32:49Z</time>
      </trkpt>
      <trkpt lat="44.00539" lon="2.60321">
        <ele>248</ele>
        <time>2021-09-03T11:32:54Z</time>
      </trkpt>
      <trkpt lat="44.00533" lon="2.60323">
        <ele>248</ele>
        <time>2021-09-03T11:32:57Z</time>
      </trkpt>
      <trkpt lat="44.00531" lon="2.60331">
        <ele>249</ele>
        <time>2021-09-03T11:33:00Z</time>
      </trkpt>
      <trkpt lat="44.00532" lon="2.60339">
        <ele>249</ele>
        <time>2021-09-03T11:33:02Z</time>
      </trkpt>
      <trkpt lat="44.0054" lon="2.60351">
        <ele>249</ele>
        <time>2021-09-03T11:33:06Z</time>
      </trkpt>
      <trkpt lat="44.00636" lon="2.60434">
        <ele>258</ele>
        <time>2021-09-03T11:33:36Z</time>
      </trkpt>
      <trkpt lat="44.007" lon="2.60495">
        <ele>257</ele>
        <time>2021-09-03T11:33:52Z</time>
      </trkpt>
      <trkpt lat="44.0077" lon="2.60529">
        <ele>255</ele>
        <time>2021-09-03T11:34:05Z</time>
      </trkpt>
      <trkpt lat="44.00781" lon="2.60539">
        <ele>254</ele>
        <time>2021-09-03T11:34:07Z</time>
      </trkpt>
      <trkpt lat="44.00792" lon="2.60559">
        <ele>253</ele>
        <time>2021-09-03T11:34:10Z</time>
      </trkpt>
      <trkpt lat="44.008" lon="2.60582">
        <ele>253</ele>
        <time>2021-09-03T11:34:13Z</time>
      </trkpt>
      <trkpt lat="44.00812" lon="2.60664">
        <ele>251</ele>
        <time>2021-09-03T11:34:23Z</time>
      </trkpt>
      <trkpt lat="44.00807" lon="2.60734">
        <ele>250</ele>
        <time>2021-09-03T11:34:32Z</time>
      </trkpt>
      <trkpt lat="44.00786" lon="2.60804">
        <ele>249</ele>
        <time>2021-09-03T11:34:44Z</time>
      </trkpt>
      <trkpt lat="44.0077" lon="2.6085">
        <ele>248</ele>
        <time>2021-09-03T11:34:52Z</time>
      </trkpt>
      <trkpt lat="44.00758" lon="2.60869">
        <ele>246</ele>
        <time>2021-09-03T11:34:56Z</time>
      </trkpt>
      <trkpt lat="44.00742" lon="2.60881">
        <ele>245</ele>
        <time>2021-09-03T11:35:00Z</time>
      </trkpt>
      <trkpt lat="44.00675" lon="2.60913">
        <ele>243</ele>
        <time>2021-09-03T11:35:16Z</time>
      </trkpt>
      <trkpt lat="44.00656" lon="2.60914">
        <ele>242</ele>
        <time>2021-09-03T11:35:20Z</time>
      </trkpt>
      <trkpt lat="44.00513" lon="2.60876">
        <ele>227</ele>
        <time>2021-09-03T11:35:51Z</time>
      </trkpt>
      <trkpt lat="44.00425" lon="2.60883">
        <ele>226</ele>
        <time>2021-09-03T11:36:13Z</time>
      </trkpt>
      <trkpt lat="44.00351" lon="2.60901">
        <ele>233</ele>
        <time>2021-09-03T11:36:30Z</time>
      </trkpt>
      <trkpt lat="44.00346" lon="2.60904">
        <ele>233</ele>
        <time>2021-09-03T11:36:31Z</time>
      </trkpt>
      <trkpt lat="44.00262" lon="2.60995">
        <ele>225</ele>
        <time>2021-09-03T11:36:48Z</time>
      </trkpt>
      <trkpt lat="44.00128" lon="2.61206">
        <ele>212</ele>
        <time>2021-09-03T11:37:17Z</time>
      </trkpt>
      <trkpt lat="44.00113" lon="2.61226">
        <ele>208</ele>
        <time>2021-09-03T11:37:21Z</time>
      </trkpt>
      <trkpt lat="44.00107" lon="2.61238">
        <ele>206</ele>
        <time>2021-09-03T11:37:23Z</time>
      </trkpt>
      <trkpt lat="44.00098" lon="2.61253">
        <ele>203</ele>
        <time>2021-09-03T11:37:26Z</time>
      </trkpt>
      <trkpt lat="44.0009" lon="2.61267">
        <ele>201</ele>
        <time>2021-09-03T11:37:29Z</time>
      </trkpt>
      <trkpt lat="44.0008" lon="2.61293">
        <ele>197</ele>
        <time>2021-09-03T11:37:33Z</time>
      </trkpt>
      <trkpt lat="44.00067" lon="2.61328">
        <ele>193</ele>
        <time>2021-09-03T11:37:38Z</time>
      </trkpt>
      <trkpt lat="44.00043" lon="2.61371">
        <ele>182</ele>
        <time>2021-09-03T11:37:46Z</time>
      </trkpt>
      <trkpt lat="44.00017" lon="2.61433">
        <ele>180</ele>
        <time>2021-09-03T11:37:55Z</time>
      </trkpt>
      <trkpt lat="44.00012" lon="2.61457">
        <ele>185</ele>
        <time>2021-09-03T11:37:58Z</time>
      </trkpt>
      <trkpt lat="44.00009" lon="2.61475">
        <ele>187</ele>
        <time>2021-09-03T11:38:00Z</time>
      </trkpt>
      <trkpt lat="44.00006" lon="2.61492">
        <ele>192</ele>
        <time>2021-09-03T11:38:02Z</time>
      </trkpt>
      <trkpt lat="43.99968" lon="2.61641">
        <ele>200</ele>
        <time>2021-09-03T11:38:22Z</time>
      </trkpt>
      <trkpt lat="43.99905" lon="2.61822">
        <ele>205</ele>
        <time>2021-09-03T11:38:50Z</time>
      </trkpt>
      <trkpt lat="43.99902" lon="2.61827">
        <ele>204</ele>
        <time>2021-09-03T11:38:51Z</time>
      </trkpt>
      <trkpt lat="43.99895" lon="2.61836">
        <ele>202</ele>
        <time>2021-09-03T11:38:53Z</time>
      </trkpt>
      <trkpt lat="43.99887" lon="2.61853">
        <ele>203</ele>
        <time>2021-09-03T11:38:56Z</time>
      </trkpt>
      <trkpt lat="43.99853" lon="2.61931">
        <ele>207</ele>
        <time>2021-09-03T11:39:10Z</time>
      </trkpt>
      <trkpt lat="43.99811" lon="2.62023">
        <ele>200</ele>
        <time>2021-09-03T11:39:27Z</time>
      </trkpt>
      <trkpt lat="43.99759" lon="2.62123">
        <ele>199</ele>
        <time>2021-09-03T11:39:45Z</time>
      </trkpt>
      <trkpt lat="43.99731" lon="2.62161">
        <ele>222</ele>
        <time>2021-09-03T11:39:55Z</time>
      </trkpt>
      <trkpt lat="43.99728" lon="2.62172">
        <ele>225</ele>
        <time>2021-09-03T11:39:57Z</time>
      </trkpt>
      <trkpt lat="43.99727" lon="2.62181">
        <ele>228</ele>
        <time>2021-09-03T11:39:59Z</time>
      </trkpt>
      <trkpt lat="43.99726" lon="2.62191">
        <ele>229</ele>
        <time>2021-09-03T11:40:01Z</time>
      </trkpt>
      <trkpt lat="43.99727" lon="2.62197">
        <ele>232</ele>
        <time>2021-09-03T11:40:05Z</time>
      </trkpt>
      <trkpt lat="43.9973" lon="2.62202">
        <ele>233</ele>
        <time>2021-09-03T11:40:08Z</time>
      </trkpt>
      <trkpt lat="43.99728" lon="2.622">
        <ele>240</ele>
        <time>2021-09-03T11:40:29Z</time>
      </trkpt>
      <trkpt lat="43.9972" lon="2.62193">
        <ele>240</ele>
        <time>2021-09-03T11:40:33Z</time>
      </trkpt>
      <trkpt lat="43.99718" lon="2.62186">
        <ele>240</ele>
        <time>2021-09-03T11:40:35Z</time>
      </trkpt>
      <trkpt lat="43.99719" lon="2.62173">
        <ele>240</ele>
        <time>2021-09-03T11:40:46Z</time>
      </trkpt>
      <trkpt lat="43.99723" lon="2.62175">
        <ele>240</ele>
        <time>2021-09-03T11:44:15Z</time>
      </trkpt>
      <trkpt lat="43.99721" lon="2.62181">
        <ele>240</ele>
        <time>2021-09-03T11:44:21Z</time>
      </trkpt>
      <trkpt lat="43.9972" lon="2.62189">
        <ele>241</ele>
        <time>2021-09-03T11:44:23Z</time>
      </trkpt>
      <trkpt lat="43.99738" lon="2.62211">
        <ele>243</ele>
        <time>2021-09-03T11:44:31Z</time>
      </trkpt>
      <trkpt lat="43.99793" lon="2.6228">
        <ele>247</ele>
        <time>2021-09-03T11:44:57Z</time>
      </trkpt>
      <trkpt lat="43.99796" lon="2.62288">
        <ele>247</ele>
        <time>2021-09-03T11:45:00Z</time>
      </trkpt>
      <trkpt lat="43.99796" lon="2.62295">
        <ele>248</ele>
        <time>2021-09-03T11:45:02Z</time>
      </trkpt>
      <trkpt lat="43.99793" lon="2.62301">
        <ele>248</ele>
        <time>2021-09-03T11:45:05Z</time>
      </trkpt>
      <trkpt lat="43.99789" lon="2.62304">
        <ele>247</ele>
        <time>2021-09-03T11:45:08Z</time>
      </trkpt>
      <trkpt lat="43.99789" lon="2.62313">
        <ele>246</ele>
        <time>2021-09-03T11:45:21Z</time>
      </trkpt>
      <trkpt lat="43.99787" lon="2.62319">
        <ele>246</ele>
        <time>2021-09-03T11:45:24Z</time>
      </trkpt>
      <trkpt lat="43.99775" lon="2.62385">
        <ele>242</ele>
        <time>2021-09-03T11:45:51Z</time>
      </trkpt>
      <trkpt lat="43.99769" lon="2.62405">
        <ele>243</ele>
        <time>2021-09-03T11:45:58Z</time>
      </trkpt>
      <trkpt lat="43.99765" lon="2.62414">
        <ele>245</ele>
        <time>2021-09-03T11:46:01Z</time>
      </trkpt>
      <trkpt lat="43.99761" lon="2.62429">
        <ele>248</ele>
        <time>2021-09-03T11:46:07Z</time>
      </trkpt>
      <trkpt lat="43.99762" lon="2.6244">
        <ele>248</ele>
        <time>2021-09-03T11:46:10Z</time>
      </trkpt>
      <trkpt lat="43.9976" lon="2.62452">
        <ele>247</ele>
        <time>2021-09-03T11:46:14Z</time>
      </trkpt>
      <trkpt lat="43.99754" lon="2.62487">
        <ele>248</ele>
        <time>2021-09-03T11:46:29Z</time>
      </trkpt>
      <trkpt lat="43.99747" lon="2.62529">
        <ele>243</ele>
        <time>2021-09-03T11:46:45Z</time>
      </trkpt>
      <trkpt lat="43.99742" lon="2.62535">
        <ele>243</ele>
        <time>2021-09-03T11:46:48Z</time>
      </trkpt>
      <trkpt lat="43.99738" lon="2.6254">
        <ele>243</ele>
        <time>2021-09-03T11:46:50Z</time>
      </trkpt>
      <trkpt lat="43.99725" lon="2.62558">
        <ele>246</ele>
        <time>2021-09-03T11:46:58Z</time>
      </trkpt>
      <trkpt lat="43.99715" lon="2.62567">
        <ele>245</ele>
        <time>2021-09-03T11:47:03Z</time>
      </trkpt>
      <trkpt lat="43.9971" lon="2.62569">
        <ele>244</ele>
        <time>2021-09-03T11:47:05Z</time>
      </trkpt>
      <trkpt lat="43.99702" lon="2.62579">
        <ele>243</ele>
        <time>2021-09-03T11:47:10Z</time>
      </trkpt>
      <trkpt lat="43.99698" lon="2.62583">
        <ele>242</ele>
        <time>2021-09-03T11:47:13Z</time>
      </trkpt>
      <trkpt lat="43.99692" lon="2.62586">
        <ele>241</ele>
        <time>2021-09-03T11:47:17Z</time>
      </trkpt>
      <trkpt lat="43.9968" lon="2.62603">
        <ele>229</ele>
        <time>2021-09-03T11:48:11Z</time>
      </trkpt>
      <trkpt lat="43.99675" lon="2.62607">
        <ele>228</ele>
        <time>2021-09-03T11:48:14Z</time>
      </trkpt>
      <trkpt lat="43.99672" lon="2.62611">
        <ele>227</ele>
        <time>2021-09-03T11:48:18Z</time>
      </trkpt>
      <trkpt lat="43.9967" lon="2.62618">
        <ele>228</ele>
        <time>2021-09-03T11:48:20Z</time>
      </trkpt>
      <trkpt lat="43.99674" lon="2.62618">
        <ele>231</ele>
        <time>2021-09-03T11:48:25Z</time>
      </trkpt>
      <trkpt lat="43.99677" lon="2.62612">
        <ele>232</ele>
        <time>2021-09-03T11:48:29Z</time>
      </trkpt>
      <trkpt lat="43.9968" lon="2.62607">
        <ele>234</ele>
        <time>2021-09-03T11:48:33Z</time>
      </trkpt>
      <trkpt lat="43.99689" lon="2.62601">
        <ele>237</ele>
        <time>2021-09-03T11:48:39Z</time>
      </trkpt>
      <trkpt lat="43.99694" lon="2.62598">
        <ele>238</ele>
        <time>2021-09-03T11:48:41Z</time>
      </trkpt>
      <trkpt lat="43.997" lon="2.62594">
        <ele>238</ele>
        <time>2021-09-03T11:48:44Z</time>
      </trkpt>
      <trkpt lat="43.99724" lon="2.62577">
        <ele>236</ele>
        <time>2021-09-03T11:48:57Z</time>
      </trkpt>
      <trkpt lat="43.99737" lon="2.62555">
        <ele>236</ele>
        <time>2021-09-03T11:49:07Z</time>
      </trkpt>
      <trkpt lat="43.99738" lon="2.62548">
        <ele>236</ele>
        <time>2021-09-03T11:49:10Z</time>
      </trkpt>
      <trkpt lat="43.99742" lon="2.62539">
        <ele>236</ele>
        <time>2021-09-03T11:49:13Z</time>
      </trkpt>
      <trkpt lat="43.99753" lon="2.625">
        <ele>240</ele>
        <time>2021-09-03T11:49:27Z</time>
      </trkpt>
      <trkpt lat="43.99755" lon="2.62492">
        <ele>241</ele>
        <time>2021-09-03T11:49:30Z</time>
      </trkpt>
      <trkpt lat="43.99755" lon="2.62485">
        <ele>242</ele>
        <time>2021-09-03T11:49:33Z</time>
      </trkpt>
      <trkpt lat="43.99756" lon="2.62471">
        <ele>244</ele>
        <time>2021-09-03T11:49:40Z</time>
      </trkpt>
      <trkpt lat="43.99757" lon="2.62462">
        <ele>244</ele>
        <time>2021-09-03T11:49:44Z</time>
      </trkpt>
      <trkpt lat="43.99757" lon="2.62451">
        <ele>244</ele>
        <time>2021-09-03T11:49:49Z</time>
      </trkpt>
      <trkpt lat="43.99754" lon="2.62453">
        <ele>243</ele>
        <time>2021-09-03T11:50:37Z</time>
      </trkpt>
      <trkpt lat="43.99752" lon="2.62458">
        <ele>243</ele>
        <time>2021-09-03T11:50:48Z</time>
      </trkpt>
      <trkpt lat="43.99747" lon="2.62458">
        <ele>244</ele>
        <time>2021-09-03T11:51:00Z</time>
      </trkpt>
      <trkpt lat="43.99744" lon="2.62449">
        <ele>245</ele>
        <time>2021-09-03T11:51:31Z</time>
      </trkpt>
      <trkpt lat="43.99742" lon="2.62439">
        <ele>248</ele>
        <time>2021-09-03T11:51:41Z</time>
      </trkpt>
      <trkpt lat="43.99741" lon="2.62433">
        <ele>249</ele>
        <time>2021-09-03T11:52:34Z</time>
      </trkpt>
      <trkpt lat="43.9974" lon="2.62427">
        <ele>250</ele>
        <time>2021-09-03T11:52:59Z</time>
      </trkpt>
      <trkpt lat="43.99735" lon="2.62398">
        <ele>251</ele>
        <time>2021-09-03T11:53:40Z</time>
      </trkpt>
      <trkpt lat="43.99738" lon="2.62392">
        <ele>252</ele>
        <time>2021-09-03T11:54:14Z</time>
      </trkpt>
      <trkpt lat="43.99744" lon="2.6239">
        <ele>256</ele>
        <time>2021-09-03T11:54:17Z</time>
      </trkpt>
      <trkpt lat="43.99745" lon="2.62383">
        <ele>258</ele>
        <time>2021-09-03T11:54:22Z</time>
      </trkpt>
      <trkpt lat="43.99735" lon="2.62365">
        <ele>259</ele>
        <time>2021-09-03T11:54:55Z</time>
      </trkpt>
      <trkpt lat="43.9973" lon="2.62358">
        <ele>258</ele>
        <time>2021-09-03T11:54:57Z</time>
      </trkpt>
      <trkpt lat="43.99724" lon="2.62345">
        <ele>253</ele>
        <time>2021-09-03T11:55:15Z</time>
      </trkpt>
      <trkpt lat="43.99729" lon="2.62344">
        <ele>252</ele>
        <time>2021-09-03T11:55:28Z</time>
      </trkpt>
      <trkpt lat="43.99734" lon="2.62346">
        <ele>249</ele>
        <time>2021-09-03T11:55:34Z</time>
      </trkpt>
      <trkpt lat="43.99739" lon="2.62348">
        <ele>248</ele>
        <time>2021-09-03T11:55:40Z</time>
      </trkpt>
      <trkpt lat="43.99749" lon="2.62357">
        <ele>247</ele>
        <time>2021-09-03T11:55:47Z</time>
      </trkpt>
      <trkpt lat="43.99756" lon="2.62359">
        <ele>246</ele>
        <time>2021-09-03T11:55:50Z</time>
      </trkpt>
      <trkpt lat="43.99766" lon="2.62361">
        <ele>245</ele>
        <time>2021-09-03T11:55:55Z</time>
      </trkpt>
      <trkpt lat="43.99771" lon="2.62364">
        <ele>245</ele>
        <time>2021-09-03T11:55:58Z</time>
      </trkpt>
      <trkpt lat="43.99772" lon="2.62371">
        <ele>246</ele>
        <time>2021-09-03T11:56:01Z</time>
      </trkpt>
      <trkpt lat="43.99775" lon="2.62376">
        <ele>245</ele>
        <time>2021-09-03T11:56:09Z</time>
      </trkpt>
      <trkpt lat="43.99779" lon="2.62374">
        <ele>244</ele>
        <time>2021-09-03T11:56:13Z</time>
      </trkpt>
      <trkpt lat="43.99779" lon="2.62365">
        <ele>245</ele>
        <time>2021-09-03T11:56:17Z</time>
      </trkpt>
      <trkpt lat="43.9978" lon="2.62358">
        <ele>246</ele>
        <time>2021-09-03T11:56:20Z</time>
      </trkpt>
      <trkpt lat="43.99779" lon="2.62344">
        <ele>247</ele>
        <time>2021-09-03T11:56:26Z</time>
      </trkpt>
      <trkpt lat="43.99778" lon="2.6233">
        <ele>248</ele>
        <time>2021-09-03T11:56:32Z</time>
      </trkpt>
      <trkpt lat="43.99782" lon="2.62316">
        <ele>250</ele>
        <time>2021-09-03T11:56:38Z</time>
      </trkpt>
      <trkpt lat="43.99792" lon="2.623">
        <ele>253</ele>
        <time>2021-09-03T11:56:47Z</time>
      </trkpt>
      <trkpt lat="43.99796" lon="2.62293">
        <ele>253</ele>
        <time>2021-09-03T11:56:50Z</time>
      </trkpt>
      <trkpt lat="43.99796" lon="2.62286">
        <ele>252</ele>
        <time>2021-09-03T11:56:53Z</time>
      </trkpt>
      <trkpt lat="43.99793" lon="2.62281">
        <ele>253</ele>
        <time>2021-09-03T11:56:56Z</time>
      </trkpt>
      <trkpt lat="43.99784" lon="2.62271">
        <ele>253</ele>
        <time>2021-09-03T11:57:03Z</time>
      </trkpt>
      <trkpt lat="43.9978" lon="2.62265">
        <ele>252</ele>
        <time>2021-09-03T11:57:06Z</time>
      </trkpt>
      <trkpt lat="43.99775" lon="2.6226">
        <ele>252</ele>
        <time>2021-09-03T11:57:09Z</time>
      </trkpt>
      <trkpt lat="43.99753" lon="2.62235">
        <ele>252</ele>
        <time>2021-09-03T11:57:21Z</time>
      </trkpt>
      <trkpt lat="43.99749" lon="2.62229">
        <ele>252</ele>
        <time>2021-09-03T11:57:23Z</time>
      </trkpt>
      <trkpt lat="43.99719" lon="2.62194">
        <ele>250</ele>
        <time>2021-09-03T11:57:38Z</time>
      </trkpt>
      <trkpt lat="43.99715" lon="2.62189">
        <ele>250</ele>
        <time>2021-09-03T11:57:40Z</time>
      </trkpt>
      <trkpt lat="43.99709" lon="2.62187">
        <ele>249</ele>
        <time>2021-09-03T11:57:43Z</time>
      </trkpt>
      <trkpt lat="43.99704" lon="2.6219">
        <ele>248</ele>
        <time>2021-09-03T11:57:45Z</time>
      </trkpt>
      <trkpt lat="43.99689" lon="2.62208">
        <ele>245</ele>
        <time>2021-09-03T11:57:51Z</time>
      </trkpt>
      <trkpt lat="43.99599" lon="2.623">
        <ele>235</ele>
        <time>2021-09-03T11:58:23Z</time>
      </trkpt>
      <trkpt lat="43.99593" lon="2.62306">
        <ele>234</ele>
        <time>2021-09-03T11:58:25Z</time>
      </trkpt>
      <trkpt lat="43.995" lon="2.62412">
        <ele>227</ele>
        <time>2021-09-03T11:58:55Z</time>
      </trkpt>
      <trkpt lat="43.99389" lon="2.62546">
        <ele>213</ele>
        <time>2021-09-03T11:59:27Z</time>
      </trkpt>
      <trkpt lat="43.99367" lon="2.6257">
        <ele>210</ele>
        <time>2021-09-03T11:59:33Z</time>
      </trkpt>
      <trkpt lat="43.99339" lon="2.62605">
        <ele>205</ele>
        <time>2021-09-03T11:59:41Z</time>
      </trkpt>
      <trkpt lat="43.99278" lon="2.62684">
        <ele>199</ele>
        <time>2021-09-03T12:00:01Z</time>
      </trkpt>
      <trkpt lat="43.99272" lon="2.6269">
        <ele>199</ele>
        <time>2021-09-03T12:00:03Z</time>
      </trkpt>
      <trkpt lat="43.99262" lon="2.627">
        <ele>198</ele>
        <time>2021-09-03T12:00:07Z</time>
      </trkpt>
      <trkpt lat="43.99256" lon="2.62708">
        <ele>199</ele>
        <time>2021-09-03T12:00:09Z</time>
      </trkpt>
      <trkpt lat="43.99238" lon="2.62724">
        <ele>202</ele>
        <time>2021-09-03T12:00:15Z</time>
      </trkpt>
      <trkpt lat="43.99222" lon="2.62733">
        <ele>205</ele>
        <time>2021-09-03T12:00:21Z</time>
      </trkpt>
      <trkpt lat="43.992" lon="2.62734">
        <ele>207</ele>
        <time>2021-09-03T12:00:29Z</time>
      </trkpt>
      <trkpt lat="43.99184" lon="2.62728">
        <ele>207</ele>
        <time>2021-09-03T12:00:35Z</time>
      </trkpt>
      <trkpt lat="43.99152" lon="2.62706">
        <ele>206</ele>
        <time>2021-09-03T12:00:45Z</time>
      </trkpt>
      <trkpt lat="43.99145" lon="2.62703">
        <ele>206</ele>
        <time>2021-09-03T12:00:47Z</time>
      </trkpt>
      <trkpt lat="43.99136" lon="2.62701">
        <ele>206</ele>
        <time>2021-09-03T12:00:49Z</time>
      </trkpt>
      <trkpt lat="43.9912" lon="2.62705">
        <ele>206</ele>
        <time>2021-09-03T12:00:53Z</time>
      </trkpt>
      <trkpt lat="43.99026" lon="2.62795">
        <ele>201</ele>
        <time>2021-09-03T12:01:15Z</time>
      </trkpt>
      <trkpt lat="43.99005" lon="2.62825">
        <ele>202</ele>
        <time>2021-09-03T12:01:21Z</time>
      </trkpt>
      <trkpt lat="43.98965" lon="2.62927">
        <ele>209</ele>
        <time>2021-09-03T12:01:35Z</time>
      </trkpt>
      <trkpt lat="43.9894" lon="2.6312">
        <ele>234</ele>
        <time>2021-09-03T12:01:58Z</time>
      </trkpt>
      <trkpt lat="43.98932" lon="2.63306">
        <ele>246</ele>
        <time>2021-09-03T12:02:30Z</time>
      </trkpt>
      <trkpt lat="43.9891" lon="2.63564">
        <ele>245</ele>
        <time>2021-09-03T12:03:00Z</time>
      </trkpt>
      <trkpt lat="43.9889" lon="2.63797">
        <ele>248</ele>
        <time>2021-09-03T12:03:31Z</time>
      </trkpt>
      <trkpt lat="43.98882" lon="2.63906">
        <ele>250</ele>
        <time>2021-09-03T12:03:48Z</time>
      </trkpt>
      <trkpt lat="43.98873" lon="2.64108">
        <ele>250</ele>
        <time>2021-09-03T12:04:18Z</time>
      </trkpt>
      <trkpt lat="43.98855" lon="2.64257">
        <ele>248</ele>
        <time>2021-09-03T12:04:38Z</time>
      </trkpt>
      <trkpt lat="43.98871" lon="2.64422">
        <ele>251</ele>
        <time>2021-09-03T12:05:00Z</time>
      </trkpt>
      <trkpt lat="43.98907" lon="2.64569">
        <ele>255</ele>
        <time>2021-09-03T12:05:22Z</time>
      </trkpt>
      <trkpt lat="43.98964" lon="2.64767">
        <ele>261</ele>
        <time>2021-09-03T12:05:53Z</time>
      </trkpt>
      <trkpt lat="43.98985" lon="2.64843">
        <ele>261</ele>
        <time>2021-09-03T12:06:03Z</time>
      </trkpt>
      <trkpt lat="43.98995" lon="2.64921">
        <ele>263</ele>
        <time>2021-09-03T12:06:13Z</time>
      </trkpt>
      <trkpt lat="43.98972" lon="2.65091">
        <ele>260</ele>
        <time>2021-09-03T12:06:39Z</time>
      </trkpt>
      <trkpt lat="43.98963" lon="2.65154">
        <ele>253</ele>
        <time>2021-09-03T12:06:49Z</time>
      </trkpt>
      <trkpt lat="43.98925" lon="2.65333">
        <ele>242</ele>
        <time>2021-09-03T12:07:19Z</time>
      </trkpt>
      <trkpt lat="43.98896" lon="2.65461">
        <ele>233</ele>
        <time>2021-09-03T12:07:40Z</time>
      </trkpt>
      <trkpt lat="43.98859" lon="2.65566">
        <ele>223</ele>
        <time>2021-09-03T12:08:00Z</time>
      </trkpt>
      <trkpt lat="43.98848" lon="2.65639">
        <ele>225</ele>
        <time>2021-09-03T12:08:08Z</time>
      </trkpt>
      <trkpt lat="43.98802" lon="2.65783">
        <ele>216</ele>
        <time>2021-09-03T12:08:33Z</time>
      </trkpt>
      <trkpt lat="43.98799" lon="2.65793">
        <ele>214</ele>
        <time>2021-09-03T12:08:36Z</time>
      </trkpt>
      <trkpt lat="43.98795" lon="2.65795">
        <ele>215</ele>
        <time>2021-09-03T12:09:05Z</time>
      </trkpt>
      <trkpt lat="43.98795" lon="2.65804">
        <ele>217</ele>
        <time>2021-09-03T12:09:11Z</time>
      </trkpt>
      <trkpt lat="43.98795" lon="2.6581">
        <ele>221</ele>
        <time>2021-09-03T12:09:18Z</time>
      </trkpt>
      <trkpt lat="43.9878" lon="2.65836">
        <ele>227</ele>
        <time>2021-09-03T12:09:31Z</time>
      </trkpt>
      <trkpt lat="43.98772" lon="2.65849">
        <ele>227</ele>
        <time>2021-09-03T12:09:35Z</time>
      </trkpt>
      <trkpt lat="43.98764" lon="2.65858">
        <ele>227</ele>
        <time>2021-09-03T12:09:39Z</time>
      </trkpt>
      <trkpt lat="43.98761" lon="2.65864">
        <ele>229</ele>
        <time>2021-09-03T12:09:41Z</time>
      </trkpt>
      <trkpt lat="43.98757" lon="2.65878">
        <ele>233</ele>
        <time>2021-09-03T12:09:45Z</time>
      </trkpt>
      <trkpt lat="43.98757" lon="2.65887">
        <ele>235</ele>
        <time>2021-09-03T12:09:47Z</time>
      </trkpt>
      <trkpt lat="43.98766" lon="2.65983">
        <ele>240</ele>
        <time>2021-09-03T12:10:07Z</time>
      </trkpt>
      <trkpt lat="43.98768" lon="2.65992">
        <ele>240</ele>
        <time>2021-09-03T12:10:09Z</time>
      </trkpt>
      <trkpt lat="43.98769" lon="2.66001">
        <ele>240</ele>
        <time>2021-09-03T12:10:11Z</time>
      </trkpt>
      <trkpt lat="43.988" lon="2.66159">
        <ele>240</ele>
        <time>2021-09-03T12:10:43Z</time>
      </trkpt>
      <trkpt lat="43.98801" lon="2.6618">
        <ele>240</ele>
        <time>2021-09-03T12:10:47Z</time>
      </trkpt>
      <trkpt lat="43.98802" lon="2.66188">
        <ele>241</ele>
        <time>2021-09-03T12:10:49Z</time>
      </trkpt>
      <trkpt lat="43.98806" lon="2.662">
        <ele>241</ele>
        <time>2021-09-03T12:12:59Z</time>
      </trkpt>
      <trkpt lat="43.98813" lon="2.66222">
        <ele>242</ele>
        <time>2021-09-03T12:13:05Z</time>
      </trkpt>
      <trkpt lat="43.99113" lon="2.66424">
        <ele>248</ele>
        <time>2021-09-03T12:15:02Z</time>
      </trkpt>
      <trkpt lat="43.99131" lon="2.66434">
        <ele>245</ele>
        <time>2021-09-03T12:15:03Z</time>
      </trkpt>
      <trkpt lat="43.99136" lon="2.66434">
        <ele>237</ele>
        <time>2021-09-03T12:15:37Z</time>
      </trkpt>
      <trkpt lat="43.99142" lon="2.66434">
        <ele>242</ele>
        <time>2021-09-03T12:15:42Z</time>
      </trkpt>
      <trkpt lat="43.99148" lon="2.66437">
        <ele>245</ele>
        <time>2021-09-03T12:15:59Z</time>
      </trkpt>
      <trkpt lat="43.99203" lon="2.66418">
        <ele>251</ele>
        <time>2021-09-03T12:16:26Z</time>
      </trkpt>
      <trkpt lat="43.99271" lon="2.6643">
        <ele>257</ele>
        <time>2021-09-03T12:16:39Z</time>
      </trkpt>
      <trkpt lat="43.99325" lon="2.66456">
        <ele>259</ele>
        <time>2021-09-03T12:16:50Z</time>
      </trkpt>
      <trkpt lat="43.99354" lon="2.66476">
        <ele>261</ele>
        <time>2021-09-03T12:16:56Z</time>
      </trkpt>
      <trkpt lat="43.99423" lon="2.66566">
        <ele>258</ele>
        <time>2021-09-03T12:17:13Z</time>
      </trkpt>
      <trkpt lat="43.99447" lon="2.66618">
        <ele>257</ele>
        <time>2021-09-03T12:17:21Z</time>
      </trkpt>
      <trkpt lat="43.99508" lon="2.66816">
        <ele>256</ele>
        <time>2021-09-03T12:17:52Z</time>
      </trkpt>
      <trkpt lat="43.99558" lon="2.6701">
        <ele>256</ele>
        <time>2021-09-03T12:18:24Z</time>
      </trkpt>
      <trkpt lat="43.99572" lon="2.67065">
        <ele>257</ele>
        <time>2021-09-03T12:18:37Z</time>
      </trkpt>
      <trkpt lat="43.99578" lon="2.67067">
        <ele>257</ele>
        <time>2021-09-03T12:19:51Z</time>
      </trkpt>
      <trkpt lat="43.99593" lon="2.67063">
        <ele>255</ele>
        <time>2021-09-03T12:20:00Z</time>
      </trkpt>
      <trkpt lat="43.99592" lon="2.67072">
        <ele>254</ele>
        <time>2021-09-03T12:20:39Z</time>
      </trkpt>
      <trkpt lat="43.99596" lon="2.67079">
        <ele>256</ele>
        <time>2021-09-03T12:20:42Z</time>
      </trkpt>
      <trkpt lat="43.9965" lon="2.67161">
        <ele>261</ele>
        <time>2021-09-03T12:21:13Z</time>
      </trkpt>
      <trkpt lat="43.99692" lon="2.67231">
        <ele>261</ele>
        <time>2021-09-03T12:21:42Z</time>
      </trkpt>
      <trkpt lat="43.99696" lon="2.67235">
        <ele>261</ele>
        <time>2021-09-03T12:21:44Z</time>
      </trkpt>
      <trkpt lat="43.99702" lon="2.67239">
        <ele>260</ele>
        <time>2021-09-03T12:21:47Z</time>
      </trkpt>
      <trkpt lat="43.99727" lon="2.6726">
        <ele>260</ele>
        <time>2021-09-03T12:22:00Z</time>
      </trkpt>
      <trkpt lat="43.99733" lon="2.6727">
        <ele>260</ele>
        <time>2021-09-03T12:22:04Z</time>
      </trkpt>
      <trkpt lat="43.99736" lon="2.67283">
        <ele>261</ele>
        <time>2021-09-03T12:22:08Z</time>
      </trkpt>
      <trkpt lat="43.99736" lon="2.67291">
        <ele>262</ele>
        <time>2021-09-03T12:22:11Z</time>
      </trkpt>
      <trkpt lat="43.9972" lon="2.67325">
        <ele>266</ele>
        <time>2021-09-03T12:22:25Z</time>
      </trkpt>
      <trkpt lat="43.99718" lon="2.67331">
        <ele>267</ele>
        <time>2021-09-03T12:22:27Z</time>
      </trkpt>
      <trkpt lat="43.99718" lon="2.67339">
        <ele>266</ele>
        <time>2021-09-03T12:22:29Z</time>
      </trkpt>
      <trkpt lat="43.99719" lon="2.67354">
        <ele>266</ele>
        <time>2021-09-03T12:22:33Z</time>
      </trkpt>
      <trkpt lat="43.99725" lon="2.67371">
        <ele>267</ele>
        <time>2021-09-03T12:22:37Z</time>
      </trkpt>
      <trkpt lat="43.9973" lon="2.67378">
        <ele>266</ele>
        <time>2021-09-03T12:22:39Z</time>
      </trkpt>
      <trkpt lat="43.99744" lon="2.67389">
        <ele>267</ele>
        <time>2021-09-03T12:22:43Z</time>
      </trkpt>
      <trkpt lat="43.99778" lon="2.67401">
        <ele>266</ele>
        <time>2021-09-03T12:22:53Z</time>
      </trkpt>
      <trkpt lat="43.99785" lon="2.67404">
        <ele>266</ele>
        <time>2021-09-03T12:22:55Z</time>
      </trkpt>
      <trkpt lat="43.99792" lon="2.6741">
        <ele>267</ele>
        <time>2021-09-03T12:22:57Z</time>
      </trkpt>
      <trkpt lat="43.99798" lon="2.67417">
        <ele>264</ele>
        <time>2021-09-03T12:22:59Z</time>
      </trkpt>
      <trkpt lat="43.9981" lon="2.67448">
        <ele>262</ele>
        <time>2021-09-03T12:23:05Z</time>
      </trkpt>
      <trkpt lat="43.99812" lon="2.67454">
        <ele>262</ele>
        <time>2021-09-03T12:23:06Z</time>
      </trkpt>
      <trkpt lat="43.99811" lon="2.67462">
        <ele>262</ele>
        <time>2021-09-03T12:23:07Z</time>
      </trkpt>
      <trkpt lat="43.99809" lon="2.67469">
        <ele>261</ele>
        <time>2021-09-03T12:23:08Z</time>
      </trkpt>
      <trkpt lat="43.99795" lon="2.67474">
        <ele>260</ele>
        <time>2021-09-03T12:23:12Z</time>
      </trkpt>
      <trkpt lat="43.99784" lon="2.6748">
        <ele>262</ele>
        <time>2021-09-03T12:23:16Z</time>
      </trkpt>
      <trkpt lat="43.99774" lon="2.6749">
        <ele>263</ele>
        <time>2021-09-03T12:23:20Z</time>
      </trkpt>
      <trkpt lat="43.99768" lon="2.67503">
        <ele>264</ele>
        <time>2021-09-03T12:23:24Z</time>
      </trkpt>
      <trkpt lat="43.99763" lon="2.67519">
        <ele>265</ele>
        <time>2021-09-03T12:23:28Z</time>
      </trkpt>
      <trkpt lat="43.99763" lon="2.67584">
        <ele>268</ele>
        <time>2021-09-03T12:23:44Z</time>
      </trkpt>
      <trkpt lat="43.99795" lon="2.67735">
        <ele>273</ele>
        <time>2021-09-03T12:24:16Z</time>
      </trkpt>
      <trkpt lat="43.99812" lon="2.6786">
        <ele>281</ele>
        <time>2021-09-03T12:24:46Z</time>
      </trkpt>
      <trkpt lat="43.99815" lon="2.67885">
        <ele>284</ele>
        <time>2021-09-03T12:24:54Z</time>
      </trkpt>
      <trkpt lat="43.99817" lon="2.67898">
        <ele>286</ele>
        <time>2021-09-03T12:24:58Z</time>
      </trkpt>
      <trkpt lat="43.99823" lon="2.6794">
        <ele>288</ele>
        <time>2021-09-03T12:25:10Z</time>
      </trkpt>
      <trkpt lat="43.99837" lon="2.68004">
        <ele>289</ele>
        <time>2021-09-03T12:25:29Z</time>
      </trkpt>
      <trkpt lat="43.9984" lon="2.6801">
        <ele>289</ele>
        <time>2021-09-03T12:25:31Z</time>
      </trkpt>
      <trkpt lat="43.99842" lon="2.68016">
        <ele>289</ele>
        <time>2021-09-03T12:25:33Z</time>
      </trkpt>
      <trkpt lat="43.9985" lon="2.68041">
        <ele>289</ele>
        <time>2021-09-03T12:25:41Z</time>
      </trkpt>
      <trkpt lat="43.99863" lon="2.68087">
        <ele>290</ele>
        <time>2021-09-03T12:25:55Z</time>
      </trkpt>
      <trkpt lat="43.99866" lon="2.6813">
        <ele>291</ele>
        <time>2021-09-03T12:26:07Z</time>
      </trkpt>
      <trkpt lat="43.99867" lon="2.68167">
        <ele>292</ele>
        <time>2021-09-03T12:26:17Z</time>
      </trkpt>
      <trkpt lat="43.99873" lon="2.6821">
        <ele>294</ele>
        <time>2021-09-03T12:26:29Z</time>
      </trkpt>
      <trkpt lat="43.99876" lon="2.68224">
        <ele>295</ele>
        <time>2021-09-03T12:26:33Z</time>
      </trkpt>
      <trkpt lat="43.99876" lon="2.68231">
        <ele>295</ele>
        <time>2021-09-03T12:26:35Z</time>
      </trkpt>
      <trkpt lat="43.99885" lon="2.68264">
        <ele>297</ele>
        <time>2021-09-03T12:26:45Z</time>
      </trkpt>
      <trkpt lat="43.99894" lon="2.68324">
        <ele>299</ele>
        <time>2021-09-03T12:27:01Z</time>
      </trkpt>
      <trkpt lat="43.999" lon="2.68396">
        <ele>300</ele>
        <time>2021-09-03T12:27:17Z</time>
      </trkpt>
      <trkpt lat="43.99906" lon="2.68443">
        <ele>303</ele>
        <time>2021-09-03T12:27:29Z</time>
      </trkpt>
      <trkpt lat="43.99909" lon="2.68565">
        <ele>307</ele>
        <time>2021-09-03T12:27:59Z</time>
      </trkpt>
      <trkpt lat="43.99911" lon="2.6859">
        <ele>309</ele>
        <time>2021-09-03T12:28:05Z</time>
      </trkpt>
      <trkpt lat="43.99925" lon="2.68657">
        <ele>311</ele>
        <time>2021-09-03T12:28:21Z</time>
      </trkpt>
      <trkpt lat="43.99927" lon="2.68664">
        <ele>311</ele>
        <time>2021-09-03T12:28:23Z</time>
      </trkpt>
      <trkpt lat="43.99936" lon="2.68686">
        <ele>311</ele>
        <time>2021-09-03T12:28:29Z</time>
      </trkpt>
      <trkpt lat="43.99943" lon="2.687">
        <ele>311</ele>
        <time>2021-09-03T12:28:33Z</time>
      </trkpt>
      <trkpt lat="43.99948" lon="2.68705">
        <ele>312</ele>
        <time>2021-09-03T12:28:35Z</time>
      </trkpt>
      <trkpt lat="44.00028" lon="2.6864">
        <ele>315</ele>
        <time>2021-09-03T12:29:05Z</time>
      </trkpt>
      <trkpt lat="44.0013" lon="2.6858">
        <ele>319</ele>
        <time>2021-09-03T12:29:37Z</time>
      </trkpt>
      <trkpt lat="44.00225" lon="2.68539">
        <ele>321</ele>
        <time>2021-09-03T12:30:07Z</time>
      </trkpt>
      <trkpt lat="44.00289" lon="2.68529">
        <ele>327</ele>
        <time>2021-09-03T12:30:25Z</time>
      </trkpt>
      <trkpt lat="44.00296" lon="2.68532">
        <ele>327</ele>
        <time>2021-09-03T12:30:27Z</time>
      </trkpt>
      <trkpt lat="44.00304" lon="2.68539">
        <ele>326</ele>
        <time>2021-09-03T12:30:29Z</time>
      </trkpt>
      <trkpt lat="44.00308" lon="2.68546">
        <ele>326</ele>
        <time>2021-09-03T12:30:31Z</time>
      </trkpt>
      <trkpt lat="44.0031" lon="2.68557">
        <ele>326</ele>
        <time>2021-09-03T12:30:33Z</time>
      </trkpt>
      <trkpt lat="44.0031" lon="2.68569">
        <ele>327</ele>
        <time>2021-09-03T12:30:35Z</time>
      </trkpt>
      <trkpt lat="44.00298" lon="2.68602">
        <ele>330</ele>
        <time>2021-09-03T12:30:43Z</time>
      </trkpt>
      <trkpt lat="44.00289" lon="2.68666">
        <ele>334</ele>
        <time>2021-09-03T12:30:57Z</time>
      </trkpt>
      <trkpt lat="44.00282" lon="2.68682">
        <ele>336</ele>
        <time>2021-09-03T12:31:01Z</time>
      </trkpt>
      <trkpt lat="44.00272" lon="2.68694">
        <ele>337</ele>
        <time>2021-09-03T12:31:05Z</time>
      </trkpt>
      <trkpt lat="44.00206" lon="2.68739">
        <ele>341</ele>
        <time>2021-09-03T12:31:29Z</time>
      </trkpt>
      <trkpt lat="44.00165" lon="2.68799">
        <ele>342</ele>
        <time>2021-09-03T12:31:51Z</time>
      </trkpt>
      <trkpt lat="44.00138" lon="2.68856">
        <ele>341</ele>
        <time>2021-09-03T12:32:12Z</time>
      </trkpt>
      <trkpt lat="44.00132" lon="2.68882">
        <ele>342</ele>
        <time>2021-09-03T12:32:20Z</time>
      </trkpt>
      <trkpt lat="44.00118" lon="2.68984">
        <ele>346</ele>
        <time>2021-09-03T12:32:50Z</time>
      </trkpt>
      <trkpt lat="44.00118" lon="2.68991">
        <ele>346</ele>
        <time>2021-09-03T12:32:52Z</time>
      </trkpt>
      <trkpt lat="44.00118" lon="2.68997">
        <ele>347</ele>
        <time>2021-09-03T12:32:54Z</time>
      </trkpt>
      <trkpt lat="44.00131" lon="2.69096">
        <ele>350</ele>
        <time>2021-09-03T12:33:25Z</time>
      </trkpt>
      <trkpt lat="44.00137" lon="2.69126">
        <ele>351</ele>
        <time>2021-09-03T12:33:35Z</time>
      </trkpt>
      <trkpt lat="44.00144" lon="2.69146">
        <ele>352</ele>
        <time>2021-09-03T12:33:42Z</time>
      </trkpt>
      <trkpt lat="44.00162" lon="2.69169">
        <ele>352</ele>
        <time>2021-09-03T12:33:53Z</time>
      </trkpt>
      <trkpt lat="44.00166" lon="2.69172">
        <ele>352</ele>
        <time>2021-09-03T12:33:55Z</time>
      </trkpt>
      <trkpt lat="44.00191" lon="2.69182">
        <ele>352</ele>
        <time>2021-09-03T12:34:06Z</time>
      </trkpt>
      <trkpt lat="44.00245" lon="2.69195">
        <ele>354</ele>
        <time>2021-09-03T12:34:26Z</time>
      </trkpt>
      <trkpt lat="44.0025" lon="2.69197">
        <ele>354</ele>
        <time>2021-09-03T12:34:28Z</time>
      </trkpt>
      <trkpt lat="44.00256" lon="2.69199">
        <ele>355</ele>
        <time>2021-09-03T12:34:30Z</time>
      </trkpt>
      <trkpt lat="44.0033" lon="2.69221">
        <ele>358</ele>
        <time>2021-09-03T12:34:59Z</time>
      </trkpt>
      <trkpt lat="44.0034" lon="2.69229">
        <ele>358</ele>
        <time>2021-09-03T12:35:04Z</time>
      </trkpt>
      <trkpt lat="44.00352" lon="2.69242">
        <ele>359</ele>
        <time>2021-09-03T12:35:10Z</time>
      </trkpt>
      <trkpt lat="44.00368" lon="2.69273">
        <ele>362</ele>
        <time>2021-09-03T12:35:22Z</time>
      </trkpt>
      <trkpt lat="44.00391" lon="2.69301">
        <ele>364</ele>
        <time>2021-09-03T12:35:34Z</time>
      </trkpt>
      <trkpt lat="44.00414" lon="2.69316">
        <ele>365</ele>
        <time>2021-09-03T12:35:45Z</time>
      </trkpt>
      <trkpt lat="44.0049" lon="2.69317">
        <ele>370</ele>
        <time>2021-09-03T12:36:15Z</time>
      </trkpt>
      <trkpt lat="44.00501" lon="2.69321">
        <ele>371</ele>
        <time>2021-09-03T12:36:19Z</time>
      </trkpt>
      <trkpt lat="44.0051" lon="2.69329">
        <ele>372</ele>
        <time>2021-09-03T12:36:23Z</time>
      </trkpt>
      <trkpt lat="44.00514" lon="2.69334">
        <ele>372</ele>
        <time>2021-09-03T12:36:25Z</time>
      </trkpt>
      <trkpt lat="44.00523" lon="2.69362">
        <ele>375</ele>
        <time>2021-09-03T12:36:35Z</time>
      </trkpt>
      <trkpt lat="44.00514" lon="2.6946">
        <ele>388</ele>
        <time>2021-09-03T12:37:07Z</time>
      </trkpt>
      <trkpt lat="44.00517" lon="2.69481">
        <ele>386</ele>
        <time>2021-09-03T12:37:13Z</time>
      </trkpt>
      <trkpt lat="44.00519" lon="2.69489">
        <ele>387</ele>
        <time>2021-09-03T12:37:16Z</time>
      </trkpt>
      <trkpt lat="44.00521" lon="2.69496">
        <ele>387</ele>
        <time>2021-09-03T12:37:19Z</time>
      </trkpt>
      <trkpt lat="44.0053" lon="2.69504">
        <ele>388</ele>
        <time>2021-09-03T12:37:25Z</time>
      </trkpt>
      <trkpt lat="44.00533" lon="2.69509">
        <ele>387</ele>
        <time>2021-09-03T12:37:28Z</time>
      </trkpt>
      <trkpt lat="44.0054" lon="2.69533">
        <ele>388</ele>
        <time>2021-09-03T12:37:37Z</time>
      </trkpt>
      <trkpt lat="44.00542" lon="2.6954">
        <ele>388</ele>
        <time>2021-09-03T12:37:39Z</time>
      </trkpt>
      <trkpt lat="44.00544" lon="2.69556">
        <ele>389</ele>
        <time>2021-09-03T12:37:44Z</time>
      </trkpt>
      <trkpt lat="44.00543" lon="2.69563">
        <ele>389</ele>
        <time>2021-09-03T12:37:47Z</time>
      </trkpt>
      <trkpt lat="44.00539" lon="2.69566">
        <ele>388</ele>
        <time>2021-09-03T12:37:57Z</time>
      </trkpt>
      <trkpt lat="44.00536" lon="2.69571">
        <ele>389</ele>
        <time>2021-09-03T12:38:53Z</time>
      </trkpt>
      <trkpt lat="44.0052" lon="2.69578">
        <ele>390</ele>
        <time>2021-09-03T12:39:00Z</time>
      </trkpt>
      <trkpt lat="44.00511" lon="2.69582">
        <ele>389</ele>
        <time>2021-09-03T12:39:04Z</time>
      </trkpt>
      <trkpt lat="44.00502" lon="2.69588">
        <ele>387</ele>
        <time>2021-09-03T12:39:08Z</time>
      </trkpt>
      <trkpt lat="44.00499" lon="2.69604">
        <ele>385</ele>
        <time>2021-09-03T12:39:18Z</time>
      </trkpt>
      <trkpt lat="44.00496" lon="2.69609">
        <ele>385</ele>
        <time>2021-09-03T12:39:21Z</time>
      </trkpt>
      <trkpt lat="44.00491" lon="2.69616">
        <ele>385</ele>
        <time>2021-09-03T12:39:24Z</time>
      </trkpt>
      <trkpt lat="44.00487" lon="2.6962">
        <ele>385</ele>
        <time>2021-09-03T12:39:26Z</time>
      </trkpt>
      <trkpt lat="44.00483" lon="2.69625">
        <ele>384</ele>
        <time>2021-09-03T12:39:28Z</time>
      </trkpt>
      <trkpt lat="44.00476" lon="2.69639">
        <ele>381</ele>
        <time>2021-09-03T12:39:36Z</time>
      </trkpt>
      <trkpt lat="44.00471" lon="2.69641">
        <ele>378</ele>
        <time>2021-09-03T12:39:38Z</time>
      </trkpt>
      <trkpt lat="44.00466" lon="2.69643">
        <ele>377</ele>
        <time>2021-09-03T12:39:41Z</time>
      </trkpt>
      <trkpt lat="44.00466" lon="2.69636">
        <ele>376</ele>
        <time>2021-09-03T12:39:48Z</time>
      </trkpt>
      <trkpt lat="44.00475" lon="2.69627">
        <ele>374</ele>
        <time>2021-09-03T12:39:53Z</time>
      </trkpt>
      <trkpt lat="44.00478" lon="2.69622">
        <ele>373</ele>
        <time>2021-09-03T12:39:55Z</time>
      </trkpt>
      <trkpt lat="44.0048" lon="2.69616">
        <ele>372</ele>
        <time>2021-09-03T12:39:57Z</time>
      </trkpt>
      <trkpt lat="44.00487" lon="2.69613">
        <ele>372</ele>
        <time>2021-09-03T12:40:00Z</time>
      </trkpt>
      <trkpt lat="44.00491" lon="2.69607">
        <ele>373</ele>
        <time>2021-09-03T12:40:03Z</time>
      </trkpt>
      <trkpt lat="44.00503" lon="2.69627">
        <ele>373</ele>
        <time>2021-09-03T12:40:13Z</time>
      </trkpt>
      <trkpt lat="44.00519" lon="2.69659">
        <ele>369</ele>
        <time>2021-09-03T12:40:21Z</time>
      </trkpt>
      <trkpt lat="44.00525" lon="2.69666">
        <ele>368</ele>
        <time>2021-09-03T12:40:23Z</time>
      </trkpt>
      <trkpt lat="44.0053" lon="2.69675">
        <ele>367</ele>
        <time>2021-09-03T12:40:25Z</time>
      </trkpt>
      <trkpt lat="44.00539" lon="2.69698">
        <ele>360</ele>
        <time>2021-09-03T12:40:29Z</time>
      </trkpt>
      <trkpt lat="44.00556" lon="2.69753">
        <ele>360</ele>
        <time>2021-09-03T12:40:38Z</time>
      </trkpt>
      <trkpt lat="44.00565" lon="2.69787">
        <ele>360</ele>
        <time>2021-09-03T12:40:43Z</time>
      </trkpt>
      <trkpt lat="44.00577" lon="2.69902">
        <ele>358</ele>
        <time>2021-09-03T12:40:57Z</time>
      </trkpt>
      <trkpt lat="44.00579" lon="2.69911">
        <ele>358</ele>
        <time>2021-09-03T12:40:58Z</time>
      </trkpt>
      <trkpt lat="44.00583" lon="2.69919">
        <ele>357</ele>
        <time>2021-09-03T12:40:59Z</time>
      </trkpt>
      <trkpt lat="44.00592" lon="2.69933">
        <ele>357</ele>
        <time>2021-09-03T12:41:01Z</time>
      </trkpt>
      <trkpt lat="44.00663" lon="2.69987">
        <ele>353</ele>
        <time>2021-09-03T12:41:11Z</time>
      </trkpt>
      <trkpt lat="44.00683" lon="2.70013">
        <ele>352</ele>
        <time>2021-09-03T12:41:14Z</time>
      </trkpt>
      <trkpt lat="44.00697" lon="2.70025">
        <ele>351</ele>
        <time>2021-09-03T12:41:16Z</time>
      </trkpt>
      <trkpt lat="44.00777" lon="2.70034">
        <ele>346</ele>
        <time>2021-09-03T12:41:24Z</time>
      </trkpt>
      <trkpt lat="44.00798" lon="2.70031">
        <ele>345</ele>
        <time>2021-09-03T12:41:26Z</time>
      </trkpt>
      <trkpt lat="44.00816" lon="2.70021">
        <ele>344</ele>
        <time>2021-09-03T12:41:28Z</time>
      </trkpt>
      <trkpt lat="44.00851" lon="2.69987">
        <ele>341</ele>
        <time>2021-09-03T12:41:33Z</time>
      </trkpt>
      <trkpt lat="44.00857" lon="2.69983">
        <ele>340</ele>
        <time>2021-09-03T12:41:34Z</time>
      </trkpt>
      <trkpt lat="44.00864" lon="2.69983">
        <ele>340</ele>
        <time>2021-09-03T12:41:35Z</time>
      </trkpt>
      <trkpt lat="44.00872" lon="2.69988">
        <ele>341</ele>
        <time>2021-09-03T12:41:36Z</time>
      </trkpt>
      <trkpt lat="44.00877" lon="2.69995">
        <ele>341</ele>
        <time>2021-09-03T12:41:37Z</time>
      </trkpt>
      <trkpt lat="44.00876" lon="2.70016">
        <ele>341</ele>
        <time>2021-09-03T12:41:39Z</time>
      </trkpt>
      <trkpt lat="44.00849" lon="2.70073">
        <ele>341</ele>
        <time>2021-09-03T12:41:45Z</time>
      </trkpt>
      <trkpt lat="44.00818" lon="2.70105">
        <ele>339</ele>
        <time>2021-09-03T12:41:49Z</time>
      </trkpt>
      <trkpt lat="44.00752" lon="2.70131">
        <ele>335</ele>
        <time>2021-09-03T12:41:56Z</time>
      </trkpt>
      <trkpt lat="44.00688" lon="2.7014">
        <ele>334</ele>
        <time>2021-09-03T12:42:02Z</time>
      </trkpt>
      <trkpt lat="44.00651" lon="2.70166">
        <ele>336</ele>
        <time>2021-09-03T12:42:06Z</time>
      </trkpt>
      <trkpt lat="44.00548" lon="2.70306">
        <ele>331</ele>
        <time>2021-09-03T12:42:21Z</time>
      </trkpt>
      <trkpt lat="44.00481" lon="2.70429">
        <ele>323</ele>
        <time>2021-09-03T12:42:35Z</time>
      </trkpt>
      <trkpt lat="44.00475" lon="2.70453">
        <ele>322</ele>
        <time>2021-09-03T12:42:37Z</time>
      </trkpt>
      <trkpt lat="44.00475" lon="2.70492">
        <ele>319</ele>
        <time>2021-09-03T12:42:40Z</time>
      </trkpt>
      <trkpt lat="44.00488" lon="2.7055">
        <ele>315</ele>
        <time>2021-09-03T12:42:48Z</time>
      </trkpt>
      <trkpt lat="44.00495" lon="2.70577">
        <ele>313</ele>
        <time>2021-09-03T12:42:53Z</time>
      </trkpt>
      <trkpt lat="44.00505" lon="2.70599">
        <ele>309</ele>
        <time>2021-09-03T12:43:00Z</time>
      </trkpt>
      <trkpt lat="44.0051" lon="2.70605">
        <ele>309</ele>
        <time>2021-09-03T12:43:03Z</time>
      </trkpt>
      <trkpt lat="44.00532" lon="2.70646">
        <ele>305</ele>
        <time>2021-09-03T12:43:13Z</time>
      </trkpt>
      <trkpt lat="44.00538" lon="2.70654">
        <ele>304</ele>
        <time>2021-09-03T12:43:15Z</time>
      </trkpt>
      <trkpt lat="44.00544" lon="2.70656">
        <ele>303</ele>
        <time>2021-09-03T12:43:17Z</time>
      </trkpt>
      <trkpt lat="44.00568" lon="2.70661">
        <ele>302</ele>
        <time>2021-09-03T12:43:23Z</time>
      </trkpt>
      <trkpt lat="44.00578" lon="2.70666">
        <ele>301</ele>
        <time>2021-09-03T12:43:25Z</time>
      </trkpt>
      <trkpt lat="44.00583" lon="2.7067">
        <ele>300</ele>
        <time>2021-09-03T12:43:26Z</time>
      </trkpt>
      <trkpt lat="44.00593" lon="2.70683">
        <ele>298</ele>
        <time>2021-09-03T12:43:28Z</time>
      </trkpt>
      <trkpt lat="44.00642" lon="2.7078">
        <ele>295</ele>
        <time>2021-09-03T12:43:40Z</time>
      </trkpt>
      <trkpt lat="44.00671" lon="2.70814">
        <ele>291</ele>
        <time>2021-09-03T12:43:45Z</time>
      </trkpt>
      <trkpt lat="44.007" lon="2.70869">
        <ele>287</ele>
        <time>2021-09-03T12:43:51Z</time>
      </trkpt>
      <trkpt lat="44.00714" lon="2.70884">
        <ele>286</ele>
        <time>2021-09-03T12:43:53Z</time>
      </trkpt>
      <trkpt lat="44.00865" lon="2.70997">
        <ele>272</ele>
        <time>2021-09-03T12:44:12Z</time>
      </trkpt>
      <trkpt lat="44.00885" lon="2.71018">
        <ele>271</ele>
        <time>2021-09-03T12:44:15Z</time>
      </trkpt>
      <trkpt lat="44.00981" lon="2.71063">
        <ele>262</ele>
        <time>2021-09-03T12:44:27Z</time>
      </trkpt>
      <trkpt lat="44.00987" lon="2.7107">
        <ele>261</ele>
        <time>2021-09-03T12:44:28Z</time>
      </trkpt>
      <trkpt lat="44.00992" lon="2.71078">
        <ele>260</ele>
        <time>2021-09-03T12:44:29Z</time>
      </trkpt>
      <trkpt lat="44.01001" lon="2.71124">
        <ele>258</ele>
        <time>2021-09-03T12:44:33Z</time>
      </trkpt>
      <trkpt lat="44.01006" lon="2.71133">
        <ele>258</ele>
        <time>2021-09-03T12:44:34Z</time>
      </trkpt>
      <trkpt lat="44.01012" lon="2.71141">
        <ele>258</ele>
        <time>2021-09-03T12:44:35Z</time>
      </trkpt>
      <trkpt lat="44.01019" lon="2.71147">
        <ele>257</ele>
        <time>2021-09-03T12:44:36Z</time>
      </trkpt>
      <trkpt lat="44.01027" lon="2.7115">
        <ele>257</ele>
        <time>2021-09-03T12:44:37Z</time>
      </trkpt>
      <trkpt lat="44.01043" lon="2.71149">
        <ele>256</ele>
        <time>2021-09-03T12:44:39Z</time>
      </trkpt>
      <trkpt lat="44.01083" lon="2.71124">
        <ele>257</ele>
        <time>2021-09-03T12:44:45Z</time>
      </trkpt>
      <trkpt lat="44.01097" lon="2.71123">
        <ele>256</ele>
        <time>2021-09-03T12:44:47Z</time>
      </trkpt>
      <trkpt lat="44.01134" lon="2.71136">
        <ele>257</ele>
        <time>2021-09-03T12:44:52Z</time>
      </trkpt>
      <trkpt lat="44.01294" lon="2.71227">
        <ele>250</ele>
        <time>2021-09-03T12:45:18Z</time>
      </trkpt>
      <trkpt lat="44.01325" lon="2.71235">
        <ele>250</ele>
        <time>2021-09-03T12:45:25Z</time>
      </trkpt>
      <trkpt lat="44.01416" lon="2.71223">
        <ele>248</ele>
        <time>2021-09-03T12:45:55Z</time>
      </trkpt>
      <trkpt lat="44.01524" lon="2.71216">
        <ele>252</ele>
        <time>2021-09-03T12:46:26Z</time>
      </trkpt>
      <trkpt lat="44.01579" lon="2.71216">
        <ele>252</ele>
        <time>2021-09-03T12:46:39Z</time>
      </trkpt>
      <trkpt lat="44.01593" lon="2.71215">
        <ele>255</ele>
        <time>2021-09-03T12:46:42Z</time>
      </trkpt>
      <trkpt lat="44.01609" lon="2.7121">
        <ele>258</ele>
        <time>2021-09-03T12:46:46Z</time>
      </trkpt>
      <trkpt lat="44.01628" lon="2.71198">
        <ele>260</ele>
        <time>2021-09-03T12:46:52Z</time>
      </trkpt>
      <trkpt lat="44.01636" lon="2.71185">
        <ele>260</ele>
        <time>2021-09-03T12:46:56Z</time>
      </trkpt>
      <trkpt lat="44.01641" lon="2.71171">
        <ele>262</ele>
        <time>2021-09-03T12:47:01Z</time>
      </trkpt>
      <trkpt lat="44.01642" lon="2.71152">
        <ele>264</ele>
        <time>2021-09-03T12:47:07Z</time>
      </trkpt>
      <trkpt lat="44.01649" lon="2.71129">
        <ele>264</ele>
        <time>2021-09-03T12:47:16Z</time>
      </trkpt>
      <trkpt lat="44.01656" lon="2.71116">
        <ele>265</ele>
        <time>2021-09-03T12:47:22Z</time>
      </trkpt>
      <trkpt lat="44.01667" lon="2.71105">
        <ele>264</ele>
        <time>2021-09-03T12:47:28Z</time>
      </trkpt>
      <trkpt lat="44.01673" lon="2.71104">
        <ele>266</ele>
        <time>2021-09-03T12:47:31Z</time>
      </trkpt>
      <trkpt lat="44.01685" lon="2.71117">
        <ele>269</ele>
        <time>2021-09-03T12:47:39Z</time>
      </trkpt>
      <trkpt lat="44.01687" lon="2.71132">
        <ele>271</ele>
        <time>2021-09-03T12:47:45Z</time>
      </trkpt>
      <trkpt lat="44.01691" lon="2.71188">
        <ele>275</ele>
        <time>2021-09-03T12:48:05Z</time>
      </trkpt>
      <trkpt lat="44.01746" lon="2.7121">
        <ele>279</ele>
        <time>2021-09-03T12:48:35Z</time>
      </trkpt>
      <trkpt lat="44.018" lon="2.71214">
        <ele>288</ele>
        <time>2021-09-03T12:49:05Z</time>
      </trkpt>
      <trkpt lat="44.01857" lon="2.71234">
        <ele>293</ele>
        <time>2021-09-03T12:49:36Z</time>
      </trkpt>
      <trkpt lat="44.01891" lon="2.71268">
        <ele>294</ele>
        <time>2021-09-03T12:49:54Z</time>
      </trkpt>
      <trkpt lat="44.01928" lon="2.71307">
        <ele>290</ele>
        <time>2021-09-03T12:50:05Z</time>
      </trkpt>
      <trkpt lat="44.01933" lon="2.7131">
        <ele>290</ele>
        <time>2021-09-03T12:50:06Z</time>
      </trkpt>
      <trkpt lat="44.01938" lon="2.71311">
        <ele>290</ele>
        <time>2021-09-03T12:50:07Z</time>
      </trkpt>
      <trkpt lat="44.01943" lon="2.71311">
        <ele>289</ele>
        <time>2021-09-03T12:50:08Z</time>
      </trkpt>
      <trkpt lat="44.0197" lon="2.71293">
        <ele>286</ele>
        <time>2021-09-03T12:50:13Z</time>
      </trkpt>
      <trkpt lat="44.01983" lon="2.71289">
        <ele>284</ele>
        <time>2021-09-03T12:50:15Z</time>
      </trkpt>
      <trkpt lat="44.0199" lon="2.7129">
        <ele>283</ele>
        <time>2021-09-03T12:50:16Z</time>
      </trkpt>
      <trkpt lat="44.01996" lon="2.71294">
        <ele>283</ele>
        <time>2021-09-03T12:50:17Z</time>
      </trkpt>
      <trkpt lat="44.02002" lon="2.71302">
        <ele>282</ele>
        <time>2021-09-03T12:50:18Z</time>
      </trkpt>
      <trkpt lat="44.02013" lon="2.71342">
        <ele>280</ele>
        <time>2021-09-03T12:50:22Z</time>
      </trkpt>
      <trkpt lat="44.02024" lon="2.7136">
        <ele>279</ele>
        <time>2021-09-03T12:50:24Z</time>
      </trkpt>
      <trkpt lat="44.02037" lon="2.71372">
        <ele>279</ele>
        <time>2021-09-03T12:50:26Z</time>
      </trkpt>
      <trkpt lat="44.02071" lon="2.71391">
        <ele>277</ele>
        <time>2021-09-03T12:50:30Z</time>
      </trkpt>
      <trkpt lat="44.0211" lon="2.71415">
        <ele>276</ele>
        <time>2021-09-03T12:50:34Z</time>
      </trkpt>
      <trkpt lat="44.0226" lon="2.71457">
        <ele>267</ele>
        <time>2021-09-03T12:50:50Z</time>
      </trkpt>
      <trkpt lat="44.02343" lon="2.71464">
        <ele>265</ele>
        <time>2021-09-03T12:51:04Z</time>
      </trkpt>
      <trkpt lat="44.02406" lon="2.71493">
        <ele>265</ele>
        <time>2021-09-03T12:51:19Z</time>
      </trkpt>
      <trkpt lat="44.02468" lon="2.71494">
        <ele>264</ele>
        <time>2021-09-03T12:51:34Z</time>
      </trkpt>
      <trkpt lat="44.02484" lon="2.71499">
        <ele>264</ele>
        <time>2021-09-03T12:51:38Z</time>
      </trkpt>
      <trkpt lat="44.02507" lon="2.71518">
        <ele>264</ele>
        <time>2021-09-03T12:51:44Z</time>
      </trkpt>
      <trkpt lat="44.02544" lon="2.71564">
        <ele>264</ele>
        <time>2021-09-03T12:51:55Z</time>
      </trkpt>
      <trkpt lat="44.02602" lon="2.71684">
        <ele>263</ele>
        <time>2021-09-03T12:52:16Z</time>
      </trkpt>
      <trkpt lat="44.02626" lon="2.71714">
        <ele>262</ele>
        <time>2021-09-03T12:52:22Z</time>
      </trkpt>
      <trkpt lat="44.02636" lon="2.71732">
        <ele>262</ele>
        <time>2021-09-03T12:52:25Z</time>
      </trkpt>
      <trkpt lat="44.02637" lon="2.71789">
        <ele>265</ele>
        <time>2021-09-03T12:52:33Z</time>
      </trkpt>
      <trkpt lat="44.02648" lon="2.71822">
        <ele>264</ele>
        <time>2021-09-03T12:52:39Z</time>
      </trkpt>
      <trkpt lat="44.02673" lon="2.71861">
        <ele>270</ele>
        <time>2021-09-03T12:52:49Z</time>
      </trkpt>
      <trkpt lat="44.0272" lon="2.71907">
        <ele>271</ele>
        <time>2021-09-03T12:53:03Z</time>
      </trkpt>
      <trkpt lat="44.02781" lon="2.71936">
        <ele>271</ele>
        <time>2021-09-03T12:53:19Z</time>
      </trkpt>
      <trkpt lat="44.02801" lon="2.71939">
        <ele>274</ele>
        <time>2021-09-03T12:53:26Z</time>
      </trkpt>
      <trkpt lat="44.02921" lon="2.71981">
        <ele>267</ele>
        <time>2021-09-03T12:54:38Z</time>
      </trkpt>
      <trkpt lat="44.02928" lon="2.7198">
        <ele>268</ele>
        <time>2021-09-03T12:54:41Z</time>
      </trkpt>
      <trkpt lat="44.02963" lon="2.71988">
        <ele>268</ele>
        <time>2021-09-03T12:54:51Z</time>
      </trkpt>
      <trkpt lat="44.0304" lon="2.7204">
        <ele>266</ele>
        <time>2021-09-03T12:55:10Z</time>
      </trkpt>
      <trkpt lat="44.03097" lon="2.72094">
        <ele>261</ele>
        <time>2021-09-03T12:55:23Z</time>
      </trkpt>
      <trkpt lat="44.03113" lon="2.72115">
        <ele>260</ele>
        <time>2021-09-03T12:55:27Z</time>
      </trkpt>
      <trkpt lat="44.03165" lon="2.72179">
        <ele>259</ele>
        <time>2021-09-03T12:55:40Z</time>
      </trkpt>
      <trkpt lat="44.03199" lon="2.72232">
        <ele>260</ele>
        <time>2021-09-03T12:55:49Z</time>
      </trkpt>
      <trkpt lat="44.03228" lon="2.72274">
        <ele>262</ele>
        <time>2021-09-03T12:55:57Z</time>
      </trkpt>
      <trkpt lat="44.03278" lon="2.72379">
        <ele>269</ele>
        <time>2021-09-03T12:56:16Z</time>
      </trkpt>
      <trkpt lat="44.03294" lon="2.72434">
        <ele>274</ele>
        <time>2021-09-03T12:56:25Z</time>
      </trkpt>
      <trkpt lat="44.033" lon="2.72469">
        <ele>276</ele>
        <time>2021-09-03T12:56:30Z</time>
      </trkpt>
      <trkpt lat="44.03301" lon="2.72483">
        <ele>276</ele>
        <time>2021-09-03T12:56:32Z</time>
      </trkpt>
      <trkpt lat="44.03318" lon="2.72617">
        <ele>278</ele>
        <time>2021-09-03T12:56:51Z</time>
      </trkpt>
      <trkpt lat="44.03334" lon="2.72862">
        <ele>276</ele>
        <time>2021-09-03T12:57:21Z</time>
      </trkpt>
      <trkpt lat="44.03344" lon="2.72928">
        <ele>276</ele>
        <time>2021-09-03T12:57:29Z</time>
      </trkpt>
      <trkpt lat="44.03391" lon="2.73045">
        <ele>274</ele>
        <time>2021-09-03T12:57:45Z</time>
      </trkpt>
      <trkpt lat="44.0341" lon="2.73072">
        <ele>271</ele>
        <time>2021-09-03T12:57:50Z</time>
      </trkpt>
      <trkpt lat="44.03461" lon="2.73107">
        <ele>269</ele>
        <time>2021-09-03T12:58:00Z</time>
      </trkpt>
      <trkpt lat="44.03498" lon="2.73119">
        <ele>270</ele>
        <time>2021-09-03T12:58:06Z</time>
      </trkpt>
      <trkpt lat="44.03608" lon="2.73139">
        <ele>270</ele>
        <time>2021-09-03T12:58:29Z</time>
      </trkpt>
      <trkpt lat="44.03634" lon="2.73156">
        <ele>269</ele>
        <time>2021-09-03T12:58:35Z</time>
      </trkpt>
      <trkpt lat="44.03773" lon="2.73314">
        <ele>264</ele>
        <time>2021-09-03T12:59:06Z</time>
      </trkpt>
      <trkpt lat="44.03893" lon="2.7347">
        <ele>263</ele>
        <time>2021-09-03T12:59:36Z</time>
      </trkpt>
      <trkpt lat="44.04013" lon="2.73629">
        <ele>265</ele>
        <time>2021-09-03T13:00:06Z</time>
      </trkpt>
      <trkpt lat="44.04125" lon="2.73805">
        <ele>268</ele>
        <time>2021-09-03T13:00:37Z</time>
      </trkpt>
      <trkpt lat="44.0422" lon="2.73977">
        <ele>270</ele>
        <time>2021-09-03T13:01:07Z</time>
      </trkpt>
      <trkpt lat="44.04307" lon="2.74136">
        <ele>274</ele>
        <time>2021-09-03T13:01:36Z</time>
      </trkpt>
      <trkpt lat="44.04442" lon="2.74303">
        <ele>266</ele>
        <time>2021-09-03T13:02:06Z</time>
      </trkpt>
      <trkpt lat="44.04522" lon="2.74434">
        <ele>265</ele>
        <time>2021-09-03T13:02:27Z</time>
      </trkpt>
      <trkpt lat="44.04567" lon="2.74552">
        <ele>267</ele>
        <time>2021-09-03T13:02:45Z</time>
      </trkpt>
      <trkpt lat="44.04604" lon="2.74626">
        <ele>268</ele>
        <time>2021-09-03T13:02:56Z</time>
      </trkpt>
      <trkpt lat="44.04617" lon="2.74662">
        <ele>268</ele>
        <time>2021-09-03T13:03:01Z</time>
      </trkpt>
      <trkpt lat="44.04659" lon="2.74746">
        <ele>269</ele>
        <time>2021-09-03T13:03:15Z</time>
      </trkpt>
      <trkpt lat="44.04724" lon="2.74942">
        <ele>271</ele>
        <time>2021-09-03T13:03:45Z</time>
      </trkpt>
      <trkpt lat="44.04748" lon="2.75051">
        <ele>268</ele>
        <time>2021-09-03T13:04:01Z</time>
      </trkpt>
      <trkpt lat="44.04751" lon="2.75072">
        <ele>267</ele>
        <time>2021-09-03T13:04:04Z</time>
      </trkpt>
      <trkpt lat="44.04782" lon="2.75257">
        <ele>260</ele>
        <time>2021-09-03T13:04:34Z</time>
      </trkpt>
      <trkpt lat="44.04811" lon="2.7538">
        <ele>258</ele>
        <time>2021-09-03T13:04:54Z</time>
      </trkpt>
      <trkpt lat="44.04819" lon="2.75402">
        <ele>258</ele>
        <time>2021-09-03T13:04:58Z</time>
      </trkpt>
      <trkpt lat="44.04828" lon="2.75417">
        <ele>258</ele>
        <time>2021-09-03T13:05:01Z</time>
      </trkpt>
      <trkpt lat="44.0484" lon="2.75427">
        <ele>258</ele>
        <time>2021-09-03T13:05:04Z</time>
      </trkpt>
      <trkpt lat="44.04847" lon="2.75431">
        <ele>259</ele>
        <time>2021-09-03T13:05:06Z</time>
      </trkpt>
      <trkpt lat="44.04855" lon="2.75436">
        <ele>259</ele>
        <time>2021-09-03T13:05:08Z</time>
      </trkpt>
      <trkpt lat="44.04863" lon="2.75452">
        <ele>260</ele>
        <time>2021-09-03T13:05:12Z</time>
      </trkpt>
      <trkpt lat="44.04867" lon="2.75467">
        <ele>260</ele>
        <time>2021-09-03T13:05:16Z</time>
      </trkpt>
      <trkpt lat="44.04872" lon="2.75496">
        <ele>259</ele>
        <time>2021-09-03T13:05:29Z</time>
      </trkpt>
      <trkpt lat="44.04874" lon="2.75503">
        <ele>259</ele>
        <time>2021-09-03T13:05:34Z</time>
      </trkpt>
      <trkpt lat="44.04874" lon="2.75519">
        <ele>261</ele>
        <time>2021-09-03T13:05:40Z</time>
      </trkpt>
      <trkpt lat="44.04885" lon="2.75557">
        <ele>262</ele>
        <time>2021-09-03T13:05:50Z</time>
      </trkpt>
      <trkpt lat="44.04894" lon="2.75575">
        <ele>263</ele>
        <time>2021-09-03T13:05:54Z</time>
      </trkpt>
      <trkpt lat="44.04905" lon="2.75603">
        <ele>264</ele>
        <time>2021-09-03T13:06:00Z</time>
      </trkpt>
      <trkpt lat="44.04912" lon="2.75669">
        <ele>269</ele>
        <time>2021-09-03T13:06:12Z</time>
      </trkpt>
      <trkpt lat="44.0492" lon="2.75726">
        <ele>269</ele>
        <time>2021-09-03T13:06:24Z</time>
      </trkpt>
      <trkpt lat="44.04907" lon="2.75878">
        <ele>273</ele>
        <time>2021-09-03T13:06:56Z</time>
      </trkpt>
      <trkpt lat="44.04907" lon="2.75897">
        <ele>272</ele>
        <time>2021-09-03T13:07:00Z</time>
      </trkpt>
      <trkpt lat="44.04913" lon="2.75954">
        <ele>271</ele>
        <time>2021-09-03T13:07:12Z</time>
      </trkpt>
      <trkpt lat="44.04921" lon="2.75995">
        <ele>271</ele>
        <time>2021-09-03T13:07:22Z</time>
      </trkpt>
      <trkpt lat="44.04957" lon="2.76073">
        <ele>270</ele>
        <time>2021-09-03T13:07:44Z</time>
      </trkpt>
      <trkpt lat="44.04959" lon="2.76081">
        <ele>270</ele>
        <time>2021-09-03T13:07:46Z</time>
      </trkpt>
      <trkpt lat="44.04985" lon="2.7614">
        <ele>269</ele>
        <time>2021-09-03T13:08:04Z</time>
      </trkpt>
      <trkpt lat="44.04987" lon="2.76147">
        <ele>269</ele>
        <time>2021-09-03T13:08:06Z</time>
      </trkpt>
      <trkpt lat="44.04989" lon="2.76155">
        <ele>270</ele>
        <time>2021-09-03T13:08:08Z</time>
      </trkpt>
      <trkpt lat="44.04988" lon="2.7617">
        <ele>271</ele>
        <time>2021-09-03T13:08:12Z</time>
      </trkpt>
      <trkpt lat="44.04918" lon="2.76288">
        <ele>270</ele>
        <time>2021-09-03T13:08:42Z</time>
      </trkpt>
      <trkpt lat="44.04916" lon="2.76296">
        <ele>270</ele>
        <time>2021-09-03T13:08:44Z</time>
      </trkpt>
      <trkpt lat="44.04915" lon="2.76304">
        <ele>270</ele>
        <time>2021-09-03T13:08:46Z</time>
      </trkpt>
      <trkpt lat="44.04917" lon="2.76311">
        <ele>270</ele>
        <time>2021-09-03T13:08:48Z</time>
      </trkpt>
      <trkpt lat="44.04921" lon="2.76314">
        <ele>270</ele>
        <time>2021-09-03T13:08:50Z</time>
      </trkpt>
      <trkpt lat="44.04939" lon="2.76315">
        <ele>268</ele>
        <time>2021-09-03T13:09:05Z</time>
      </trkpt>
      <trkpt lat="44.04948" lon="2.76331">
        <ele>267</ele>
        <time>2021-09-03T13:09:09Z</time>
      </trkpt>
      <trkpt lat="44.04952" lon="2.7634">
        <ele>267</ele>
        <time>2021-09-03T13:09:11Z</time>
      </trkpt>
      <trkpt lat="44.04957" lon="2.76345">
        <ele>266</ele>
        <time>2021-09-03T13:09:13Z</time>
      </trkpt>
      <trkpt lat="44.04961" lon="2.76348">
        <ele>267</ele>
        <time>2021-09-03T13:09:16Z</time>
      </trkpt>
      <trkpt lat="44.04959" lon="2.76347">
        <ele>275</ele>
        <time>2021-09-03T13:17:10Z</time>
      </trkpt>
      <trkpt lat="44.04953" lon="2.76343">
        <ele>275</ele>
        <time>2021-09-03T13:17:12Z</time>
      </trkpt>
      <trkpt lat="44.04942" lon="2.76318">
        <ele>278</ele>
        <time>2021-09-03T13:17:18Z</time>
      </trkpt>
      <trkpt lat="44.04937" lon="2.76315">
        <ele>278</ele>
        <time>2021-09-03T13:17:21Z</time>
      </trkpt>
      <trkpt lat="44.04933" lon="2.76314">
        <ele>279</ele>
        <time>2021-09-03T13:17:23Z</time>
      </trkpt>
      <trkpt lat="44.04928" lon="2.7632">
        <ele>279</ele>
        <time>2021-09-03T13:17:26Z</time>
      </trkpt>
      <trkpt lat="44.04927" lon="2.76327">
        <ele>280</ele>
        <time>2021-09-03T13:17:28Z</time>
      </trkpt>
      <trkpt lat="44.0493" lon="2.76334">
        <ele>280</ele>
        <time>2021-09-03T13:17:31Z</time>
      </trkpt>
      <trkpt lat="44.04957" lon="2.7636">
        <ele>282</ele>
        <time>2021-09-03T13:17:45Z</time>
      </trkpt>
    </trkseg>
  </trk>
</gpx>